Ship Status Report: callsign 000000

sailwx.info

Track history (hours):
 
Tides and Currents Weather Stations Pressure Air Temp Water Temp Dewpoint Dewpoint Depression Visibility Wind Speed Wind Dir Waves Ship Positions

Callsign 000000 (name unknown)

Last reported at 2015-Aug-04 15:30 UTC. Time now 2015-Aug-04 15:55 UTC.
Position N 23°02' E 113°31'.

Type: Fishing. MMSI: 200007452.

Date/timePositionNaut miles runAvg speedWind from/ knotsBaromVisibWave heightAir tempDewpointWater temp
2015-Aug-04 15:30N 23°02' E 113°31'6619118.9
2015-Aug-04 15:25N 31°54' E 120°53'235.6
2015-Aug-04 15:22N 31°52' E 120°53'645.8
2015-Aug-04 15:14N 31°46' E 120°56'1318.6
2015-Aug-04 14:32N 31°58' E 120°51'1 5.6
2015-Aug-04 14:25N 31°59' E 120°50'66420598.3
2015-Aug-04 14:23N 23°02' E 113°31'659790.0
2015-Aug-04 13:33N 31°50' E 120°54'1472.3
2015-Aug-04 13:22N 32°00' E 120°43'123497.4
2015-Aug-04 13:07N 30°26' E 122°17'64714556.1
2015-Aug-04 13:04N 23°02' E 113°31'6621264.7
2015-Aug-04 12:33N 31°55' E 120°52'1094521.7
2015-Aug-04 12:31N 30°32' E 122°15'70952119.8
2015-Aug-04 12:31N 21°55' E 113°13'711207.5
2015-Aug-04 12:27N 23°04' E 113°29'316.0
2015-Aug-04 12:16N 23°02' E 113°31'0 0.0
2015-Aug-04 11:33N 23°02' E 113°31'66488503.3
2015-Aug-04 11:33N 31°59' E 120°50'730175246.5
2015-Aug-04 11:33N 21°53' E 113°14'7166397.2
2015-Aug-04 11:26N 30°42' E 122°12'107121.5
2015-Aug-04 10:33N 32°00' E 120°46'9919784.7
2015-Aug-04 10:33N 30°50' E 122°08'6571634.2
2015-Aug-04 10:09N 23°02' E 113°31'6611126.7
2015-Aug-04 09:33N 30°59' E 122°03'66134469.2
2015-Aug-04 09:32N 23°02' E 113°31'66133502.6
2015-Aug-04 09:31N 32°00' E 120°42'6613024.6
2015-Aug-04 09:18N 23°01' E 113°31'62915288.6
2015-Aug-04 09:15N 30°59' E 121°08'658687.5
2015-Aug-04 09:15N 32°01' E 120°43'82118.0
2015-Aug-04 08:33N 31°07' E 121°55'392882.6
2015-Aug-04 08:33N 30°57' E 121°11'65467248.5
2015-Aug-04 08:32N 22°17' E 113°47'466072.9
2015-Aug-04 08:32N 23°01' E 113°32'65919296.5
2015-Aug-04 08:29N 31°60' E 120°40'313.0
2015-Aug-04 08:17N 32°01' E 120°43'66015231.5
2015-Aug-04 08:14N 23°04' E 113°30'5276.1
2015-Aug-04 07:34N 22°13' E 113°39'665797884.4
2015-Aug-04 07:33N 30°58' E 121°15'3211449.7
2015-Aug-04 07:33N 31°13' E 121°48'689137800.1
2015-Aug-04 07:33N 22°13' E 113°48'69040704.0
2015-Aug-04 07:32N 31°60' E 120°36'36421124.3
2015-Aug-04 07:31N 26°01' E 119°29'372267690.5
2015-Aug-04 07:31N 23°01' E 113°32'417.1
2015-Aug-04 07:17N 23°04' E 113°30'5776.1
2015-Aug-04 06:33N 22°10' E 113°48'693415766.5
2015-Aug-04 06:33N 31°18' E 121°43'66217025.1
2015-Aug-04 06:30N 23°01' E 113°32'63348517.8
2015-Aug-04 06:29N 30°58' E 121°19'632568882.2
2015-Aug-04 06:29N 23°04' E 113°30'1 2.5
2015-Aug-04 06:16N 23°04' E 113°29'66620853.2
2015-Aug-04 06:14N 31°21' E 121°48'812.3
2015-Aug-04 05:33N 31°21' E 121°38'69353062.6
2015-Aug-04 05:33N 22°10' E 113°48'6957915.3
2015-Aug-04 05:27N 31°18' E 121°46'66315297.9
2015-Aug-04 05:25N 23°04' E 113°29'6323496.8
2015-Aug-04 05:14N 30°58' E 121°19'2942.3
2015-Aug-04 04:33N 31°25' E 121°31'204515.6
2015-Aug-04 04:33N 31°13' E 121°49'301157.7
2015-Aug-04 04:32N 30°58' E 121°19'6653608.2
2015-Aug-04 04:21N 22°10' E 113°48'53875.3
2015-Aug-04 04:17N 23°01' E 113°32'659911.7
2015-Aug-04 03:33N 31°32' E 121°21'663795907.3
2015-Aug-04 03:33N 22°55' E 113°33'993108372.5
2015-Aug-04 03:33N 39°04' E 117°48'51517174.0
2015-Aug-04 03:31N 30°58' E 121°19'66521946.9
2015-Aug-04 03:29N 22°10' E 113°48'61385.4
2015-Aug-04 03:20N 23°03' E 113°17'1489.5
2015-Aug-04 03:10N 23°01' E 113°32'5285.4
2015-Aug-04 02:33N 22°11' E 113°47'694416326.3
2015-Aug-04 02:33N 31°41' E 121°11'423169.9
2015-Aug-04 02:33N 30°59' E 121°20'708372.8
2015-Aug-04 02:32N 32°02' E 120°44'66331838.5
2015-Aug-04 02:31N 23°02' E 113°31'3 8.2
2015-Aug-04 02:09N 23°04' E 113°29'6571043.7
2015-Aug-04 01:31N 31°47' E 120°58'66314034.2
2015-Aug-04 01:28N 23°02' E 113°21'66844541.5
2015-Aug-04 01:27N 32°00' E 120°48'6644441.1
2015-Aug-04 01:18N 23°01' E 113°31'47477.9
2015-Aug-04 01:12N 22°17' E 113°48'6911040.1
2015-Aug-04 00:32N 31°56' E 120°52'6634562.0
2015-Aug-04 00:24N 23°01' E 113°31'66424650.1
2015-Aug-04 00:22N 31°59' E 120°51'7054086.4
2015-Aug-04 00:12N 22°04' E 113°47'7051084.0
2015-Aug-03 23:33N 32°00' E 120°49'674154.9
2015-Aug-03 23:32N 30°59' E 121°20'71255.5
2015-Aug-03 23:15N 32°02' E 120°43'71100.8
2015-Aug-03 22:33N 30°59' E 121°20'35698589.0
2015-Aug-03 22:33N 25°16' E 119°29'41147684.2
2015-Aug-03 22:32N 32°02' E 120°45'4230.9
2015-Aug-03 22:31N 32°00' E 120°49'6631695.6
2015-Aug-03 22:08N 23°04' E 113°29'6331087.9
2015-Aug-03 21:33N 30°59' E 121°19'672357.7
2015-Aug-03 21:31N 32°00' E 120°49'521941.0
2015-Aug-03 21:29N 31°22' E 121°30'6564024.2
2015-Aug-03 21:20N 23°04' E 113°29'0 2.6
2015-Aug-03 21:14N 23°04' E 113°29'663969.6
2015-Aug-03 20:33N 32°00' E 120°49'0 0.0
2015-Aug-03 19:33N 32°00' E 120°49'121371.5
2015-Aug-03 19:32N 31°49' E 120°54'1650.8
2015-Aug-03 19:13N 32°02' E 120°43'6844865.8
2015-Aug-03 19:05N 22°23' E 113°54'6491243.0
2015-Aug-03 18:33N 30°57' E 121°17'5710725.9
2015-Aug-03 18:33N 31°51' E 120°54'432193.9
2015-Aug-03 18:32N 31°22' E 121°30'524007.8
2015-Aug-03 18:31N 32°00' E 120°49'6634699.5
2015-Aug-03 18:23N 23°04' E 113°29'0 1.7
2015-Aug-03 18:14N 23°04' E 113°29'656955.9
2015-Aug-03 17:33N 31°22' E 121°30'462989.3
2015-Aug-03 17:32N 31°54' E 120°53'660103309.2
2015-Aug-03 17:32N 23°04' E 113°29'663298417.6
2015-Aug-03 17:31N 32°00' E 120°49'6521249.8
2015-Aug-03 17:31N 30°58' E 121°10'6693870.4
2015-Aug-03 17:21N 22°10' E 113°31'707894.6
2015-Aug-03 16:33N 31°59' E 120°50'512687.6
2015-Aug-03 16:32N 31°22' E 121°30'65652494.7
2015-Aug-03 16:32N 23°04' E 113°29'66374601.4
2015-Aug-03 16:31N 32°00' E 120°49'705727.8
2015-Aug-03 15:33N 22°07' E 113°41'70243578.1
2015-Aug-03 15:32N 32°00' E 120°43'5334.3
2015-Aug-03 15:31N 32°00' E 120°49'521961.0
2015-Aug-03 15:29N 31°22' E 121°30'692739.5
2015-Aug-03 14:33N 22°06' E 113°48'703158082.8
2015-Aug-03 14:33N 32°00' E 120°49'11223.6
2015-Aug-03 14:30N 32°01' E 120°36'6127359.5
2015-Aug-03 14:30N 31°22' E 121°30'65610314.3
2015-Aug-03 14:26N 23°04' E 113°29'0 0.9
2015-Aug-03 14:11N 23°04' E 113°29'656920.6
2015-Aug-03 13:28N 31°22' E 121°30'65621669.5
2015-Aug-03 13:26N 23°04' E 113°29'66310114.8
2015-Aug-03 13:22N 32°00' E 120°49'66316021.9
2015-Aug-03 13:20N 23°04' E 113°29'656832.6
2015-Aug-03 12:32N 31°22' E 121°30'52964.9
2015-Aug-03 12:29N 32°00' E 120°49'66313044.8
2015-Aug-03 12:26N 23°04' E 113°29'663723.1
2015-Aug-03 11:31N 32°00' E 120°49'522069.1
2015-Aug-03 11:29N 31°22' E 121°30'5251.1
2015-Aug-03 10:28N 32°00' E 120°49'52852.0
2015-Aug-03 10:24N 31°22' E 121°30'4983373.0
2015-Aug-03 10:15N 39°05' E 117°45'98512148.4
2015-Aug-03 10:11N 23°04' E 113°29'9851589.8
2015-Aug-03 09:33N 39°03' E 117°51'495356607.6
2015-Aug-03 09:33N 31°22' E 121°30'521206.8
2015-Aug-03 09:31N 32°00' E 120°49'6638405.2
2015-Aug-03 09:26N 23°04' E 113°29'65613641.6
2015-Aug-03 09:23N 31°22' E 121°29'495574.3
2015-Aug-03 08:31N 39°03' E 117°50'44870051.8
2015-Aug-03 08:31N 32°00' E 120°49'6637904.2
2015-Aug-03 08:26N 23°04' E 113°29'65635223.5
2015-Aug-03 08:25N 31°22' E 121°29'185.7
2015-Aug-03 08:24N 31°22' E 121°30'52617.8
2015-Aug-03 08:19N 32°00' E 120°49'1526530.7
2015-Aug-03 08:19N 32°02' E 120°32'6573747.0
2015-Aug-03 08:08N 23°01' E 113°31'6571114.6
2015-Aug-03 07:33N 31°22' E 121°29'260.2
2015-Aug-03 07:31N 31°22' E 121°30'6572366995.5
2015-Aug-03 07:31N 23°01' E 113°31'657679.6
2015-Aug-03 06:33N 31°22' E 121°30'155479.7
2015-Aug-03 06:33N 31°15' E 121°46'6982398.6
2015-Aug-03 06:33N 32°01' E 120°47'667104413.4
2015-Aug-03 06:33N 22°56' E 113°33'66261081.3
2015-Aug-03 06:32N 31°48' E 120°56'16158.0
2015-Aug-03 06:26N 32°01' E 120°46'3195.9
2015-Aug-03 06:25N 32°00' E 120°49'511274.8
2015-Aug-03 06:23N 31°22' E 121°29'6564495.3
2015-Aug-03 06:14N 23°04' E 113°29'664974.3
2015-Aug-03 05:33N 31°18' E 121°48'153615.1
2015-Aug-03 05:33N 31°22' E 121°30'66413578.6
2015-Aug-03 05:30N 22°50' E 113°36'6724827.9
2015-Aug-03 05:22N 32°00' E 120°49'4395.4
2015-Aug-03 05:21N 31°58' E 120°52'81125.7
2015-Aug-03 05:21N 32°01' E 120°43'6605985.1
2015-Aug-03 05:14N 23°04' E 113°29'810.8
2015-Aug-03 04:32N 23°02' E 113°21'67315945.2
2015-Aug-03 04:29N 31°23' E 121°47'653778.1
2015-Aug-03 04:28N 32°01' E 120°45'413579.9
2015-Aug-03 04:28N 32°00' E 120°49'5342.8
2015-Aug-03 04:27N 31°56' E 120°53'66236648.3
2015-Aug-03 04:26N 23°04' E 113°29'65618310.4
2015-Aug-03 04:24N 31°22' E 121°30'0 0.0
2015-Aug-03 03:33N 31°22' E 121°30'527536.5
2015-Aug-03 03:33N 32°00' E 120°49'663198987.9
2015-Aug-03 03:33N 23°05' E 113°28'1 7.6
2015-Aug-03 03:23N 23°04' E 113°29'6615022.3
2015-Aug-03 03:15N 31°55' E 120°54'45255.6
2015-Aug-03 03:04N 31°22' E 121°30'496948.6
2015-Aug-03 02:33N 39°04' E 117°48'45549649.3
2015-Aug-03 02:33N 31°55' E 120°54'12864.1
2015-Aug-03 02:32N 32°02' E 120°43'5425.4
2015-Aug-03 02:31N 32°00' E 120°49'5223534.0
2015-Aug-03 02:31N 31°22' E 121°30'66046607.2
2015-Aug-03 02:30N 22°56' E 113°33'6213668.7
2015-Aug-03 02:20N 29°50' E 122°09'150192.9
2015-Aug-03 01:33N 32°02' E 120°44'41415.8
2015-Aug-03 01:33N 32°00' E 120°48'531911.3
2015-Aug-03 01:31N 31°22' E 121°30'469649.4
2015-Aug-03 01:31N 31°55' E 120°54'4445.2
2015-Aug-03 00:33N 31°25' E 121°32'443220.8
2015-Aug-03 00:32N 31°55' E 120°54'81067.1
2015-Aug-03 00:32N 32°02' E 120°50'2144.9
2015-Aug-03 00:31N 32°01' E 120°48'5315992.8
2015-Aug-03 00:31N 31°22' E 121°30'35693.4
2015-Aug-03 00:28N 31°47' E 121°03'3740.6
2015-Aug-02 23:33N 31°21' E 121°33'66688745.0
2015-Aug-02 23:33N 22°55' E 113°27'66585500.6
2015-Aug-02 23:32N 31°22' E 121°30'522615.1
2015-Aug-02 23:31N 32°00' E 120°49'51013.5
2015-Aug-02 23:31N 32°01' E 120°43'5658.9
2015-Aug-02 22:34N 31°22' E 121°30'663477460.1
2015-Aug-02 22:33N 22°54' E 113°31'659158212.7
2015-Aug-02 22:33N 31°15' E 121°32'581574.9
2015-Aug-02 22:31N 32°00' E 120°49'5223.3
2015-Aug-02 22:30N 32°01' E 120°43'61446564.9
2015-Aug-02 21:34N 33°21' W 117°38'61391381275.6
2015-Aug-02 21:33N 32°00' E 120°49'664265527.0
2015-Aug-02 21:33N 23°02' E 113°31'6577504.7
2015-Aug-02 21:28N 31°22' E 121°30'65622495.0
2015-Aug-02 21:26N 23°04' E 113°29'64843168.5
2015-Aug-02 21:25N 31°11' E 121°28'53676.0
2015-Aug-02 21:21N 31°55' E 120°54'4656.7
2015-Aug-02 20:32N 31°22' E 121°30'65678736.6
2015-Aug-02 20:32N 23°04' E 113°29'66348719.6
2015-Aug-02 20:31N 32°00' E 120°49'1858.2
2015-Aug-02 20:12N 31°47' E 121°03'3452.9
2015-Aug-02 19:33N 31°22' E 121°30'6561181038.1
2015-Aug-02 19:33N 23°04' E 113°29'66040253.7
2015-Aug-02 19:32N 31°43' E 121°08'66614012.5
2015-Aug-02 19:30N 23°03' E 113°20'66924568.1
2015-Aug-02 19:28N 32°00' E 120°49'3336.3
2015-Aug-02 18:33N 31°37' E 121°17'661108141.0
2015-Aug-02 18:33N 23°05' E 113°26'3517.8
2015-Aug-02 18:33N 23°04' E 113°29'65620018.5
2015-Aug-02 18:31N 31°22' E 121°30'52636.7
2015-Aug-02 18:26N 32°00' E 120°49'663754.3
2015-Aug-02 17:33N 23°04' E 113°29'660182670.1
2015-Aug-02 17:33N 31°31' E 121°25'107382.5
2015-Aug-02 17:33N 31°22' E 121°30'65912296.3
2015-Aug-02 17:30N 22°59' E 113°31'6675227.5
2015-Aug-02 17:22N 32°00' E 120°49'663820.1
2015-Aug-02 16:33N 23°04' E 113°29'111919.3
2015-Aug-02 16:33N 22°53' E 113°30'668160271.3
2015-Aug-02 16:33N 31°24' E 121°34'4261.2
2015-Aug-02 16:32N 31°22' E 121°30'6122102991.1
2015-Aug-02 16:28N 33°19' W 117°45'683730727.7
2015-Aug-02 16:15N 23°04' E 113°29'656931.0
2015-Aug-02 15:33N 31°22' E 121°30'697209161.8
2015-Aug-02 15:33N 22°10' E 113°32'702157913.9
2015-Aug-02 15:32N 31°18' E 121°44'66118175.1
2015-Aug-02 15:30N 23°04' E 113°29'6634617.8
2015-Aug-02 15:21N 32°00' E 120°49'7391.2
2015-Aug-02 14:33N 31°10' E 121°52'2278081.8
2015-Aug-02 14:33N 31°22' E 121°30'5220919.1
2015-Aug-02 14:33N 32°00' E 120°49'66361212.8
2015-Aug-02 14:32N 23°04' E 113°29'0 1.7
2015-Aug-02 14:27N 23°04' E 113°29'0 0.3
2015-Aug-02 13:33N 23°04' E 113°30'66355500.7
2015-Aug-02 13:33N 32°00' E 120°49'52484.0
2015-Aug-02 13:26N 31°22' E 121°30'6562769.0
2015-Aug-02 13:12N 23°04' E 113°29'95159001.6
2015-Aug-02 13:11N 36°53' E 122°26'9501515.3
2015-Aug-02 12:33N 23°04' E 113°30'65623613.7
2015-Aug-02 12:32N 31°22' E 121°30'521238.6
2015-Aug-02 12:29N 32°00' E 120°49'66318084.0
2015-Aug-02 12:27N 23°04' E 113°29'95123767.7
2015-Aug-02 12:25N 36°53' E 122°26'9511100.0
2015-Aug-02 11:33N 23°04' E 113°30'65676173.2
2015-Aug-02 11:32N 31°22' E 121°30'5011912.4
2015-Aug-02 11:32N 31°56' E 120°48'51360.2
2015-Aug-02 11:32N 32°00' E 120°49'3031621.1
2015-Aug-02 11:21N 36°53' E 122°26'9501201.7
2015-Aug-02 10:33N 23°04' E 113°30'65819406.1
2015-Aug-02 10:31N 31°60' E 120°40'306220434.9
2015-Aug-02 10:31N 36°53' E 122°26'335133915.4
2015-Aug-02 10:31N 31°22' E 121°30'521082.1
2015-Aug-02 10:28N 32°00' E 120°49'66343401.7
2015-Aug-02 10:27N 23°04' E 113°29'664740.3
2015-Aug-02 09:33N 30°56' E 122°13'66450828.8
2015-Aug-02 09:32N 23°04' E 113°30'656295169.0
2015-Aug-02 09:32N 31°22' E 121°30'5247068.1
2015-Aug-02 09:32N 32°00' E 120°49'652420.1
2015-Aug-02 09:31N 31°05' E 121°28'513263958.5
2015-Aug-02 09:31N 39°05' E 117°45'9859096.5
2015-Aug-02 09:24N 23°04' E 113°29'49159.8
2015-Aug-02 09:06N 22°18' E 113°46'6841268.8
2015-Aug-02 08:33N 31°22' E 121°30'656214668.4
2015-Aug-02 08:33N 23°04' E 113°30'985236506.4
2015-Aug-02 08:33N 39°04' E 117°50'993255299.5
2015-Aug-02 08:33N 22°56' E 113°34'64844860.3
2015-Aug-02 08:32N 31°07' E 121°28'43725.2
2015-Aug-02 08:28N 30°50' E 122°13'65936520.4
2015-Aug-02 08:27N 23°04' E 113°29'9859072.8
2015-Aug-02 08:21N 39°05' E 117°46'1037933462.4
2015-Aug-02 08:21N 22°08' E 113°46'70227465.0
2015-Aug-02 08:19N 32°00' E 120°49'69323985.8
2015-Aug-02 08:17N 22°17' E 113°49'1318.3
2015-Aug-02 07:34N 22°06' E 113°41'70697797.5
2015-Aug-02 07:33N 32°00' E 120°49'415141.5
2015-Aug-02 07:33N 32°01' E 120°44'5511047.8
2015-Aug-02 07:33N 31°22' E 121°30'686353003.8
2015-Aug-02 07:33N 22°13' E 113°48'546103.4
2015-Aug-02 07:32N 23°04' E 113°29'662396955.6
2015-Aug-02 07:32N 31°55' E 120°54'454204296.3
2015-Aug-02 07:32N 39°04' E 117°51'50619793.4
2015-Aug-02 07:30N 31°10' E 121°28'50679183.1
2015-Aug-02 07:30N 39°04' E 117°50'10421107.5
2015-Aug-02 06:34N 22°03' E 113°46'73462.1
2015-Aug-02 06:33N 22°10' E 113°48'577923.8
2015-Aug-02 06:33N 23°04' E 113°29'650116948.6
2015-Aug-02 06:33N 31°13' E 121°30'650292348.4
2015-Aug-02 06:33N 23°04' E 113°29'98516649.3
2015-Aug-02 06:29N 39°03' E 117°52'4532484.4
2015-Aug-02 06:18N 31°55' E 120°54'457614.7
2015-Aug-02 05:33N 39°05' E 117°44'4991794708.4
2015-Aug-02 05:33N 31°22' E 121°30'65694491.2
2015-Aug-02 05:33N 23°04' E 113°29'5720600.0
2015-Aug-02 05:33N 22°10' E 113°48'103525876.7
2015-Aug-02 05:30N 39°04' E 117°50'9858546.4
2015-Aug-02 05:24N 23°04' E 113°29'663103784.7
2015-Aug-02 05:23N 32°00' E 120°49'567747.7
2015-Aug-02 05:23N 31°08' E 121°14'4929686.6
2015-Aug-02 05:23N 31°55' E 120°54'12369.8
2015-Aug-02 05:21N 32°02' E 120°43'641087.7
2015-Aug-02 05:17N 31°28' E 121°47'5371.5
2015-Aug-02 04:33N 31°55' E 120°54'6622381738.5
2015-Aug-02 04:33N 23°04' E 113°29'63543149.2
2015-Aug-02 04:32N 31°09' E 121°10'559371.0
2015-Aug-02 04:32N 32°00' E 120°49'522078.6
2015-Aug-02 04:30N 31°22' E 121°30'69520029.3
2015-Aug-02 04:28N 22°03' E 113°47'7326.2
2015-Aug-02 04:27N 22°10' E 113°48'48460.0
2015-Aug-02 04:21N 22°56' E 113°33'67047287.4
2015-Aug-02 04:20N 31°21' E 121°48'50464808.6
2015-Aug-02 04:19N 39°05' E 117°46'476.1
2015-Aug-02 04:16N 39°04' E 117°51'4442401.7
2015-Aug-02 04:05N 32°02' E 120°43'6621255.0
2015-Aug-02 03:33N 23°04' E 113°29'662125354.7
2015-Aug-02 03:33N 31°55' E 120°54'579285.8
2015-Aug-02 03:33N 31°18' E 121°45'504129485.3
2015-Aug-02 03:32N 39°04' E 117°50'496198312.8
2015-Aug-02 03:32N 31°22' E 121°30'215277.7
2015-Aug-02 03:32N 31°11' E 121°09'522877.0
2015-Aug-02 03:31N 32°00' E 120°49'6662396634.1
2015-Aug-02 03:31N 22°60' E 113°31'594814.3
2015-Aug-02 03:30N 22°03' E 113°47'321437.7
2015-Aug-02 03:29N 21°57' E 113°14'7201672.1
2015-Aug-02 03:03N 31°23' E 121°30'4488.2
2015-Aug-02 02:33N 31°55' E 120°54'6622381738.5
2015-Aug-02 02:33N 23°04' E 113°29'639766455.0
2015-Aug-02 02:33N 31°14' E 121°09'671160964.2
2015-Aug-02 02:33N 22°12' E 113°48'688117880.2
2015-Aug-02 02:32N 31°22' E 121°30'504294.6
2015-Aug-02 02:32N 31°59' E 120°51'2170.2
2015-Aug-02 02:31N 32°00' E 120°49'7212351.8
2015-Aug-02 02:31N 31°11' E 121°51'771780.5
2015-Aug-02 02:28N 32°02' E 120°43'6629167.2
2015-Aug-02 02:24N 23°02' E 113°32'68589.4
2015-Aug-02 02:17N 21°57' E 113°14'691768.0
2015-Aug-02 02:14N 23°04' E 113°29'0 0.1
2015-Aug-02 01:33N 23°04' E 113°29'98690991.8
2015-Aug-02 01:33N 39°04' E 117°51'495445311.4
2015-Aug-02 01:33N 31°16' E 121°09'19396.2
2015-Aug-02 01:30N 31°22' E 121°30'65694494.6
2015-Aug-02 01:29N 23°04' E 113°29'5059712.4
2015-Aug-02 01:29N 22°18' E 113°48'384320.2
2015-Aug-02 01:29N 21°57' E 113°14'72511752.8
2015-Aug-02 01:25N 32°00' E 120°44'55436.6
2015-Aug-02 01:25N 32°00' E 120°49'7207.9
2015-Aug-02 01:23N 31°55' E 120°54'0 0.0
2015-Aug-02 00:34N 31°55' E 120°54'4513523.4
2015-Aug-02 00:33N 31°22' E 121°30'22391.8
2015-Aug-02 00:30N 31°17' E 121°06'461324.1
2015-Aug-02 00:28N 32°00' E 120°48'7034191.6
2015-Aug-02 00:18N 22°06' E 113°46'6181.2
2015-Aug-01 23:33N 23°04' E 113°29'65733785.3
2015-Aug-01 23:32N 31°23' E 121°30'65851493.2
2015-Aug-01 23:31N 23°02' E 113°31'664478348.8
2015-Aug-01 23:31N 32°00' E 120°49'178747.8
2015-Aug-01 23:31N 32°02' E 120°29'22570.8
2015-Aug-01 23:29N 31°55' E 120°54'4448.1
2015-Aug-01 22:33N 31°23' E 121°30'65763918.6
2015-Aug-01 22:33N 23°04' E 113°29'010.3
2015-Aug-01 22:30N 23°04' E 113°29'325.1
2015-Aug-01 22:23N 23°02' E 113°31'6649263.8
2015-Aug-01 22:19N 32°00' E 120°49'6642587.9
2015-Aug-01 22:03N 23°02' E 113°32'3 6.5
2015-Aug-01 21:33N 23°04' E 113°29'3895.8
2015-Aug-01 21:33N 23°02' E 113°32'33364.1
2015-Aug-01 21:33N 23°04' E 113°29'66319251.7
2015-Aug-01 21:31N 32°00' E 120°49'561380.2
2015-Aug-01 21:29N 31°19' E 121°34'65724374.1
2015-Aug-01 21:27N 23°02' E 113°31'6625717.9
2015-Aug-01 21:20N 31°55' E 120°54'36140.4
2015-Aug-01 21:05N 31°19' E 120°54'4177.4
2015-Aug-01 20:33N 32°00' E 120°49'6632387315.8
2015-Aug-01 20:33N 23°04' E 113°29'65068865.9
2015-Aug-01 20:32N 31°14' E 121°29'6516892.1
2015-Aug-01 20:27N 23°02' E 113°31'320.7
2015-Aug-01 20:18N 23°04' E 113°29'662889.5
2015-Aug-01 19:34N 31°55' E 120°54'66279401.9
2015-Aug-01 19:33N 23°04' E 113°29'66382316.1
2015-Aug-01 19:33N 32°00' E 120°49'631091.9
2015-Aug-01 19:29N 30°58' E 121°05'221975.2
2015-Aug-01 19:28N 31°09' E 121°28'646704.0
2015-Aug-01 18:33N 23°04' E 113°29'64337918.4
2015-Aug-01 18:32N 31°04' E 121°28'6516749.5
2015-Aug-01 18:32N 32°00' E 120°49'7200.2
2015-Aug-01 18:30N 31°55' E 120°54'591381.4
2015-Aug-01 18:27N 30°57' E 121°11'6272650.6
2015-Aug-01 18:13N 23°02' E 113°32'630951.4
2015-Aug-01 17:33N 30°58' E 121°16'630252062.8
2015-Aug-01 17:33N 23°04' E 113°29'0107.0
2015-Aug-01 17:33N 23°04' E 113°29'6424909.0
2015-Aug-01 17:25N 31°04' E 121°28'6423059.1
2015-Aug-01 17:13N 23°02' E 113°32'662595852.3
2015-Aug-01 17:13N 31°55' E 120°54'7205.9
2015-Aug-01 17:11N 32°00' E 120°49'711.0
2015-Aug-01 16:33N 31°55' E 120°54'5917624.7
2015-Aug-01 16:33N 31°04' E 121°28'642256934.0
2015-Aug-01 16:33N 23°04' E 113°29'66372340.2
2015-Aug-01 16:32N 32°00' E 120°49'675361.5
2015-Aug-01 16:31N 30°59' E 121°20'63430012.6
2015-Aug-01 16:30N 23°04' E 113°29'329.2
2015-Aug-01 16:24N 23°02' E 113°32'661780.6
2015-Aug-01 15:33N 31°05' E 121°58'661118984.3
2015-Aug-01 15:33N 23°04' E 113°29'034.9
2015-Aug-01 15:32N 23°04' E 113°29'6638809.4
2015-Aug-01 15:28N 32°00' E 120°49'66318.3
2015-Aug-01 15:15N 31°04' E 121°28'2130.1
2015-Aug-01 14:33N 31°09' E 121°53'660594093.5
2015-Aug-01 14:33N 23°04' E 113°29'347.2
2015-Aug-01 14:29N 23°02' E 113°32'6422050.3
2015-Aug-01 14:10N 31°04' E 121°28'1930.5
2015-Aug-01 13:33N 31°13' E 121°48'66016740.8
2015-Aug-01 13:31N 23°04' E 113°29'6635590.9
2015-Aug-01 13:24N 32°00' E 120°49'667863.6
2015-Aug-01 13:23N 31°04' E 121°28'6427248.0
2015-Aug-01 13:18N 23°04' E 113°29'321.5
2015-Aug-01 13:10N 23°02' E 113°32'3 5.2
2015-Aug-01 12:33N 23°04' E 113°29'0100.9
2015-Aug-01 12:33N 23°04' E 113°29'661339841.7
2015-Aug-01 12:33N 31°21' E 121°39'191856.5
2015-Aug-01 12:32N 31°04' E 121°28'66914.7
2015-Aug-01 12:28N 32°00' E 120°49'6641978.8
2015-Aug-01 12:08N 23°02' E 113°31'6591097.9
2015-Aug-01 11:32N 31°27' E 121°28'659197617.4
2015-Aug-01 11:32N 23°04' E 113°29'016.7
2015-Aug-01 11:30N 23°04' E 113°29'311.3
2015-Aug-01 11:15N 23°02' E 113°32'66214267.2
2015-Aug-01 11:13N 31°55' E 120°54'6621012.9
2015-Aug-01 10:33N 23°04' E 113°29'3462.4
2015-Aug-01 10:33N 23°02' E 113°32'659593094.7
2015-Aug-01 10:33N 31°34' E 121°18'66130129.4
2015-Aug-01 10:32N 23°04' E 113°25'66592124.8
2015-Aug-01 10:31N 32°00' E 120°49'66337890.6
2015-Aug-01 10:30N 23°04' E 113°29'6612381294.3
2015-Aug-01 10:30N 31°55' E 120°54'661696.5
2015-Aug-01 09:33N 23°04' E 113°29'066.8
2015-Aug-01 09:33N 23°04' E 113°29'66249628.1
2015-Aug-01 09:32N 32°02' E 120°43'2915144.2
2015-Aug-01 09:32N 31°42' E 121°08'252331.2
2015-Aug-01 09:31N 32°00' E 120°49'66929.0
2015-Aug-01 09:27N 31°04' E 121°28'59448.9
2015-Aug-01 09:19N 31°55' E 120°54'661863.7
2015-Aug-01 08:33N 23°04' E 113°29'025.2
2015-Aug-01 08:32N 23°04' E 113°29'985272774.3
2015-Aug-01 08:32N 39°04' E 117°47'987507369.1
2015-Aug-01 08:32N 23°02' E 113°32'65720754.3
2015-Aug-01 08:30N 31°47' E 120°58'945.2
2015-Aug-01 08:18N 31°55' E 120°54'4576427.7
2015-Aug-01 08:14N 39°05' E 117°44'4 6.0
2015-Aug-01 07:33N 39°04' E 117°49'985186710.8
2015-Aug-01 07:33N 23°04' E 113°29'662476304.6
2015-Aug-01 07:33N 31°55' E 120°54'273.0
2015-Aug-01 07:32N 31°54' E 120°53'66023996.9
2015-Aug-01 07:30N 23°04' E 113°29'2595153.7
2015-Aug-01 07:27N 24°24' E 117°58'4412685.8
2015-Aug-01 07:17N 31°04' E 121°28'6437238.2
2015-Aug-01 07:12N 23°01' E 113°32'461260.7
2015-Aug-01 07:10N 22°17' E 113°44'6956228.1
2015-Aug-01 07:03N 32°00' E 120°49'6631341.1
2015-Aug-01 06:33N 23°04' E 113°29'26345141.5
2015-Aug-01 06:33N 24°25' E 118°03'27160923.0
2015-Aug-01 06:33N 22°15' E 113°44'673345895.4
2015-Aug-01 06:33N 31°04' E 121°28'20708.4
2015-Aug-01 06:31N 31°10' E 121°51'66127674.3
2015-Aug-01 06:29N 23°01' E 113°32'55889.5
2015-Aug-01 06:26N 22°18' E 114°10'681817037.0
2015-Aug-01 06:26N 32°01' E 120°46'3247.3
2015-Aug-01 06:25N 32°00' E 120°49'66310029.7
2015-Aug-01 06:21N 23°04' E 113°29'98617747.3
2015-Aug-01 06:18N 39°04' E 117°51'3680.8
2015-Aug-01 06:17N 39°04' E 117°47'4554246.3
2015-Aug-01 06:11N 31°55' E 120°54'6701065.0
2015-Aug-01 05:33N 22°54' E 113°28'103993.8
2015-Aug-01 05:33N 23°04' E 113°29'661237977.6
2015-Aug-01 05:33N 31°15' E 121°46'191363.7
2015-Aug-01 05:32N 31°04' E 121°28'439175684.5
2015-Aug-01 05:32N 24°22' E 118°08'88230238.1
2015-Aug-01 05:30N 39°04' E 117°48'310.0
2015-Aug-01 05:15N 39°05' E 117°45'10379035.8
2015-Aug-01 05:08N 22°09' E 113°46'66821661.8
2015-Aug-01 05:06N 30°59' E 121°20'6341153.8
2015-Aug-01 04:33N 23°04' E 113°29'634126729.7
2015-Aug-01 04:33N 30°59' E 121°20'327570.8
2015-Aug-01 04:33N 31°20' E 121°48'194008.5
2015-Aug-01 04:32N 31°21' E 121°26'49534976.2
2015-Aug-01 04:31N 39°04' E 117°50'44818123.6
2015-Aug-01 04:30N 32°00' E 120°49'4485696.8
2015-Aug-01 04:25N 39°04' E 117°51'99020028.0
2015-Aug-01 04:22N 22°59' E 113°31'99010157.5
2015-Aug-01 04:16N 39°05' E 117°44'10425983.2
2015-Aug-01 04:06N 22°03' E 113°47'591693.5
2015-Aug-01 04:04N 23°01' E 113°32'4 8.8
2015-Aug-01 03:33N 23°04' E 113°29'1393.3
2015-Aug-01 03:33N 23°04' E 113°30'63112681.4
2015-Aug-01 03:33N 22°03' E 113°47'69459526.9
2015-Aug-01 03:33N 31°22' E 121°29'49461362.5
2015-Aug-01 03:32N 39°03' E 117°51'131.4
2015-Aug-01 03:29N 39°04' E 117°50'98930683.8
2015-Aug-01 03:27N 23°01' E 113°32'6359176.7
2015-Aug-01 03:23N 30°59' E 121°20'60253.0
2015-Aug-01 03:09N 31°55' E 120°54'7453.6
2015-Aug-01 03:08N 32°00' E 120°49'711.6
2015-Aug-01 02:33N 31°55' E 120°54'663198889.4
2015-Aug-01 02:33N 23°01' E 113°32'4356.5
2015-Aug-01 02:32N 23°04' E 113°29'634190095.9
2015-Aug-01 02:32N 30°59' E 121°20'6760225.8
2015-Aug-01 02:32N 32°00' E 120°49'448269022.5
2015-Aug-01 02:32N 39°04' E 117°49'4942898.1
2015-Aug-01 02:22N 31°24' E 121°31'658816.4
2015-Aug-01 01:33N 23°04' E 113°29'0401.1
2015-Aug-01 01:33N 23°04' E 113°29'661793799.6
2015-Aug-01 01:33N 31°55' E 120°54'6054429.0
2015-Aug-01 01:33N 30°58' E 121°18'702197.0
2015-Aug-01 01:31N 32°01' E 120°43'53897.2
2015-Aug-01 01:31N 32°00' E 120°49'66324868.1
2015-Aug-01 01:29N 23°04' E 113°29'473.5
2015-Aug-01 01:26N 23°01' E 113°32'9886307.9
2015-Aug-01 01:17N 39°05' E 117°45'457633.3
2015-Aug-01 00:34N 31°55' E 120°54'594746.0
2015-Aug-01 00:33N 30°57' E 121°11'62790283.5
2015-Aug-01 00:32N 23°04' E 113°29'66382271.9
2015-Aug-01 00:32N 32°01' E 120°47'664132824.0
2015-Aug-01 00:32N 23°01' E 113°32'66114697.7
2015-Aug-01 00:29N 32°01' E 120°43'44524655.2
2015-Aug-01 00:28N 39°03' E 117°51'98827153.9
2015-Aug-01 00:26N 23°02' E 113°22'632724.2
2015-Jul-31 23:33N 31°02' E 121°05'507303991.4
2015-Jul-31 23:33N 39°03' E 117°52'985886492.0
2015-Jul-31 23:33N 23°04' E 113°29'663238640.9
2015-Jul-31 23:33N 31°59' E 120°50'664132759.8
2015-Jul-31 23:33N 23°05' E 113°26'24175.9
2015-Jul-31 23:33N 23°04' E 113°29'1170.9
2015-Jul-31 23:32N 23°04' E 113°29'662119084.2
2015-Jul-31 23:32N 31°55' E 120°54'6634880.1
2015-Jul-31 23:24N 23°01' E 113°32'4 4.5
2015-Jul-31 22:33N 23°04' E 113°29'051.8
2015-Jul-31 22:33N 23°04' E 113°29'62225428.4
2015-Jul-31 22:31N 31°01' E 120°56'5439196.4
2015-Jul-31 22:31N 31°56' E 120°54'66323634.4
2015-Jul-31 22:29N 23°01' E 113°32'410.6
2015-Jul-31 22:08N 23°04' E 113°29'1 0.9
2015-Jul-31 21:32N 23°04' E 113°29'426.8
2015-Jul-31 21:23N 23°01' E 113°32'4139.7
2015-Jul-31 21:21N 23°04' E 113°29'655131081.2
2015-Jul-31 21:21N 32°02' E 120°32'6210700.8
2015-Jul-31 21:20N 31°01' E 120°48'616783.5
2015-Jul-31 20:33N 23°04' E 113°29'0 8.5
2015-Jul-31 20:30N 23°04' E 113°29'4121.3
2015-Jul-31 20:28N 23°01' E 113°32'66336724.2
2015-Jul-31 20:27N 31°56' E 120°54'6624086.4
2015-Jul-31 20:17N 23°04' E 113°29'1 0.8
2015-Jul-31 19:33N 23°04' E 113°29'089.1
2015-Jul-31 19:33N 23°04' E 113°29'662113431.9
2015-Jul-31 19:33N 31°56' E 120°54'6621638.5
2015-Jul-31 19:08N 23°04' E 113°29'1 1.0
2015-Jul-31 18:33N 23°04' E 113°29'130.2
2015-Jul-31 18:32N 23°04' E 113°29'662595555.9
2015-Jul-31 18:32N 31°56' E 120°54'81591.5
2015-Jul-31 18:32N 32°01' E 120°46'6671782.7
2015-Jul-31 18:10N 22°56' E 113°34'91157.5
2015-Jul-31 18:09N 23°04' E 113°29'662793812.4
2015-Jul-31 18:09N 31°55' E 120°54'6661125.5
2015-Jul-31 17:33N 22°56' E 113°34'1034924.4
2015-Jul-31 17:33N 23°04' E 113°29'662119170.1
2015-Jul-31 17:33N 32°01' E 120°46'9116.2
2015-Jul-31 17:29N 31°55' E 120°54'6624850.7
2015-Jul-31 17:20N 23°04' E 113°29'1 0.7
2015-Jul-31 16:33N 23°04' E 113°29'663397777.0
2015-Jul-31 16:33N 31°59' E 120°51'4527.1
2015-Jul-31 16:33N 31°55' E 120°54'662238167.7
2015-Jul-31 16:32N 23°04' E 113°29'0 3.3
2015-Jul-31 16:30N 23°04' E 113°29'4113.7
2015-Jul-31 16:28N 23°00' E 113°32'6641943.8
2015-Jul-31 16:07N 31°56' E 120°54'6621174.1
2015-Jul-31 15:33N 23°04' E 113°29'076.9
2015-Jul-31 15:33N 23°04' E 113°29'080.3
2015-Jul-31 15:33N 23°04' E 113°29'014.6
2015-Jul-31 15:32N 23°04' E 113°29'417.1
2015-Jul-31 15:19N 23°01' E 113°32'6634900.2
2015-Jul-31 15:11N 31°55' E 120°54'6621059.9
2015-Jul-31 14:33N 23°04' E 113°29'4821.5
2015-Jul-31 14:33N 23°03' E 113°25'41886.6
2015-Jul-31 14:33N 23°04' E 113°29'011.3
2015-Jul-31 14:32N 23°04' E 113°29'66366300.1
2015-Jul-31 14:32N 31°59' E 120°51'451.6
2015-Jul-31 14:27N 31°55' E 120°54'6634940.6
2015-Jul-31 14:18N 23°01' E 113°32'4 5.7
2015-Jul-31 13:33N 23°04' E 113°29'129.9
2015-Jul-31 13:32N 23°04' E 113°29'66250671.7
2015-Jul-31 13:32N 31°55' E 120°54'4142.6
2015-Jul-31 13:30N 31°59' E 120°51'6674883.4
2015-Jul-31 13:21N 22°56' E 113°34'1012.0
2015-Jul-31 12:33N 23°04' E 113°29'064.6
2015-Jul-31 12:33N 23°04' E 113°29'010.9
2015-Jul-31 12:32N 23°04' E 113°29'6626234.8
2015-Jul-31 12:26N 31°55' E 120°54'4203.5
2015-Jul-31 12:25N 31°59' E 120°51'66429165.7
2015-Jul-31 12:23N 23°01' E 113°32'4 5.1
2015-Jul-31 11:33N 23°04' E 113°29'0323.0
2015-Jul-31 11:33N 23°04' E 113°29'66282119.3
2015-Jul-31 11:33N 31°55' E 120°54'70576865.7
2015-Jul-31 11:32N 22°11' E 113°32'70617178.4
2015-Jul-31 11:30N 31°59' E 120°51'6634323.9
2015-Jul-31 11:20N 23°04' E 113°29'460.1
2015-Jul-31 11:17N 23°01' E 113°32'9534557.6
2015-Jul-31 11:04N 36°54' E 122°26'306591.4
2015-Jul-31 10:33N 31°59' E 120°51'43211.9
2015-Jul-31 10:33N 31°55' E 120°54'11657.3
2015-Jul-31 10:32N 32°01' E 120°43'70231996.5
2015-Jul-31 10:31N 22°09' E 113°38'99756979.2
2015-Jul-31 10:30N 36°54' E 122°26'951428149.8
2015-Jul-31 10:30N 23°04' E 113°29'477.8
2015-Jul-31 10:26N 23°00' E 113°31'6471.1
2015-Jul-31 10:25N 22°55' E 113°34'970.1
2015-Jul-31 10:17N 23°04' E 113°29'663897.5
2015-Jul-31 09:33N 31°59' E 120°51'45339.0
2015-Jul-31 09:33N 31°55' E 120°54'662216507.8
2015-Jul-31 09:33N 23°04' E 113°29'95117933.0
2015-Jul-31 09:30N 36°54' E 122°26'9613983.8
2015-Jul-31 09:15N 22°54' E 113°30'10172.3
2015-Jul-31 09:12N 23°04' E 113°30'6584619.2
2015-Jul-31 09:03N 31°50' E 120°55'7001401.7
2015-Jul-31 08:33N 22°08' E 113°39'5714758.3
2015-Jul-31 08:33N 23°04' E 113°29'64241249.7
2015-Jul-31 08:32N 31°03' E 121°29'605261.7
2015-Jul-31 08:31N 31°54' E 120°53'4236.9
2015-Jul-31 08:30N 31°59' E 120°51'30644003.8
2015-Jul-31 08:30N 36°54' E 122°26'30928480.4
2015-Jul-31 08:29N 31°55' E 120°54'66319401.4
2015-Jul-31 08:27N 23°01' E 113°32'66217641.8
2015-Jul-31 08:25N 32°01' E 120°43'660768.9
2015-Jul-31 07:33N 23°04' E 113°29'63669393.2
2015-Jul-31 07:33N 30°59' E 121°24'67569413.7
2015-Jul-31 07:32N 22°05' E 113°43'999156287.1
2015-Jul-31 07:32N 36°54' E 122°25'36228315.7
2015-Jul-31 07:31N 30°58' E 121°10'661841.5
2015-Jul-31 07:29N 32°00' E 120°46'8725.6
2015-Jul-31 07:28N 31°55' E 120°54'11687.8
2015-Jul-31 07:27N 32°01' E 120°43'66074246.6
2015-Jul-31 07:27N 23°04' E 113°30'435.9
2015-Jul-31 07:20N 23°01' E 113°32'6646053.9
2015-Jul-31 07:14N 31°59' E 120°51'663989.0
2015-Jul-31 06:33N 23°04' E 113°29'6629021.2
2015-Jul-31 06:29N 31°55' E 120°54'4985.7
2015-Jul-31 06:29N 31°59' E 120°51'41344.2
2015-Jul-31 06:29N 31°56' E 120°54'45539915.0
2015-Jul-31 06:28N 39°04' E 117°47'4462020.5
2015-Jul-31 06:15N 31°60' E 120°35'6575450.5
2015-Jul-31 06:07N 23°01' E 113°32'4 7.6
2015-Jul-31 05:33N 23°04' E 113°29'66241780.7
2015-Jul-31 05:33N 31°55' E 120°54'91254.4
2015-Jul-31 05:32N 32°02' E 120°47'311268.4
2015-Jul-31 05:32N 32°01' E 120°43'7386.0
2015-Jul-31 05:31N 31°59' E 120°51'498.1
2015-Jul-31 05:29N 31°56' E 120°54'6622805.0
2015-Jul-31 05:15N 23°04' E 113°30'662953.3
2015-Jul-31 04:33N 31°57' E 120°52'662595737.1
2015-Jul-31 04:33N 23°04' E 113°29'663795476.6
2015-Jul-31 04:33N 31°59' E 120°51'66417455.6
2015-Jul-31 04:30N 23°01' E 113°32'66385231.7
2015-Jul-31 04:30N 31°55' E 120°54'6669551.2
2015-Jul-31 04:26N 23°07' E 113°17'12321.5
2015-Jul-31 04:24N 23°04' E 113°30'66032546.5
2015-Jul-31 04:22N 32°01' E 120°43'4493237.6
2015-Jul-31 04:14N 39°05' E 117°44'5 7.3
2015-Jul-31 03:33N 39°03' E 117°50'45490742.1
2015-Jul-31 03:33N 31°55' E 120°54'662183198.3
2015-Jul-31 03:33N 23°04' E 113°29'4586.4
2015-Jul-31 03:32N 23°01' E 113°31'661339748.7
2015-Jul-31 03:32N 31°52' E 120°54'13516.8
2015-Jul-31 03:31N 32°01' E 120°43'7158.6
2015-Jul-31 03:28N 31°59' E 120°51'706846654.7
2015-Jul-31 03:28N 22°03' E 113°47'632553.7
2015-Jul-31 03:27N 23°04' E 113°30'63214.4
2015-Jul-31 03:09N 22°03' E 113°48'64108.5
2015-Jul-31 02:33N 23°04' E 113°29'66566460.5
2015-Jul-31 02:33N 31°19' E 121°48'5394941.3
2015-Jul-31 02:33N 31°48' E 120°56'698502747.4
2015-Jul-31 02:33N 22°03' E 113°48'70581896.7
2015-Jul-31 02:32N 31°59' E 120°51'42720.7
2015-Jul-31 02:32N 31°56' E 120°54'1248.7
2015-Jul-31 02:32N 31°55' E 120°54'6617214.6
2015-Jul-31 02:27N 23°04' E 113°30'98546672.8
2015-Jul-31 02:25N 39°04' E 117°49'44723640.6
2015-Jul-31 02:24N 32°01' E 120°43'660782.5
2015-Jul-31 01:33N 23°04' E 113°29'661119010.2
2015-Jul-31 01:33N 31°15' E 121°47'612516.0
2015-Jul-31 01:32N 31°56' E 120°54'454181412.9
2015-Jul-31 01:32N 39°04' E 117°50'45417772.7
2015-Jul-31 01:30N 31°55' E 120°54'592796.1
2015-Jul-31 01:29N 31°04' E 121°28'6345707.9
2015-Jul-31 01:29N 31°59' E 120°51'7203.4
2015-Jul-31 01:27N 32°01' E 120°43'6656996.1
2015-Jul-31 01:21N 23°07' E 113°16'1215.3
2015-Jul-31 00:33N 23°04' E 113°29'0 1.3
2015-Jul-31 00:31N 23°04' E 113°29'0 0.0
2015-Jul-30 23:33N 23°04' E 113°29'65619043.4
2015-Jul-30 23:31N 31°47' E 120°56'533713.9
2015-Jul-30 23:30N 30°57' E 121°17'6327128.2
2015-Jul-30 23:25N 23°02' E 113°31'66410390.4
2015-Jul-30 23:21N 31°58' E 120°51'663835.3
2015-Jul-30 22:33N 23°04' E 113°29'663216881.5
2015-Jul-30 22:33N 31°58' E 120°51'3103.2
2015-Jul-30 22:31N 31°56' E 120°54'66226469.4
2015-Jul-30 22:30N 23°04' E 113°29'65621084.0
2015-Jul-30 22:28N 31°47' E 120°56'6566746.5
2015-Jul-30 22:22N 23°04' E 113°29'392.2
2015-Jul-30 22:20N 23°02' E 113°31'3 3.8
2015-Jul-30 21:33N 23°04' E 113°29'0 1.7
2015-Jul-30 21:31N 23°04' E 113°29'66319238.7
2015-Jul-30 21:29N 31°58' E 120°51'66317803.9
2015-Jul-30 21:27N 23°04' E 113°29'0 0.2
2015-Jul-30 20:33N 23°04' E 113°29'0 1.3
2015-Jul-30 20:31N 23°04' E 113°29'65631488.0
2015-Jul-30 20:30N 31°47' E 120°56'12641.7
2015-Jul-30 20:28N 31°58' E 120°51'66415518.1
2015-Jul-30 20:26N 23°02' E 113°31'3 3.4
2015-Jul-30 19:33N 23°04' E 113°29'3531.0
2015-Jul-30 19:33N 23°02' E 113°31'664217250.3
2015-Jul-30 19:33N 31°58' E 120°51'31455.1
2015-Jul-30 19:33N 31°56' E 120°54'122451.6
2015-Jul-30 19:33N 31°47' E 121°02'65923496.8
2015-Jul-30 19:31N 23°04' E 113°29'660683.4
2015-Jul-30 18:33N 31°43' E 121°08'660103257.3
2015-Jul-30 18:33N 23°04' E 113°29'66341853.7
2015-Jul-30 18:32N 31°58' E 120°51'66353012.6
2015-Jul-30 18:31N 23°04' E 113°29'6621752.8
2015-Jul-30 18:08N 31°56' E 120°54'6621134.9
2015-Jul-30 17:33N 23°04' E 113°29'0 1.4
2015-Jul-30 17:31N 23°04' E 113°29'66026104.3
2015-Jul-30 17:29N 31°37' E 121°16'2910585.5
2015-Jul-30 17:29N 31°58' E 120°51'6842071.5
2015-Jul-30 17:09N 22°17' E 114°05'5896.0
2015-Jul-30 16:33N 23°04' E 113°29'663125562.4
2015-Jul-30 16:33N 31°58' E 120°51'3710355.2
2015-Jul-30 16:33N 31°32' E 121°23'341270.0
2015-Jul-30 16:31N 31°56' E 120°54'6625718.4
2015-Jul-30 16:24N 23°02' E 113°31'388.5
2015-Jul-30 16:22N 23°04' E 113°29'0 0.6
2015-Jul-30 16:06N 23°04' E 113°29'6591216.4
2015-Jul-30 15:33N 31°26' E 121°30'678106126.0
2015-Jul-30 15:33N 22°23' E 113°54'476515.9
2015-Jul-30 15:32N 23°04' E 113°29'66348687.8
2015-Jul-30 15:31N 31°58' E 120°51'6633214.1
2015-Jul-30 15:19N 23°02' E 113°31'3 4.4
2015-Jul-30 14:33N 23°04' E 113°29'662396977.8
2015-Jul-30 14:33N 31°21' E 121°41'67425527.1
2015-Jul-30 14:31N 22°54' E 113°22'1277.1
2015-Jul-30 14:22N 23°04' E 113°29'6633727.5
2015-Jul-30 14:11N 31°58' E 120°51'6631049.1
2015-Jul-30 13:33N 23°04' E 113°29'66114875.2
2015-Jul-30 13:31N 31°14' E 121°48'66944621.2
2015-Jul-30 13:30N 22°55' E 113°28'103894.9
2015-Jul-30 13:30N 23°04' E 113°29'329.6
2015-Jul-30 13:23N 23°02' E 113°31'348.2
2015-Jul-30 13:19N 23°04' E 113°29'66351860.2
2015-Jul-30 13:18N 31°58' E 120°51'6587.5
2015-Jul-30 12:34N 31°14' E 121°48'661183085.8
2015-Jul-30 12:33N 23°04' E 113°29'9826.8
2015-Jul-30 12:33N 22°56' E 113°30'9291.7
2015-Jul-30 12:31N 23°04' E 113°29'66319083.5
2015-Jul-30 12:29N 31°58' E 120°51'66318073.4
2015-Jul-30 12:27N 23°04' E 113°29'66223128.2
2015-Jul-30 12:25N 31°56' E 120°54'66221294.4
2015-Jul-30 12:23N 23°02' E 113°31'3 4.1
2015-Jul-30 11:33N 23°04' E 113°29'66127988.7
2015-Jul-30 11:32N 31°13' E 121°49'661119032.1
2015-Jul-30 11:32N 23°02' E 113°31'126.2
2015-Jul-30 11:29N 23°03' E 113°31'320.8
2015-Jul-30 11:22N 23°04' E 113°29'66355477.8
2015-Jul-30 11:21N 31°58' E 120°51'8170.1
2015-Jul-30 11:18N 32°01' E 120°43'6211.8
2015-Jul-30 11:17N 32°01' E 120°36'12286.2
2015-Jul-30 11:14N 31°59' E 120°50'662971.1
2015-Jul-30 10:33N 23°04' E 113°29'661396618.2
2015-Jul-30 10:33N 31°09' E 121°54'66117119.2
2015-Jul-30 10:31N 23°04' E 113°29'3430.2
2015-Jul-30 10:30N 23°02' E 113°31'615.2
2015-Jul-30 10:08N 22°56' E 113°33'915.6
2015-Jul-30 09:33N 23°04' E 113°29'66018718.9
2015-Jul-30 09:31N 31°07' E 121°55'66150611.7
2015-Jul-30 09:30N 23°02' E 113°31'3 3.5
2015-Jul-30 08:33N 23°04' E 113°29'66021418.0
2015-Jul-30 08:31N 31°07' E 121°55'66158021.1
2015-Jul-30 08:30N 23°02' E 113°31'6632081.6
2015-Jul-30 08:11N 32°01' E 120°46'2206.9
2015-Jul-30 08:11N 32°01' E 120°43'81089.2
2015-Jul-30 08:10N 31°58' E 120°51'663159035.4
2015-Jul-30 08:10N 23°04' E 113°29'0 0.1
2015-Jul-30 07:33N 23°04' E 113°29'66359663.2
2015-Jul-30 07:32N 32°00' E 120°49'3532.6
2015-Jul-30 07:32N 31°58' E 120°51'8618.9
2015-Jul-30 07:31N 32°01' E 120°43'8236696.9
2015-Jul-30 07:31N 31°07' E 121°55'42628.9
2015-Jul-30 07:27N 31°01' E 121°06'636897.5
2015-Jul-30 07:26N 32°01' E 120°45'6628598.9
2015-Jul-30 07:22N 23°04' E 113°29'661140078.2
2015-Jul-30 07:22N 31°55' E 120°53'449.2
2015-Jul-30 07:16N 31°54' E 120°49'10371.9
2015-Jul-30 07:15N 31°59' E 120°38'6594386.2
2015-Jul-30 07:06N 22°59' E 113°33'6651229.4
2015-Jul-30 06:33N 31°58' E 120°51'41178.6
2015-Jul-30 06:33N 31°58' E 120°47'627011.2
2015-Jul-30 06:33N 30°58' E 121°09'6279601.7
2015-Jul-30 06:29N 23°04' E 113°29'678.2
2015-Jul-30 06:24N 22°59' E 113°33'66223842.8
2015-Jul-30 06:22N 31°07' E 121°55'660216117.5
2015-Jul-30 06:22N 23°04' E 113°29'317.4
2015-Jul-30 06:10N 23°02' E 113°31'6291011.5
2015-Jul-30 05:33N 30°58' E 121°13'62915942.3
2015-Jul-30 05:31N 23°04' E 113°29'66056584.5
2015-Jul-30 05:30N 31°11' E 121°50'6183.0
2015-Jul-30 05:28N 31°07' E 121°55'3335.8
2015-Jul-30 04:33N 30°58' E 121°18'63281278.7
2015-Jul-30 04:33N 23°04' E 113°29'6611189578.6
2015-Jul-30 04:33N 31°06' E 121°57'1518076.7
2015-Jul-30 04:33N 31°17' E 121°45'695357238.6
2015-Jul-30 04:33N 22°14' E 113°39'103348911.7
2015-Jul-30 04:31N 39°05' E 117°46'98535470.4
2015-Jul-30 04:30N 23°04' E 113°29'6653080.1
2015-Jul-30 04:17N 32°02' E 120°50'4222.7
2015-Jul-30 04:16N 32°01' E 120°45'92127.8
2015-Jul-30 04:15N 31°56' E 120°54'10590.2
2015-Jul-30 04:14N 32°01' E 120°43'20577.7
2015-Jul-30 04:12N 31°47' E 120°60'42612.8
2015-Jul-30 04:08N 31°14' E 121°30'3152.9
2015-Jul-30 03:33N 31°02' E 122°03'697193124.8
2015-Jul-30 03:33N 22°09' E 113°41'7021264225.1
2015-Jul-30 03:33N 31°56' E 120°54'7811.1
2015-Jul-30 03:33N 32°02' E 120°50'41458.2
2015-Jul-30 03:32N 32°01' E 120°45'2225.0
2015-Jul-30 03:32N 32°01' E 120°43'7050542.0
2015-Jul-30 03:32N 30°59' E 121°23'31110362.8
2015-Jul-30 03:32N 31°22' E 121°48'6742060.1
2015-Jul-30 03:12N 22°53' E 113°30'6731041.4
2015-Jul-30 02:33N 32°02' E 120°50'67235.1
2015-Jul-30 02:33N 32°00' E 120°43'6356709.9
2015-Jul-30 02:33N 31°28' E 121°47'5319040.5
2015-Jul-30 02:33N 31°56' E 120°54'622655.4
2015-Jul-30 02:32N 31°01' E 121°27'7114119.9
2015-Jul-30 02:31N 32°01' E 120°45'7083747.6
2015-Jul-30 02:20N 22°01' E 113°43'7043733.4
2015-Jul-30 02:09N 31°40' E 121°12'66031257.2
2015-Jul-30 02:08N 23°03' E 113°31'6651173.0
2015-Jul-30 01:34N 32°02' E 120°50'710639098.3
2015-Jul-30 01:33N 22°02' E 113°44'5970277.3
2015-Jul-30 01:33N 22°59' E 113°31'66364499.8
2015-Jul-30 01:33N 31°39' E 121°15'393761.2
2015-Jul-30 01:32N 31°02' E 121°29'192389.1
2015-Jul-30 01:32N 31°21' E 121°31'574121.5
2015-Jul-30 01:31N 32°00' E 120°42'295.8
2015-Jul-30 01:29N 32°01' E 120°45'66431886.9
2015-Jul-30 01:28N 22°59' E 113°33'334.4
2015-Jul-30 01:23N 23°02' E 113°31'340.4
2015-Jul-30 01:18N 23°04' E 113°29'1114.9
2015-Jul-30 00:33N 22°53' E 113°31'6651197341.1
2015-Jul-30 00:33N 31°23' E 121°30'511239.6
2015-Jul-30 00:31N 32°02' E 120°52'333277.7
2015-Jul-30 00:30N 31°38' E 121°17'66124548.9
2015-Jul-30 00:29N 23°02' E 113°31'6619672.1
2015-Jul-30 00:25N 32°01' E 120°43'2118.8
2015-Jul-30 00:24N 32°02' E 120°45'66223589.5
2015-Jul-30 00:22N 23°04' E 113°29'0 2.4
2015-Jul-30 00:18N 23°04' E 113°29'6208.9
2015-Jul-30 00:16N 22°59' E 113°33'6 8.7
2015-Jul-29 23:33N 23°04' E 113°29'10613.3
2015-Jul-29 23:32N 22°55' E 113°26'10688.2
2015-Jul-29 23:31N 23°04' E 113°29'6615205.6
2015-Jul-29 23:23N 31°38' E 121°17'661755.2
2015-Jul-29 22:31N 23°04' E 113°29'0 9.6
2015-Jul-29 22:30N 23°04' E 113°29'66179301.5
2015-Jul-29 22:29N 31°38' E 121°17'6628481.1
2015-Jul-29 22:25N 23°02' E 113°31'3 3.3
2015-Jul-29 21:33N 23°04' E 113°29'3447.3
2015-Jul-29 21:32N 23°02' E 113°31'3113.1
2015-Jul-29 21:31N 23°04' E 113°29'6614655.5
2015-Jul-29 21:22N 31°38' E 121°17'0 0.0
2015-Jul-29 20:28N 31°38' E 121°17'66213937.0
2015-Jul-29 20:25N 23°02' E 113°31'711271.8
2015-Jul-29 20:22N 21°52' E 113°16'7314596.0
2015-Jul-29 20:22N 23°04' E 113°29'0 2.4
2015-Jul-29 20:18N 23°04' E 113°29'3 3.7
2015-Jul-29 19:32N 23°02' E 113°31'66218474.8
2015-Jul-29 19:29N 31°38' E 121°17'6615274.9
2015-Jul-29 19:22N 23°04' E 113°29'6333216.6
2015-Jul-29 19:10N 30°59' E 121°20'63431675.6
2015-Jul-29 19:09N 23°04' E 113°29'6331074.5
2015-Jul-29 18:33N 30°59' E 121°20'39326.5
2015-Jul-29 18:26N 31°38' E 121°17'6612266.0
2015-Jul-29 18:09N 23°04' E 113°29'6371080.1
2015-Jul-29 17:33N 30°60' E 121°24'63760314.7
2015-Jul-29 17:33N 23°04' E 113°29'317.4
2015-Jul-29 17:23N 23°02' E 113°31'6623479.6
2015-Jul-29 17:11N 31°38' E 121°17'66126146.0
2015-Jul-29 17:10N 23°04' E 113°29'6411056.6
2015-Jul-29 16:33N 31°01' E 121°29'64114691.1
2015-Jul-29 16:31N 23°04' E 113°29'0 9.2
2015-Jul-29 16:30N 23°04' E 113°29'3174.6
2015-Jul-29 16:29N 23°02' E 113°31'663672.9
2015-Jul-29 15:30N 31°56' E 120°54'66345899.0
2015-Jul-29 15:29N 23°02' E 113°31'326.3
2015-Jul-29 15:22N 23°04' E 113°29'0 0.2
2015-Jul-29 14:33N 23°04' E 113°29'348.0
2015-Jul-29 14:29N 23°02' E 113°31'329.3
2015-Jul-29 14:22N 23°04' E 113°29'6502810.5
2015-Jul-29 14:08N 31°13' E 121°30'6561093.5
2015-Jul-29 13:32N 23°03' E 113°19'65819572.9
2015-Jul-29 13:30N 31°15' E 121°30'651260523.2
2015-Jul-29 13:30N 23°04' E 113°29'6612937.6
2015-Jul-29 13:16N 31°38' E 121°17'662216527.6
2015-Jul-29 13:16N 23°02' E 113°31'6614878.5
2015-Jul-29 13:08N 31°35' E 121°21'1 2.5
2015-Jul-29 12:33N 31°35' E 121°23'66536263.9
2015-Jul-29 12:32N 23°04' E 113°25'4155.3
2015-Jul-29 12:31N 23°04' E 113°29'0 9.0
2015-Jul-29 12:30N 23°04' E 113°29'65546262.3
2015-Jul-29 12:29N 31°18' E 121°34'661158594.7
2015-Jul-29 12:29N 23°02' E 113°23'85890.9
2015-Jul-29 12:29N 23°02' E 113°31'6627489.0
2015-Jul-29 12:23N 31°38' E 121°17'87378.2
2015-Jul-29 12:10N 30°27' E 122°16'6461048.1
2015-Jul-29 11:33N 23°04' E 113°30'66224064.2
2015-Jul-29 11:31N 31°36' E 121°22'775056.3
2015-Jul-29 11:30N 30°32' E 122°14'606587.8
2015-Jul-29 11:29N 31°21' E 121°32'21245.9
2015-Jul-29 11:24N 31°38' E 121°17'66111276.5
2015-Jul-29 11:21N 23°04' E 113°29'0 5.4
2015-Jul-29 11:19N 23°04' E 113°29'1 0.8
2015-Jul-29 10:33N 23°04' E 113°30'65330916.0
2015-Jul-29 10:32N 30°39' E 122°14'714354.9
2015-Jul-29 10:31N 31°36' E 121°22'662198598.3
2015-Jul-29 10:31N 23°04' E 113°29'010.4
2015-Jul-29 10:30N 23°04' E 113°29'340.3
2015-Jul-29 10:25N 23°02' E 113°31'66250673.4
2015-Jul-29 10:24N 31°38' E 121°17'7 7.7
2015-Jul-29 09:33N 31°36' E 121°25'664119497.6
2015-Jul-29 09:33N 23°04' E 113°30'65894782.8
2015-Jul-29 09:33N 31°24' E 121°32'65822791.3
2015-Jul-29 09:31N 23°04' E 113°29'6914.8
2015-Jul-29 09:30N 22°59' E 113°33'66023758.1
2015-Jul-29 09:29N 30°48' E 122°13'65934864.9
2015-Jul-29 09:28N 23°02' E 113°31'9874835.5
2015-Jul-29 09:15N 39°04' E 117°50'4773181.5
2015-Jul-29 09:06N 31°38' E 121°17'62113.1
2015-Jul-29 08:34N 30°56' E 122°11'623093.4
2015-Jul-29 08:32N 31°38' E 121°17'661108110.4
2015-Jul-29 08:32N 23°04' E 113°30'3176.3
2015-Jul-29 08:31N 23°02' E 113°31'65967817.8
2015-Jul-29 08:30N 31°27' E 121°27'6594604.7
2015-Jul-29 08:22N 23°04' E 113°29'1 0.8
2015-Jul-29 07:33N 23°04' E 113°30'662476790.3
2015-Jul-29 07:33N 31°03' E 122°03'6631192501.0
2015-Jul-29 07:33N 23°04' E 113°29'6581184706.9
2015-Jul-29 07:33N 31°30' E 121°23'65920444.8
2015-Jul-29 07:31N 23°02' E 113°31'6628987.4
2015-Jul-29 07:27N 31°38' E 121°17'6618406.7
2015-Jul-29 07:22N 23°04' E 113°29'64139789.2
2015-Jul-29 07:21N 31°02' E 121°29'6434487.0
2015-Jul-29 07:12N 22°59' E 113°33'9907015.2
2015-Jul-29 07:04N 39°05' E 117°46'10021802904.8
2015-Jul-29 07:04N 22°30' E 120°06'3691328137.0
2015-Jul-29 07:04N 22°55' E 113°27'373732.4
2015-Jul-29 06:33N 22°32' E 120°11'52567477.8
2015-Jul-29 06:33N 31°09' E 121°52'215894.2
2015-Jul-29 06:32N 31°02' E 121°29'3323425.1
2015-Jul-29 06:32N 31°33' E 121°19'53274.9
2015-Jul-29 06:32N 31°38' E 121°17'3131.2
2015-Jul-29 05:33N 31°17' E 121°44'2071424.8
2015-Jul-29 05:33N 31°02' E 121°29'362465.3
2015-Jul-29 05:32N 31°37' E 121°16'5469725.9
2015-Jul-29 05:29N 22°33' E 120°19'54725229.6
2015-Jul-29 05:28N 31°38' E 121°18'2122.8
2015-Jul-29 04:33N 31°23' E 121°35'5416082.3
2015-Jul-29 04:33N 32°00' E 120°49'6834954.3
2015-Jul-29 04:33N 31°01' E 121°29'40759.8
2015-Jul-29 04:30N 31°39' E 121°13'428.6
2015-Jul-29 04:22N 31°38' E 121°17'3947.7
2015-Jul-29 03:33N 30°59' E 121°23'291899.3
2015-Jul-29 03:32N 31°28' E 121°26'12266.8
2015-Jul-29 03:29N 31°38' E 121°18'6883868.0
2015-Jul-29 03:19N 22°20' E 113°46'47169809.7
2015-Jul-29 03:19N 23°04' E 113°29'7111610.1
2015-Jul-29 03:18N 21°55' E 113°13'7256748.1
2015-Jul-29 03:12N 31°53' E 120°54'6625662.3
2015-Jul-29 03:05N 22°59' E 113°33'6611265.8
2015-Jul-29 02:34N 31°33' E 121°19'687274831.6
2015-Jul-29 02:33N 22°16' E 113°48'3946899.2
2015-Jul-29 02:33N 21°55' E 113°13'1056380237.2
2015-Jul-29 02:33N 39°04' E 117°49'98590942.8
2015-Jul-29 02:33N 23°04' E 113°29'010.8
2015-Jul-29 02:31N 23°04' E 113°29'632126440.4
2015-Jul-29 02:31N 30°58' E 121°18'632325123.7
2015-Jul-29 02:31N 23°04' E 113°29'0 8.9
2015-Jul-29 02:29N 23°04' E 113°29'9857848.1
2015-Jul-29 02:22N 39°04' E 117°50'4625636.7
2015-Jul-29 02:17N 31°48' E 120°56'1913944.6
2015-Jul-29 02:17N 32°03' E 120°42'39465.4
2015-Jul-29 02:12N 31°38' E 121°18'293412.2
2015-Jul-29 02:11N 31°23' E 121°47'6671062.9
2015-Jul-29 01:34N 23°04' E 113°29'6292264753.3
2015-Jul-29 01:33N 30°58' E 121°14'693249479.3
2015-Jul-29 01:33N 21°55' E 113°13'7251304609.6
2015-Jul-29 01:33N 31°40' E 121°12'111564.9
2015-Jul-29 01:33N 31°46' E 121°00'4813362.8
2015-Jul-29 01:33N 31°18' E 121°47'715799.1
2015-Jul-29 01:32N 32°03' E 120°42'66159516.1
2015-Jul-29 01:31N 23°04' E 113°29'022.9
2015-Jul-29 01:31N 23°04' E 113°29'66543501.4
2015-Jul-29 01:30N 31°36' E 121°27'82025.9
2015-Jul-29 01:30N 31°38' E 121°18'66195174.8
2015-Jul-29 01:29N 23°04' E 113°29'9852673.2
2015-Jul-29 01:07N 39°04' E 117°50'465821.8
2015-Jul-29 00:33N 31°46' E 121°01'659790290.9
2015-Jul-29 00:33N 23°04' E 113°29'627107495.3
2015-Jul-29 00:33N 30°60' E 121°08'3716727.0
2015-Jul-29 00:33N 31°14' E 121°48'727124565.3
2015-Jul-29 00:32N 21°53' E 113°11'7352400.9
2015-Jul-29 00:32N 23°04' E 113°29'0 9.7
2015-Jul-29 00:31N 23°04' E 113°29'66134985.0
2015-Jul-29 00:30N 31°38' E 121°18'172409.4
2015-Jul-29 00:29N 31°46' E 121°00'65738175.6
2015-Jul-29 00:28N 23°04' E 113°29'66215469.6
2015-Jul-29 00:26N 31°56' E 120°53'43145.4
2015-Jul-29 00:08N 31°58' E 120°03'4374.6
2015-Jul-28 23:34N 31°54' E 120°53'252558.6
2015-Jul-28 23:33N 32°01' E 120°24'65190106.4
2015-Jul-28 23:33N 23°04' E 113°29'65751450.6
2015-Jul-28 23:32N 31°46' E 121°00'441325.8
2015-Jul-28 23:30N 31°01' E 120°60'39467.8
2015-Jul-28 23:25N 31°38' E 121°18'271113.2
2015-Jul-28 23:23N 31°56' E 120°54'401805.4
2015-Jul-28 23:22N 31°58' E 120°06'639383564.2
2015-Jul-28 23:22N 23°04' E 113°29'0 3.7
2015-Jul-28 23:19N 23°04' E 113°29'66121255.6
2015-Jul-28 23:17N 32°03' E 120°42'6613279.1
2015-Jul-28 23:05N 23°04' E 113°29'6541236.0
2015-Jul-28 22:34N 32°02' E 120°28'135747.1
2015-Jul-28 22:33N 32°01' E 120°43'66119658.9
2015-Jul-28 22:31N 23°04' E 113°29'657197227.9
2015-Jul-28 22:31N 31°46' E 121°00'235925.6
2015-Jul-28 22:31N 32°03' E 120°42'12136.2
2015-Jul-28 22:26N 31°56' E 120°54'27833.9
2015-Jul-28 22:24N 31°38' E 121°18'68127854.2
2015-Jul-28 22:22N 22°11' E 114°14'6710501.4
2015-Jul-28 22:22N 23°04' E 113°29'010.1
2015-Jul-28 22:20N 23°04' E 113°29'641115391.5
2015-Jul-28 22:20N 31°57' E 120°11'641828.5
2015-Jul-28 21:34N 23°04' E 113°29'64364265.9
2015-Jul-28 21:33N 31°57' E 120°15'64322909.1
2015-Jul-28 21:31N 23°04' E 113°29'656214669.6
2015-Jul-28 21:31N 32°01' E 120°33'284160.8
2015-Jul-28 21:31N 31°46' E 121°00'231152.2
2015-Jul-28 21:29N 32°03' E 120°42'393073.9
2015-Jul-28 21:29N 31°38' E 121°18'26440.4
2015-Jul-28 21:25N 31°54' E 120°54'6616327.6
2015-Jul-28 21:19N 23°04' E 113°29'0 1.4
2015-Jul-28 21:08N 23°04' E 113°29'0 0.5
2015-Jul-28 20:33N 23°04' E 113°29'64817397.2
2015-Jul-28 20:31N 31°59' E 120°20'54389.8
2015-Jul-28 20:23N 31°38' E 121°18'66145752.0
2015-Jul-28 20:22N 23°04' E 113°29'0 9.3
2015-Jul-28 20:20N 23°04' E 113°29'6589041.5
2015-Jul-28 20:16N 32°00' E 120°39'1938.3
2015-Jul-28 20:16N 31°60' E 120°39'231566.7
2015-Jul-28 20:15N 31°46' E 121°00'125189.9
2015-Jul-28 20:15N 31°56' E 120°54'12177.0
2015-Jul-28 20:11N 32°03' E 120°42'6611065.1
2015-Jul-28 19:33N 23°04' E 113°29'660182813.6
2015-Jul-28 19:33N 32°01' E 120°43'71408.7
2015-Jul-28 19:33N 32°02' E 120°35'67580.5
2015-Jul-28 19:33N 32°03' E 120°42'66123570.7
2015-Jul-28 19:31N 23°04' E 113°29'66115652.7
2015-Jul-28 19:29N 31°38' E 121°18'271420.2
2015-Jul-28 19:28N 31°56' E 120°54'6626924.8
2015-Jul-28 19:22N 23°04' E 113°29'0 9.1
2015-Jul-28 19:20N 23°04' E 113°29'6574448.9
2015-Jul-28 19:11N 31°46' E 121°00'6571040.7
2015-Jul-28 18:33N 23°04' E 113°29'66366296.3
2015-Jul-28 18:33N 32°01' E 120°48'7555.0
2015-Jul-28 18:32N 31°56' E 120°54'115171.6
2015-Jul-28 18:32N 31°46' E 121°00'65712789.1
2015-Jul-28 18:29N 23°04' E 113°30'661148651.6
2015-Jul-28 18:29N 31°38' E 121°18'501327.5
2015-Jul-28 18:26N 32°04' E 120°28'6558485.3
2015-Jul-28 18:22N 23°04' E 113°29'65543687.7
2015-Jul-28 18:21N 32°02' E 120°31'65523359.2
2015-Jul-28 18:19N 23°04' E 113°29'6615863.2
2015-Jul-28 18:12N 32°03' E 120°42'6611018.5
2015-Jul-28 17:34N 23°04' E 113°29'661264590.8
2015-Jul-28 17:33N 31°56' E 120°52'11265.4
2015-Jul-28 17:31N 32°03' E 120°42'392020.4
2015-Jul-28 17:30N 31°38' E 121°18'271549.8
2015-Jul-28 17:29N 31°56' E 120°54'66214791.8
2015-Jul-28 17:26N 23°04' E 113°30'65038377.7
2015-Jul-28 17:25N 32°01' E 120°23'121372.4
2015-Jul-28 17:24N 32°00' E 120°37'65715065.6
2015-Jul-28 17:22N 23°04' E 113°29'0 3.8
2015-Jul-28 17:19N 23°04' E 113°29'54905.6
2015-Jul-28 17:16N 22°10' E 113°31'5577.1
2015-Jul-28 16:33N 23°04' E 113°29'660113160.3
2015-Jul-28 16:33N 32°01' E 120°43'70347727.0
2015-Jul-28 16:32N 22°11' E 113°34'702168372.6
2015-Jul-28 16:32N 31°38' E 121°18'66146651.4
2015-Jul-28 16:31N 23°04' E 113°29'658182121.9
2015-Jul-28 16:31N 31°50' E 120°55'6125.5
2015-Jul-28 16:28N 31°56' E 120°54'121417.3
2015-Jul-28 16:27N 32°03' E 120°42'228.9
2015-Jul-28 16:23N 32°01' E 120°43'6619867.3
2015-Jul-28 16:19N 23°04' E 113°29'6574181.3
2015-Jul-28 16:10N 31°46' E 121°00'6571084.1
2015-Jul-28 15:34N 23°04' E 113°29'5717042.4
2015-Jul-28 15:33N 22°08' E 113°39'571776.6
2015-Jul-28 15:31N 23°04' E 113°29'6615933.1
2015-Jul-28 15:25N 31°38' E 121°17'30270.0
2015-Jul-28 15:18N 31°58' E 120°51'12126.5
2015-Jul-28 15:12N 31°47' E 120°56'187268.8
2015-Jul-28 15:12N 32°01' E 120°43'235621.9
2015-Jul-28 15:12N 31°46' E 121°04'7001088.4
2015-Jul-28 14:33N 22°06' E 113°45'6024019.4
2015-Jul-28 14:33N 23°04' E 113°29'0 1.9
2015-Jul-28 14:31N 23°04' E 113°29'66027638.4
2015-Jul-28 14:29N 31°54' E 120°53'1110209.3
2015-Jul-28 14:29N 32°01' E 120°43'141790.2
2015-Jul-28 14:29N 31°50' E 120°54'16349.6
2015-Jul-28 14:26N 31°42' E 121°09'66813512.8
2015-Jul-28 14:23N 22°54' E 113°28'6696147.0
2015-Jul-28 14:17N 31°38' E 121°17'66114414.9
2015-Jul-28 14:14N 23°04' E 113°30'1 3.1
2015-Jul-28 14:04N 23°04' E 113°29'6601278.1
2015-Jul-28 13:33N 31°38' E 121°15'66098991.6
2015-Jul-28 13:33N 23°04' E 113°29'0 2.3
2015-Jul-28 13:31N 23°04' E 113°29'1 7.9
2015-Jul-28 13:26N 23°04' E 113°30'1047.0
2015-Jul-28 13:14N 23°03' E 113°19'957.9
2015-Jul-28 13:04N 23°04' E 113°29'0 0.4
2015-Jul-28 12:33N 23°04' E 113°29'71239.1
2015-Jul-28 12:33N 23°02' E 113°22'665170874.8
2015-Jul-28 12:33N 31°33' E 121°21'65928244.8
2015-Jul-28 12:31N 23°04' E 113°29'0 1.0
2015-Jul-28 12:22N 23°04' E 113°29'73852.5
2015-Jul-28 12:17N 21°53' E 113°11'6975728.6
2015-Jul-28 12:09N 30°58' E 121°17'6331045.6
2015-Jul-28 11:33N 23°04' E 113°26'3198.7
2015-Jul-28 11:32N 23°04' E 113°29'0 3.5
2015-Jul-28 11:28N 23°04' E 113°29'66026683.6
2015-Jul-28 11:27N 31°28' E 121°28'65920290.8
2015-Jul-28 11:25N 23°04' E 113°30'1 6.9
2015-Jul-28 11:19N 23°04' E 113°29'66112586.6
2015-Jul-28 11:16N 31°38' E 121°18'6634053.5
2015-Jul-28 11:06N 22°59' E 113°33'6338.8
2015-Jul-28 11:05N 23°04' E 113°29'6611271.4
2015-Jul-28 10:34N 32°00' E 120°45'663216871.5
2015-Jul-28 10:33N 23°01' E 113°31'62138.0
2015-Jul-28 10:33N 23°04' E 113°25'66135497.1
2015-Jul-28 10:32N 31°24' E 121°31'65814103.8
2015-Jul-28 10:29N 23°03' E 113°30'123.3
2015-Jul-28 10:27N 23°04' E 113°30'65710156.1
2015-Jul-28 10:24N 31°45' E 121°01'65722329.1
2015-Jul-28 10:22N 23°04' E 113°29'6616482.2
2015-Jul-28 10:16N 31°38' E 121°18'661931.5
2015-Jul-28 09:33N 23°04' E 113°29'0 0.2
2015-Jul-28 09:31N 23°04' E 113°29'101728.5
2015-Jul-28 09:30N 22°54' E 113°28'8164.0
2015-Jul-28 09:28N 23°01' E 113°31'65639378.2
2015-Jul-28 09:27N 31°17' E 121°34'65518564.0
2015-Jul-28 09:25N 23°04' E 113°30'6613997.4
2015-Jul-28 09:15N 31°38' E 121°18'6906857.6
2015-Jul-28 09:09N 22°18' E 113°45'481957.0
2015-Jul-28 09:07N 23°04' E 113°29'0 0.2
2015-Jul-28 08:33N 23°04' E 113°29'66152867.4
2015-Jul-28 08:33N 31°38' E 121°18'6618558.4
2015-Jul-28 08:28N 23°04' E 113°29'0 0.9
2015-Jul-28 08:19N 23°04' E 113°29'110.7
2015-Jul-28 08:15N 23°04' E 113°30'9851405.4
2015-Jul-28 07:33N 39°05' E 117°45'1032742829.9
2015-Jul-28 07:33N 22°13' E 113°48'5414881.5
2015-Jul-28 07:33N 23°04' E 113°29'66127988.8
2015-Jul-28 07:32N 31°38' E 121°18'66162611.1
2015-Jul-28 07:31N 23°04' E 113°29'040.2
2015-Jul-28 07:31N 23°04' E 113°29'111.7
2015-Jul-28 07:27N 23°04' E 113°30'6438413.5
2015-Jul-28 07:23N 31°05' E 121°28'36133344.8
2015-Jul-28 07:22N 37°02' E 122°33'9631186.4
2015-Jul-28 06:34N 23°01' E 113°31'0249.4
2015-Jul-28 06:33N 23°01' E 113°31'5464676.5
2015-Jul-28 06:33N 22°10' E 113°48'670268169.4
2015-Jul-28 06:33N 31°00' E 121°27'514205610.9
2015-Jul-28 06:33N 39°03' E 117°52'41209.7
2015-Jul-28 06:33N 39°05' E 117°47'98527932.2
2015-Jul-28 06:31N 23°04' E 113°29'661339849.7
2015-Jul-28 06:31N 31°38' E 121°18'3318103.1
2015-Jul-28 06:28N 37°02' E 122°33'962314694.8
2015-Jul-28 06:28N 23°04' E 113°29'65715458.9
2015-Jul-28 06:25N 32°00' E 120°37'557.5
2015-Jul-28 06:20N 32°01' E 120°43'662847.6
2015-Jul-28 05:33N 23°01' E 113°31'9881185050.7
2015-Jul-28 05:33N 39°04' E 117°46'103593146.8
2015-Jul-28 05:33N 22°10' E 113°48'69513744.2
2015-Jul-28 05:30N 31°38' E 121°18'66831640.7
2015-Jul-28 05:28N 22°54' E 113°31'9245.5
2015-Jul-28 05:26N 23°03' E 113°30'63915971.2
2015-Jul-28 05:24N 31°00' E 121°27'63818098.9
2015-Jul-28 05:22N 23°04' E 113°29'0 4.0
2015-Jul-28 05:19N 23°04' E 113°29'0 0.4
2015-Jul-28 05:07N 23°04' E 113°29'6601179.2
2015-Jul-28 04:33N 32°01' E 120°43'697147567.4
2015-Jul-28 04:33N 22°10' E 113°48'1035745175.0
2015-Jul-28 04:33N 39°04' E 117°47'98526076.8
2015-Jul-28 04:31N 23°04' E 113°29'661339878.8
2015-Jul-28 04:31N 31°38' E 121°18'382275.4
2015-Jul-28 04:30N 31°00' E 121°27'64016331.0
2015-Jul-28 04:27N 23°01' E 113°31'6644388.7
2015-Jul-28 04:18N 32°00' E 120°49'6638523.3
2015-Jul-28 04:14N 23°04' E 113°29'9616136.9
2015-Jul-28 04:04N 37°02' E 122°33'9631866.4
2015-Jul-28 03:33N 23°01' E 113°31'379.8
2015-Jul-28 03:31N 23°04' E 113°29'10589.9
2015-Jul-28 03:30N 22°54' E 113°28'669401583.0
2015-Jul-28 03:30N 31°38' E 121°18'381569.5
2015-Jul-28 03:28N 31°00' E 121°27'670603373.6
2015-Jul-28 03:28N 22°10' E 113°48'571337.5
2015-Jul-28 03:26N 23°04' E 113°29'6612498.4
2015-Jul-28 03:10N 31°55' E 120°53'6621084.0
2015-Jul-28 02:33N 23°01' E 113°31'66211742.2
2015-Jul-28 02:30N 31°38' E 121°18'385688.5
2015-Jul-28 02:29N 31°00' E 121°27'5171993.4
2015-Jul-28 02:14N 39°05' E 117°46'517765.1
2015-Jul-28 01:33N 31°00' E 121°27'355239.1
2015-Jul-28 01:33N 31°35' E 121°19'48239452.7
2015-Jul-28 01:32N 39°05' E 117°46'98929436.4
2015-Jul-28 01:30N 22°60' E 113°31'46570.9
2015-Jul-28 01:25N 22°17' E 113°49'68926090.7
2015-Jul-28 01:24N 31°38' E 121°18'66136042.8
2015-Jul-28 01:23N 23°04' E 113°29'0 4.5
2015-Jul-28 01:22N 23°04' E 113°29'3230.5
2015-Jul-28 01:21N 23°01' E 113°31'662831.8
2015-Jul-28 00:33N 31°37' E 121°18'66291680.3
2015-Jul-28 00:33N 23°00' E 113°32'98986796.3
2015-Jul-28 00:32N 39°04' E 117°51'98546668.1
2015-Jul-28 00:31N 23°04' E 113°29'66134478.5
2015-Jul-28 00:30N 31°38' E 121°18'383900.5
2015-Jul-28 00:29N 31°00' E 121°27'63918245.9
2015-Jul-28 00:27N 23°02' E 113°32'9625963.6
2015-Jul-28 00:17N 37°03' E 122°33'96215523.3
2015-Jul-28 00:14N 23°04' E 113°29'660973.3
2015-Jul-27 23:33N 31°37' E 121°18'371417.3
2015-Jul-27 23:31N 31°00' E 121°27'63974149.1
2015-Jul-27 23:31N 23°04' E 113°29'344.4
2015-Jul-27 23:26N 23°02' E 113°32'66114691.1
2015-Jul-27 23:24N 31°38' E 121°18'66364515.1
2015-Jul-27 23:23N 22°59' E 113°33'50598.1
2015-Jul-27 23:18N 22°09' E 113°30'55730.2
2015-Jul-27 23:14N 23°04' E 113°29'5479.6
2015-Jul-27 22:33N 22°11' E 113°34'70138247.9
2015-Jul-27 22:32N 31°37' E 121°18'142.3
2015-Jul-27 22:31N 31°38' E 121°18'18201.9
2015-Jul-27 22:25N 31°23' E 121°30'56318600.2
2015-Jul-27 22:24N 23°02' E 116°40'1766155.8
2015-Jul-27 22:22N 23°04' E 113°29'675.1
2015-Jul-27 22:17N 22°59' E 113°33'663915.5
2015-Jul-27 21:33N 31°37' E 121°18'66119822.9
2015-Jul-27 21:31N 23°02' E 113°32'3608.3
2015-Jul-27 21:31N 23°04' E 113°29'083.7
2015-Jul-27 21:31N 23°04' E 113°29'661339854.7
2015-Jul-27 21:31N 31°38' E 121°18'656734.1
2015-Jul-27 21:30N 31°58' E 120°04'9121760.8
2015-Jul-27 21:30N 31°00' E 121°27'64032938.1
2015-Jul-27 21:29N 22°59' E 113°33'6123.4
2015-Jul-27 21:26N 23°04' E 113°29'12685.0
2015-Jul-27 21:25N 22°54' E 113°35'6181949.5
2015-Jul-27 21:06N 31°00' E 120°45'4686.7
2015-Jul-27 20:34N 31°37' E 121°18'560252099.6
2015-Jul-27 20:33N 23°10' E 116°49'531637636.2
2015-Jul-27 20:33N 31°00' E 121°27'38852.9
2015-Jul-27 20:31N 31°38' E 121°18'621454.2
2015-Jul-27 20:28N 31°57' E 120°08'6406936.2
2015-Jul-27 20:23N 23°04' E 113°29'63217.0
2015-Jul-27 20:22N 22°59' E 113°33'6572.7
2015-Jul-27 20:22N 23°04' E 113°29'61628440.6
2015-Jul-27 20:21N 31°01' E 120°48'6168339.3
2015-Jul-27 20:16N 23°04' E 113°29'189265.8
2015-Jul-27 19:33N 23°14' E 116°54'555249638.5
2015-Jul-27 19:33N 31°37' E 121°18'3719032.0
2015-Jul-27 19:33N 31°00' E 121°27'63815636.6
2015-Jul-27 19:31N 23°04' E 113°29'6150.8
2015-Jul-27 19:28N 22°59' E 113°33'64417436.9
2015-Jul-27 19:26N 31°57' E 120°12'64172159.2
2015-Jul-27 19:26N 23°04' E 113°29'66147575.8
2015-Jul-27 19:25N 31°38' E 121°18'66174373.5
2015-Jul-27 19:24N 23°02' E 113°32'661780.2
2015-Jul-27 18:33N 31°37' E 121°18'372718.9
2015-Jul-27 18:33N 31°00' E 121°27'63825537.5
2015-Jul-27 18:31N 23°04' E 113°29'083.0
2015-Jul-27 18:31N 23°04' E 113°29'3174.6
2015-Jul-27 18:30N 23°02' E 113°32'64128494.7
2015-Jul-27 18:28N 31°02' E 121°29'64113900.3
2015-Jul-27 18:26N 23°04' E 113°29'64426637.2
2015-Jul-27 18:24N 31°57' E 120°16'64620415.7
2015-Jul-27 18:22N 22°59' E 113°33'6634173.4
2015-Jul-27 18:13N 31°38' E 121°18'1 1.4
2015-Jul-27 17:33N 31°37' E 121°18'373249.4
2015-Jul-27 17:32N 31°00' E 121°27'21976.4
2015-Jul-27 17:32N 30°60' E 121°24'63631384.0
2015-Jul-27 17:31N 23°04' E 113°29'073.7
2015-Jul-27 17:31N 23°04' E 113°29'661793033.8
2015-Jul-27 17:31N 31°38' E 121°18'66124537.0
2015-Jul-27 17:29N 23°02' E 113°32'355.1
2015-Jul-27 17:26N 23°04' E 113°29'6266171.5
2015-Jul-27 17:19N 31°02' E 121°03'579042714.8
2015-Jul-27 17:11N 37°47' W 122°16'6489292011.3
2015-Jul-27 17:10N 22°59' E 113°33'6519975.8
2015-Jul-27 17:06N 31°60' E 120°21'5496.4
2015-Jul-27 16:33N 31°37' E 121°18'371464.7
2015-Jul-27 16:31N 31°00' E 121°27'638191529.6
2015-Jul-27 16:31N 23°04' E 113°29'661103436.0
2015-Jul-27 16:31N 31°38' E 121°18'5755243755.5
2015-Jul-27 16:29N 37°47' W 122°16'6489292011.3
2015-Jul-27 16:28N 22°59' E 113°33'6158.8
2015-Jul-27 16:26N 23°04' E 113°29'63113768.2
2015-Jul-27 16:23N 30°58' E 121°17'631108212.8
2015-Jul-27 16:22N 23°02' E 113°32'3283.2
2015-Jul-27 16:22N 23°04' E 113°29'591388.5
2015-Jul-27 16:19N 22°10' E 113°53'6574649.5
2015-Jul-27 16:11N 31°01' E 121°07'509793.6
2015-Jul-27 15:32N 22°33' E 120°17'6161124602.9
2015-Jul-27 15:29N 37°47' W 122°16'6488324421.8
2015-Jul-27 15:28N 23°04' E 113°29'61013.6
2015-Jul-27 15:28N 22°59' E 113°33'66316684.1
2015-Jul-27 15:25N 31°37' E 121°18'1140.9
2015-Jul-27 15:25N 31°38' E 121°17'38773.2
2015-Jul-27 15:22N 31°00' E 121°27'35742834.4
2015-Jul-27 15:21N 36°54' E 122°25'977319645.8
2015-Jul-27 15:21N 22°24' E 113°54'67712691.7
2015-Jul-27 15:18N 31°11' E 121°50'391007.6
2015-Jul-27 15:16N 31°00' E 121°07'6276234.3
2015-Jul-27 15:10N 23°04' E 113°29'6601091.2
2015-Jul-27 14:33N 31°37' E 121°18'324999.2
2015-Jul-27 14:33N 31°16' E 121°46'66195187.9
2015-Jul-27 14:33N 23°02' E 113°32'3108.6
2015-Jul-27 14:31N 23°04' E 113°29'6113.2
2015-Jul-27 14:28N 22°59' E 113°33'954180777.6
2015-Jul-27 14:27N 36°54' E 122°25'3571720.3
2015-Jul-27 14:15N 31°00' E 121°27'381112.6
2015-Jul-27 14:13N 31°38' E 121°17'6631013.2
2015-Jul-27 13:33N 22°59' E 113°33'954202045.5
2015-Jul-27 13:33N 36°54' E 122°25'335150867.3
2015-Jul-27 13:33N 31°20' E 121°48'3054491.0
2015-Jul-27 13:33N 31°37' E 121°18'5755505360.2
2015-Jul-27 13:32N 37°47' W 122°16'57881894286.1
2015-Jul-27 13:32N 31°01' E 121°07'62727524.3
2015-Jul-27 13:31N 23°04' E 113°29'661793046.6
2015-Jul-27 13:31N 31°38' E 121°17'385264.3
2015-Jul-27 13:30N 31°00' E 121°27'6388121.8
2015-Jul-27 13:26N 23°04' E 113°29'0 1.1
2015-Jul-27 13:03N 23°04' E 113°29'611.9
2015-Jul-27 12:33N 22°59' E 113°33'66340440.2
2015-Jul-27 12:32N 31°37' E 121°18'519311150.7
2015-Jul-27 12:32N 23°38' E 117°34'22748093.0
2015-Jul-27 12:32N 23°04' E 113°29'014.2
2015-Jul-27 12:31N 23°04' E 113°29'1594.4
2015-Jul-27 12:21N 22°51' E 113°35'6465119.5
2015-Jul-27 12:14N 31°00' E 121°27'638164175.5
2015-Jul-27 12:14N 23°04' E 113°29'66113751.4
2015-Jul-27 12:11N 31°38' E 121°17'6631064.3
2015-Jul-27 11:33N 22°59' E 113°33'663140338.6
2015-Jul-27 11:33N 31°37' E 121°18'515463072.5
2015-Jul-27 11:33N 23°41' E 117°38'22941284.2
2015-Jul-27 11:33N 22°56' E 113°33'3281.0
2015-Jul-27 11:32N 22°56' E 113°30'6677504.0
2015-Jul-27 11:27N 31°38' E 121°18'66121441.0
2015-Jul-27 11:25N 23°02' E 113°32'386.0
2015-Jul-27 11:23N 23°04' E 113°29'0 4.0
2015-Jul-27 11:22N 23°04' E 113°29'12161.9
2015-Jul-27 11:17N 22°53' E 113°31'6463370.2
2015-Jul-27 11:06N 31°00' E 121°27'1731.1
2015-Jul-27 10:33N 31°01' E 121°07'629754866.9
2015-Jul-27 10:33N 22°59' E 113°33'6632385863.4
2015-Jul-27 10:33N 31°37' E 121°18'51083447.8
2015-Jul-27 10:33N 23°44' E 117°42'5117351.8
2015-Jul-27 10:29N 31°38' E 121°18'3817062.1
2015-Jul-27 10:29N 31°00' E 121°27'6386349.6
2015-Jul-27 10:23N 23°04' E 113°29'65951584.7
2015-Jul-27 10:22N 31°41' E 121°10'65910890.1
2015-Jul-27 10:18N 23°02' E 113°32'322.8
2015-Jul-27 10:10N 23°04' E 113°29'240395.8
2015-Jul-27 09:33N 23°47' E 117°46'23877791.6
2015-Jul-27 09:33N 22°59' E 113°33'62229.2
2015-Jul-27 09:33N 23°05' E 113°34'65743810.1
2015-Jul-27 09:32N 31°37' E 121°18'65556163.0
2015-Jul-27 09:31N 23°06' E 113°36'622279722.5
2015-Jul-27 09:31N 31°01' E 121°07'62766385.7
2015-Jul-27 09:31N 23°04' E 113°29'244.1
2015-Jul-27 09:28N 23°05' E 113°27'662396957.0
2015-Jul-27 09:28N 31°38' E 121°18'6612808.5
2015-Jul-27 09:14N 23°04' E 113°29'6594802.6
2015-Jul-27 09:05N 31°37' E 121°15'3 4.9
2015-Jul-27 08:33N 31°35' E 121°17'2268.2
2015-Jul-27 08:33N 31°37' E 121°18'501225333.4
2015-Jul-27 08:33N 23°51' E 117°50'470141102.9
2015-Jul-27 08:32N 31°00' E 121°26'635571427.9
2015-Jul-27 08:32N 23°05' E 113°34'624320675.6
2015-Jul-27 08:32N 31°01' E 121°07'62724803.3
2015-Jul-27 08:31N 23°04' E 113°29'380.6
2015-Jul-27 08:29N 23°03' E 113°32'4176.6
2015-Jul-27 08:27N 22°59' E 113°33'4412172.3
2015-Jul-27 08:27N 22°17' E 113°47'6902264.9
2015-Jul-27 08:09N 31°38' E 121°18'4068.0
2015-Jul-27 07:34N 30°58' E 121°09'3946994.5
2015-Jul-27 07:33N 31°37' E 121°18'663119293.2
2015-Jul-27 07:33N 22°59' E 113°33'71165.6
2015-Jul-27 07:33N 23°05' E 113°27'621494.7
2015-Jul-27 07:33N 23°05' E 113°34'63565306.5
2015-Jul-27 07:32N 31°00' E 121°26'38417.3
2015-Jul-27 07:27N 31°38' E 121°18'6679607.4
2015-Jul-27 07:23N 23°03' E 113°19'968.9
2015-Jul-27 07:15N 23°04' E 113°29'0 0.9
2015-Jul-27 07:10N 23°04' E 113°29'6 9.7
2015-Jul-27 06:34N 23°02' E 113°23'644105332.5
2015-Jul-27 06:33N 31°00' E 121°26'644193289.0
2015-Jul-27 06:33N 23°02' E 113°22'667159967.1
2015-Jul-27 06:33N 31°38' E 121°18'1568.3
2015-Jul-27 06:33N 31°37' E 121°18'65725714.5
2015-Jul-27 06:31N 23°05' E 113°34'5908.6
2015-Jul-27 06:31N 23°04' E 113°29'368.5
2015-Jul-27 06:28N 23°02' E 113°32'327.3
2015-Jul-27 06:21N 22°59' E 113°33'99011491.4
2015-Jul-27 06:16N 39°04' E 117°48'563832578.0
2015-Jul-27 06:05N 37°47' W 122°16'649012206.5
2015-Jul-27 05:34N 23°05' E 113°27'63182.5
2015-Jul-27 05:33N 23°05' E 113°34'635761898.6
2015-Jul-27 05:33N 31°00' E 121°26'45596254.0
2015-Jul-27 05:33N 24°04' E 118°01'48687432.4
2015-Jul-27 05:33N 31°38' E 121°18'4020595.9
2015-Jul-27 05:33N 30°58' E 121°17'63020447.1
2015-Jul-27 05:31N 23°04' E 113°29'661139871.4
2015-Jul-27 05:30N 31°37' E 121°18'66010248.4
2015-Jul-27 05:27N 23°04' E 113°29'9856757.4
2015-Jul-27 05:18N 39°04' E 117°48'479646.3
2015-Jul-27 04:33N 31°37' E 121°18'701360278.5
2015-Jul-27 04:33N 22°04' E 113°46'672302315.4
2015-Jul-27 04:33N 30°59' E 121°21'636176028.0
2015-Jul-27 04:33N 22°59' E 113°33'33842.8
2015-Jul-27 04:33N 23°02' E 113°32'639766273.0
2015-Jul-27 04:33N 31°00' E 121°26'3817060.7
2015-Jul-27 04:33N 31°38' E 121°18'66120685.4
2015-Jul-27 04:31N 23°04' E 113°29'4256.2
2015-Jul-27 04:30N 23°05' E 113°34'648426286.0
2015-Jul-27 04:15N 37°47' W 122°16'65129325.6
2015-Jul-27 03:33N 22°07' E 113°47'698125678.7
2015-Jul-27 03:33N 31°38' E 121°18'11723.7
2015-Jul-27 03:33N 31°37' E 121°18'65742245.5
2015-Jul-27 03:32N 23°05' E 113°34'5286.8
2015-Jul-27 03:31N 23°04' E 113°29'638163959.4
2015-Jul-27 03:31N 31°00' E 121°26'64374715.3
2015-Jul-27 03:30N 22°56' E 113°30'26917012.5
2015-Jul-27 03:29N 24°12' E 118°12'6202169144.2
2015-Jul-27 03:27N 37°47' W 122°16'57726926341.9
2015-Jul-27 03:27N 31°00' E 121°26'638191507.6
2015-Jul-27 03:27N 23°04' E 113°29'315.8
2015-Jul-27 03:14N 23°02' E 113°32'64889425.5
2015-Jul-27 02:33N 37°47' W 122°16'65093347575.2
2015-Jul-27 02:33N 22°06' E 113°51'697626909.3
2015-Jul-27 02:33N 31°38' E 121°18'3812411.7
2015-Jul-27 02:33N 31°00' E 121°26'372775.8
2015-Jul-27 02:32N 31°37' E 121°18'46984458.9
2015-Jul-27 02:31N 24°15' E 118°18'441113341.3
2015-Jul-27 02:31N 31°02' E 121°29'63876526.5
2015-Jul-27 02:31N 23°05' E 113°34'12527.3
2015-Jul-27 02:29N 22°55' E 113°28'10104.6
2015-Jul-27 02:24N 23°04' E 113°29'349.2
2015-Jul-27 02:20N 23°02' E 113°32'481001.6
2015-Jul-27 02:17N 22°16' E 113°48'51308.8
2015-Jul-27 02:07N 23°04' E 113°29'583312.2
2015-Jul-27 02:06N 22°08' E 113°46'6971269.1
2015-Jul-27 01:33N 31°37' E 121°18'378878.3
2015-Jul-27 01:33N 31°00' E 121°26'63928380.5
2015-Jul-27 01:31N 23°02' E 113°32'3493.6
2015-Jul-27 01:31N 23°04' E 113°29'5402.9
2015-Jul-27 01:30N 23°05' E 113°34'5336.6
2015-Jul-27 01:29N 23°04' E 113°29'66115447.3
2015-Jul-27 01:27N 31°38' E 121°18'311727.9
2015-Jul-27 01:26N 31°08' E 121°28'67025129.4
2015-Jul-27 01:24N 22°17' E 113°49'650359269.7
2015-Jul-27 01:17N 37°47' W 122°16'618436617.5
2015-Jul-27 01:07N 24°21' E 118°26'462820.3
2015-Jul-27 00:34N 31°37' E 121°18'657295733.5
2015-Jul-27 00:33N 23°05' E 113°34'656214777.0
2015-Jul-27 00:33N 31°39' E 121°14'66274454.7
2015-Jul-27 00:33N 22°59' E 113°33'640576328.3
2015-Jul-27 00:33N 31°00' E 121°26'63823694.4
2015-Jul-27 00:31N 23°04' E 113°29'6489921.5
2015-Jul-27 00:27N 31°11' E 121°28'64858283.5
2015-Jul-27 00:26N 23°04' E 113°29'0 0.7
2015-Jul-27 00:22N 23°04' E 113°29'648952968.2
2015-Jul-27 00:14N 37°47' W 122°16'617751237.3
2015-Jul-27 00:07N 24°25' E 118°31'429763.2
2015-Jul-26 23:33N 31°04' E 121°28'639766645.8
2015-Jul-26 23:33N 23°05' E 113°34'63521165.2
2015-Jul-26 23:32N 31°00' E 121°26'63863843.8
2015-Jul-26 23:31N 23°04' E 113°29'040.8
2015-Jul-26 23:31N 23°04' E 113°29'542123.5
2015-Jul-26 23:29N 22°11' E 113°32'691829223.3
2015-Jul-26 23:29N 31°15' E 121°29'6517437.8
2015-Jul-26 23:24N 23°02' E 113°32'648859735.2
2015-Jul-26 23:17N 37°47' W 122°16'648931998.4
2015-Jul-26 23:05N 23°04' E 113°29'6381203.9
2015-Jul-26 22:33N 31°00' E 121°26'63828001.3
2015-Jul-26 22:32N 23°03' E 113°32'64459451.8
2015-Jul-26 22:31N 31°08' E 121°28'64589263.6
2015-Jul-26 22:31N 23°04' E 113°29'6489248498.9
2015-Jul-26 22:29N 37°47' W 122°16'648962792.6
2015-Jul-26 22:23N 23°04' E 113°29'0 2.2
2015-Jul-26 22:22N 23°04' E 113°29'312.5
2015-Jul-26 22:06N 23°02' E 113°32'6391168.7
2015-Jul-26 21:33N 31°00' E 121°26'643115702.3
2015-Jul-26 21:33N 22°55' E 113°33'66125871.9
2015-Jul-26 21:32N 31°20' E 121°33'65751391.5
2015-Jul-26 21:31N 23°04' E 113°29'648989842.2
2015-Jul-26 21:26N 37°47' W 122°16'648920033.3
2015-Jul-26 21:07N 23°04' E 113°29'6381126.1
2015-Jul-26 20:33N 31°00' E 121°26'237379.8
2015-Jul-26 20:33N 31°23' E 121°30'65781537.5
2015-Jul-26 20:32N 23°04' E 113°29'0 2.2
2015-Jul-26 20:31N 23°04' E 113°29'6489274811.5
2015-Jul-26 20:29N 37°47' W 122°16'6488353885.5
2015-Jul-26 20:28N 23°02' E 113°32'639680.0
2015-Jul-26 19:32N 31°00' E 121°26'40233623.5
2015-Jul-26 19:31N 24°43' E 118°51'31136107.0
2015-Jul-26 19:31N 23°04' E 113°29'6489299472.4
2015-Jul-26 19:29N 37°47' W 122°16'6488231251.9
2015-Jul-26 19:28N 23°02' E 113°32'342.6
2015-Jul-26 19:23N 23°04' E 113°29'315374.5
2015-Jul-26 18:33N 24°46' E 118°55'61421300738.2
2015-Jul-26 18:32N 37°47' W 122°16'5772903436.5
2015-Jul-26 18:32N 31°00' E 121°26'63920553.2
2015-Jul-26 18:30N 23°01' E 113°32'430.0
2015-Jul-26 18:22N 23°04' E 113°29'0 2.6
2015-Jul-26 18:20N 23°04' E 113°29'320408.6
2015-Jul-26 17:33N 24°50' E 118°59'3341202315.6
2015-Jul-26 17:33N 22°11' E 113°39'67556481.5
2015-Jul-26 17:33N 31°00' E 121°26'5772112319.1
2015-Jul-26 17:29N 37°47' W 122°16'648966739.8
2015-Jul-26 17:24N 23°01' E 113°32'4669.3
2015-Jul-26 17:23N 23°04' E 113°29'0 1.0
2015-Jul-26 17:10N 23°04' E 113°29'6381039.5
2015-Jul-26 16:33N 31°00' E 121°26'67271167.8
2015-Jul-26 16:33N 22°06' E 113°51'6210648.7
2015-Jul-26 16:32N 23°04' E 113°29'648942087.8
2015-Jul-26 16:23N 37°47' W 122°16'648911679458.7
2015-Jul-26 16:23N 23°01' E 113°32'4257.1
2015-Jul-26 16:22N 23°04' E 113°29'0 3.3
2015-Jul-26 16:19N 23°04' E 113°29'638846.2
2015-Jul-26 15:33N 31°00' E 121°26'676187301.0
2015-Jul-26 15:33N 22°07' E 113°42'6517300761.9
2015-Jul-26 15:32N 37°47' W 122°16'6489667393.2
2015-Jul-26 15:31N 23°04' E 113°29'521165.9
2015-Jul-26 15:29N 22°14' E 113°43'4811492.4
2015-Jul-26 15:28N 23°01' E 113°32'449.0
2015-Jul-26 15:23N 23°04' E 113°29'0 9.8
2015-Jul-26 15:22N 23°04' E 113°29'638779.1
2015-Jul-26 14:33N 31°00' E 121°26'67771707.2
2015-Jul-26 14:32N 22°11' E 113°35'51134.0
2015-Jul-26 14:32N 22°09' E 113°39'572715.1
2015-Jul-26 14:31N 23°04' E 113°29'6168.5
2015-Jul-26 14:29N 22°59' E 113°33'216.9
2015-Jul-26 14:22N 23°01' E 113°32'4171.0
2015-Jul-26 14:20N 23°04' E 113°29'10216.8
2015-Jul-26 14:17N 22°55' E 113°27'1078.6
2015-Jul-26 14:10N 23°04' E 113°29'107035.5
2015-Jul-26 14:10N 22°55' E 113°27'812.4
2015-Jul-26 13:33N 23°01' E 113°32'7746.5
2015-Jul-26 13:33N 22°54' E 113°29'64655387.3
2015-Jul-26 13:32N 31°00' E 121°26'6383250.5
2015-Jul-26 13:20N 23°04' E 113°29'638815.2
2015-Jul-26 12:33N 31°00' E 121°26'64120227.6
2015-Jul-26 12:31N 22°60' E 113°31'5646.4
2015-Jul-26 12:31N 23°04' E 113°29'351366.1
2015-Jul-26 11:33N 25°15' E 119°26'3941418336.7
2015-Jul-26 11:33N 31°37' E 121°18'376073.3
2015-Jul-26 11:33N 31°00' E 121°26'64043440.0
2015-Jul-26 11:32N 23°01' E 113°32'4388.4
2015-Jul-26 11:31N 23°04' E 113°29'0 0.4
2015-Jul-26 11:23N 23°04' E 113°29'628.9
2015-Jul-26 11:10N 22°59' E 113°33'6132.1
2015-Jul-26 11:08N 23°04' E 113°30'9851729.5
2015-Jul-26 10:33N 39°04' E 117°48'479574972.0
2015-Jul-26 10:33N 31°37' E 121°18'39077910.4
2015-Jul-26 10:33N 25°18' E 119°33'35831442.5
2015-Jul-26 10:32N 23°04' E 113°29'65531853.6
2015-Jul-26 10:31N 31°22' E 121°28'216372.8
2015-Jul-26 10:31N 31°00' E 121°26'638255365.2
2015-Jul-26 10:31N 23°04' E 113°29'54445.5
2015-Jul-26 10:23N 22°11' E 113°32'481982.6
2015-Jul-26 10:22N 22°59' E 113°33'213.7
2015-Jul-26 10:13N 23°01' E 113°32'477.6
2015-Jul-26 10:10N 23°04' E 113°29'37868077.9
2015-Jul-26 10:10N 22°35' E 120°18'3948402.3
2015-Jul-26 10:07N 21°52' E 113°15'7271298.7
2015-Jul-26 09:33N 31°37' E 121°18'3744454.9
2015-Jul-26 09:33N 31°00' E 121°26'70260172.0
2015-Jul-26 09:33N 21°55' E 113°13'7110219.4
2015-Jul-26 09:32N 23°04' E 113°29'375674869.8
2015-Jul-26 09:32N 22°38' E 120°15'37216962.9
2015-Jul-26 09:31N 23°01' E 113°32'41932.2
2015-Jul-26 09:31N 23°04' E 113°29'655589329.1
2015-Jul-26 09:31N 31°22' E 121°28'49739774.6
2015-Jul-26 09:30N 39°05' E 117°46'4667227.6
2015-Jul-26 09:26N 31°47' E 121°03'46475950.6
2015-Jul-26 09:26N 39°04' E 117°50'9858802.1
2015-Jul-26 09:19N 23°04' E 113°29'3674597.8
2015-Jul-26 09:14N 25°23' E 119°41'3665143.1
2015-Jul-26 09:10N 22°59' E 113°33'649.7
2015-Jul-26 09:03N 23°04' E 113°30'6381295.8
2015-Jul-26 08:33N 31°00' E 121°26'212373.6
2015-Jul-26 08:33N 31°21' E 121°27'65417984.6
2015-Jul-26 08:31N 23°04' E 113°29'3762238.7
2015-Jul-26 08:21N 22°37' E 120°16'37652100.7
2015-Jul-26 08:20N 23°04' E 113°29'9859024.7
2015-Jul-26 08:14N 39°05' E 117°45'98837444.5
2015-Jul-26 08:12N 23°01' E 113°32'41687.4
2015-Jul-26 08:12N 23°04' E 113°30'71110.1
2015-Jul-26 07:33N 21°55' E 113°13'70272205.4
2015-Jul-26 07:33N 31°00' E 121°26'63869637.6
2015-Jul-26 07:32N 23°04' E 113°29'65414724.1
2015-Jul-26 07:30N 31°21' E 121°27'65415393.8
2015-Jul-26 07:27N 23°04' E 113°30'465.7
2015-Jul-26 07:24N 23°01' E 113°32'454376.3
2015-Jul-26 07:23N 22°18' E 113°46'431932.6
2015-Jul-26 07:22N 22°59' E 113°33'631.0
2015-Jul-26 07:10N 23°04' E 113°29'6381049.9
2015-Jul-26 06:33N 31°00' E 121°26'212711.9
2015-Jul-26 06:33N 31°21' E 121°27'719369602.1
2015-Jul-26 06:33N 21°55' E 113°13'712341.2
2015-Jul-26 06:31N 23°04' E 113°29'4142.1
2015-Jul-26 06:29N 23°01' E 113°32'216.4
2015-Jul-26 06:22N 22°59' E 113°33'6314.3
2015-Jul-26 06:20N 23°04' E 113°29'048.7
2015-Jul-26 06:20N 23°04' E 113°29'51891.9
2015-Jul-26 06:17N 22°17' E 113°49'4055.4
2015-Jul-26 05:33N 21°55' E 113°13'723520640.0
2015-Jul-26 05:33N 32°01' E 120°35'37743795.3
2015-Jul-26 05:33N 25°47' E 119°40'327147092.4
2015-Jul-26 05:33N 31°00' E 121°26'638135180.9
2015-Jul-26 05:32N 23°04' E 113°29'98529803.5
2015-Jul-26 05:30N 39°05' E 117°46'99021463.9
2015-Jul-26 05:28N 22°59' E 113°33'657147724.0
2015-Jul-26 05:27N 31°21' E 121°27'498119437.2
2015-Jul-26 05:27N 39°05' E 117°45'98812935.2
2015-Jul-26 05:22N 23°01' E 113°32'4344.0
2015-Jul-26 05:22N 23°04' E 113°29'9856031.6
2015-Jul-26 05:12N 39°04' E 117°48'9901544.3
2015-Jul-26 04:33N 22°59' E 113°33'657590896.0
2015-Jul-26 04:33N 31°21' E 121°27'685493151.5
2015-Jul-26 04:33N 22°13' E 113°48'6681202352.4
2015-Jul-26 04:33N 31°00' E 121°26'515123613.0
2015-Jul-26 04:33N 39°04' E 117°50'1056165352.5
2015-Jul-26 04:33N 21°55' E 113°13'712200.3
2015-Jul-26 04:31N 23°04' E 113°29'98573906.8
2015-Jul-26 04:30N 39°04' E 117°51'98829403.1
2015-Jul-26 04:28N 23°01' E 113°32'7453.4
2015-Jul-26 04:27N 22°55' E 113°27'10215.0
2015-Jul-26 04:24N 23°04' E 113°29'0 2.0
2015-Jul-26 04:18N 23°04' E 113°29'64076752.5
2015-Jul-26 04:17N 31°57' E 120°08'640878.7
2015-Jul-26 03:34N 23°05' E 113°27'82534.0
2015-Jul-26 03:33N 22°59' E 113°33'640164666.4
2015-Jul-26 03:33N 31°00' E 121°26'515463757.7
2015-Jul-26 03:33N 39°04' E 117°49'443106222.4
2015-Jul-26 03:33N 31°57' E 120°11'70898019.6
2015-Jul-26 03:32N 21°55' E 113°13'719431208.1
2015-Jul-26 03:32N 31°21' E 121°27'65515613.2
2015-Jul-26 03:30N 23°02' E 113°31'661216183.0
2015-Jul-26 03:30N 31°47' E 121°03'4648527.9
2015-Jul-26 03:26N 39°04' E 117°51'98528841.9
2015-Jul-26 03:24N 23°04' E 113°29'9866682.9
2015-Jul-26 03:15N 39°04' E 117°51'515735.2
2015-Jul-26 02:33N 31°00' E 121°26'5151853691.9
2015-Jul-26 02:33N 39°04' E 117°50'1058190481.1
2015-Jul-26 02:33N 21°53' E 113°11'712284872.0
2015-Jul-26 02:33N 31°57' E 120°15'644773264.9
2015-Jul-26 02:33N 23°01' E 113°32'656181543.3
2015-Jul-26 02:33N 31°21' E 121°27'12640.2
2015-Jul-26 02:31N 31°10' E 121°28'64620410.6
2015-Jul-26 02:30N 23°02' E 113°31'63715178.7
2015-Jul-26 02:27N 31°20' E 120°57'636109044.2
2015-Jul-26 02:27N 23°04' E 113°29'0 0.6
2015-Jul-26 02:22N 23°04' E 113°29'6606264.4
2015-Jul-26 02:16N 31°42' E 121°09'6626286.6
2015-Jul-26 02:09N 22°59' E 113°33'6571101.4
2015-Jul-26 01:33N 31°21' E 121°27'2118983.0
2015-Jul-26 01:33N 31°00' E 121°26'51780923.0
2015-Jul-26 01:33N 39°05' E 117°46'1058136068.2
2015-Jul-26 01:33N 21°53' E 113°11'72784474.4
2015-Jul-26 01:32N 31°40' E 121°13'660103272.3
2015-Jul-26 01:32N 23°03' E 113°31'646211329.4
2015-Jul-26 01:31N 31°10' E 121°28'7654936.8
2015-Jul-26 01:31N 31°59' E 120°19'64721956.9
2015-Jul-26 01:30N 23°04' E 113°29'6150.4
2015-Jul-26 01:27N 22°59' E 113°33'61250.0
2015-Jul-26 01:27N 23°04' E 113°29'015.6
2015-Jul-26 01:26N 23°04' E 113°29'6367952.5
2015-Jul-26 01:21N 31°17' E 121°01'6372922.5
2015-Jul-26 01:08N 23°02' E 113°31'65827556.6
2015-Jul-26 01:06N 32°01' E 120°37'4377.6
2015-Jul-26 00:34N 31°36' E 121°18'727137738.4
2015-Jul-26 00:33N 21°53' E 113°11'6927482.7
2015-Jul-26 00:33N 22°59' E 113°33'64160695.8
2015-Jul-26 00:32N 31°17' E 121°05'253860.8
2015-Jul-26 00:32N 31°00' E 121°26'218439.3
2015-Jul-26 00:32N 31°21' E 121°27'11463.7
2015-Jul-26 00:30N 31°10' E 121°28'64652890.2
2015-Jul-26 00:30N 23°04' E 113°29'041.6
2015-Jul-26 00:30N 23°04' E 113°29'0 4.0
2015-Jul-26 00:26N 23°04' E 113°29'3522.4
2015-Jul-26 00:25N 23°02' E 113°31'65967833.0
2015-Jul-26 00:25N 32°00' E 120°40'65855124.5
2015-Jul-26 00:24N 23°05' E 113°27'9856273.3
2015-Jul-26 00:15N 39°04' E 117°50'485706.2
2015-Jul-25 23:34N 31°31' E 121°23'3127952.5
2015-Jul-25 23:33N 31°00' E 121°26'7019477.3
2015-Jul-25 23:33N 32°01' E 120°44'7291312377.0
2015-Jul-25 23:33N 21°53' E 113°11'71659937.5
2015-Jul-25 23:32N 31°13' E 121°30'65123901.1
2015-Jul-25 23:31N 23°02' E 113°31'65851481.4
2015-Jul-25 23:30N 31°23' E 121°30'65784446.6
2015-Jul-25 23:30N 23°04' E 113°29'67019623.2
2015-Jul-25 23:28N 31°28' E 121°47'67180507.5
2015-Jul-25 23:27N 23°05' E 113°27'3124.0
2015-Jul-25 23:26N 23°04' E 113°29'638729.4
2015-Jul-25 22:33N 31°00' E 121°26'704845290.9
2015-Jul-25 22:33N 21°53' E 113°11'704361985.4
2015-Jul-25 22:33N 31°12' E 121°09'1911459.9
2015-Jul-25 22:33N 31°15' E 121°31'652469498.3
2015-Jul-25 22:33N 23°03' E 113°30'65927602.0
2015-Jul-25 22:31N 31°26' E 121°29'1154.5
2015-Jul-25 22:31N 31°26' E 121°29'66043978.3
2015-Jul-25 22:30N 23°02' E 113°31'6687653.2
2015-Jul-25 22:25N 31°22' E 121°48'6673851.8
2015-Jul-25 22:15N 23°04' E 113°29'73106.5
2015-Jul-25 21:34N 21°53' E 113°11'72272184.5
2015-Jul-25 21:33N 31°18' E 121°34'191645.1
2015-Jul-25 21:32N 31°00' E 121°26'241751.8
2015-Jul-25 21:31N 31°23' E 121°37'66872868.1
2015-Jul-25 21:31N 22°53' E 113°31'11521.0
2015-Jul-25 21:30N 23°04' E 113°29'0 1.1
2015-Jul-25 21:27N 23°04' E 113°29'6583872.9
2015-Jul-25 21:16N 31°29' E 121°24'2940.1
2015-Jul-25 20:33N 31°00' E 121°26'704169055.8
2015-Jul-25 20:33N 21°53' E 113°11'723153046.7
2015-Jul-25 20:33N 31°21' E 121°31'1119090.0
2015-Jul-25 20:33N 31°18' E 121°43'6718946.4
2015-Jul-25 20:28N 22°55' E 113°25'6688526.9
2015-Jul-25 20:24N 31°32' E 121°21'6586564.6
2015-Jul-25 20:18N 23°04' E 113°29'3252.2
2015-Jul-25 20:17N 23°02' E 113°31'6625343.1
2015-Jul-25 20:09N 31°55' E 120°53'63105.5
2015-Jul-25 19:33N 31°13' E 121°49'726237690.8
2015-Jul-25 19:33N 21°53' E 113°11'724173756.9
2015-Jul-25 19:33N 31°23' E 121°30'2320770.5
2015-Jul-25 19:33N 31°00' E 121°26'59284.1
2015-Jul-25 19:20N 31°52' E 120°54'6592675.2
2015-Jul-25 19:06N 23°04' E 113°29'73135.0
2015-Jul-25 18:33N 21°53' E 113°11'704422648.5
2015-Jul-25 18:33N 31°00' E 121°26'63999996.1
2015-Jul-25 18:33N 23°05' E 113°27'66025293.1
2015-Jul-25 18:31N 31°12' E 121°49'225191.4
2015-Jul-25 18:31N 31°26' E 121°29'382099.4
2015-Jul-25 18:30N 31°50' E 120°55'65812140.0
2015-Jul-25 18:27N 23°04' E 113°29'339.2
2015-Jul-25 18:22N 23°02' E 113°31'347.1
2015-Jul-25 18:18N 23°04' E 113°29'658893.9
2015-Jul-25 17:33N 31°29' E 121°25'2917179.8
2015-Jul-25 17:33N 31°00' E 121°26'2240037.5
2015-Jul-25 17:33N 31°12' E 121°49'72429611.5
2015-Jul-25 17:32N 21°52' E 113°16'732003.2
2015-Jul-25 17:30N 23°04' E 113°29'322.3
2015-Jul-25 17:21N 23°02' E 113°31'353.7
2015-Jul-25 17:18N 23°04' E 113°29'223.9
2015-Jul-25 17:12N 23°05' E 113°27'6591037.7
2015-Jul-25 16:33N 31°32' E 121°20'3211585.7
2015-Jul-25 16:33N 31°00' E 121°26'63960573.9
2015-Jul-25 16:33N 23°02' E 113°31'363.5
2015-Jul-25 16:30N 23°04' E 113°29'0 1.2
2015-Jul-25 16:27N 23°04' E 113°29'212.1
2015-Jul-25 16:15N 23°05' E 113°27'45329.4
2015-Jul-25 16:07N 22°28' E 113°53'6541183.8
2015-Jul-25 15:33N 31°00' E 121°26'2215983.3
2015-Jul-25 15:33N 31°12' E 121°49'372462.7
2015-Jul-25 15:32N 31°36' E 121°16'  
Track history (hours):
 
Tides and Currents Weather Stations Pressure Air Temp Water Temp Dewpoint Dewpoint Depression Visibility Wind Speed Wind Dir Waves Ship Positions

Callsign 000000 (name unknown)

Last reported at 2015-Aug-04 15:30 UTC. Time now 2015-Aug-04 15:55 UTC.
Position N 23°02' E 113°31'.

Type: Fishing. MMSI: 200007452.

Date/timePositionNaut miles runAvg speedWind from/ knotsBaromVisibWave heightAir tempDewpointWater temp
2015-Aug-04 15:30N 23°02' E 113°31'6619118.9
2015-Aug-04 15:25N 31°54' E 120°53'235.6
2015-Aug-04 15:22N 31°52' E 120°53'645.8
2015-Aug-04 15:14N 31°46' E 120°56'1318.6
2015-Aug-04 14:32N 31°58' E 120°51'1 5.6
2015-Aug-04 14:25N 31°59' E 120°50'66420598.3
2015-Aug-04 14:23N 23°02' E 113°31'659790.0
2015-Aug-04 13:33N 31°50' E 120°54'1472.3
2015-Aug-04 13:22N 32°00' E 120°43'123497.4
2015-Aug-04 13:07N 30°26' E 122°17'64714556.1
2015-Aug-04 13:04N 23°02' E 113°31'6621264.7
2015-Aug-04 12:33N 31°55' E 120°52'1094521.7
2015-Aug-04 12:31N 30°32' E 122°15'70952119.8
2015-Aug-04 12:31N 21°55' E 113°13'711207.5
2015-Aug-04 12:27N 23°04' E 113°29'316.0
2015-Aug-04 12:16N 23°02' E 113°31'0 0.0
2015-Aug-04 11:33N 23°02' E 113°31'66488503.3
2015-Aug-04 11:33N 31°59' E 120°50'730175246.5
2015-Aug-04 11:33N 21°53' E 113°14'7166397.2
2015-Aug-04 11:26N 30°42' E 122°12'107121.5
2015-Aug-04 10:33N 32°00' E 120°46'9919784.7
2015-Aug-04 10:33N 30°50' E 122°08'6571634.2
2015-Aug-04 10:09N 23°02' E 113°31'6611126.7
2015-Aug-04 09:33N 30°59' E 122°03'66134469.2
2015-Aug-04 09:32N 23°02' E 113°31'66133502.6
2015-Aug-04 09:31N 32°00' E 120°42'6613024.6
2015-Aug-04 09:18N 23°01' E 113°31'62915288.6
2015-Aug-04 09:15N 30°59' E 121°08'658687.5
2015-Aug-04 09:15N 32°01' E 120°43'82118.0
2015-Aug-04 08:33N 31°07' E 121°55'392882.6
2015-Aug-04 08:33N 30°57' E 121°11'65467248.5
2015-Aug-04 08:32N 22°17' E 113°47'466072.9
2015-Aug-04 08:32N 23°01' E 113°32'65919296.5
2015-Aug-04 08:29N 31°60' E 120°40'313.0
2015-Aug-04 08:17N 32°01' E 120°43'66015231.5
2015-Aug-04 08:14N 23°04' E 113°30'5276.1
2015-Aug-04 07:34N 22°13' E 113°39'665797884.4
2015-Aug-04 07:33N 30°58' E 121°15'3211449.7
2015-Aug-04 07:33N 31°13' E 121°48'689137800.1
2015-Aug-04 07:33N 22°13' E 113°48'69040704.0
2015-Aug-04 07:32N 31°60' E 120°36'36421124.3
2015-Aug-04 07:31N 26°01' E 119°29'372267690.5
2015-Aug-04 07:31N 23°01' E 113°32'417.1
2015-Aug-04 07:17N 23°04' E 113°30'5776.1
2015-Aug-04 06:33N 22°10' E 113°48'693415766.5
2015-Aug-04 06:33N 31°18' E 121°43'66217025.1
2015-Aug-04 06:30N 23°01' E 113°32'63348517.8
2015-Aug-04 06:29N 30°58' E 121°19'632568882.2
2015-Aug-04 06:29N 23°04' E 113°30'1 2.5
2015-Aug-04 06:16N 23°04' E 113°29'66620853.2
2015-Aug-04 06:14N 31°21' E 121°48'812.3
2015-Aug-04 05:33N 31°21' E 121°38'69353062.6
2015-Aug-04 05:33N 22°10' E 113°48'6957915.3
2015-Aug-04 05:27N 31°18' E 121°46'66315297.9
2015-Aug-04 05:25N 23°04' E 113°29'6323496.8
2015-Aug-04 05:14N 30°58' E 121°19'2942.3
2015-Aug-04 04:33N 31°25' E 121°31'204515.6
2015-Aug-04 04:33N 31°13' E 121°49'301157.7
2015-Aug-04 04:32N 30°58' E 121°19'6653608.2
2015-Aug-04 04:21N 22°10' E 113°48'53875.3
2015-Aug-04 04:17N 23°01' E 113°32'659911.7
2015-Aug-04 03:33N 31°32' E 121°21'663795907.3
2015-Aug-04 03:33N 22°55' E 113°33'993108372.5
2015-Aug-04 03:33N 39°04' E 117°48'51517174.0
2015-Aug-04 03:31N 30°58' E 121°19'66521946.9
2015-Aug-04 03:29N 22°10' E 113°48'61385.4
2015-Aug-04 03:20N 23°03' E 113°17'1489.5
2015-Aug-04 03:10N 23°01' E 113°32'5285.4
2015-Aug-04 02:33N 22°11' E 113°47'694416326.3
2015-Aug-04 02:33N 31°41' E 121°11'423169.9
2015-Aug-04 02:33N 30°59' E 121°20'708372.8
2015-Aug-04 02:32N 32°02' E 120°44'66331838.5
2015-Aug-04 02:31N 23°02' E 113°31'3 8.2
2015-Aug-04 02:09N 23°04' E 113°29'6571043.7
2015-Aug-04 01:31N 31°47' E 120°58'66314034.2
2015-Aug-04 01:28N 23°02' E 113°21'66844541.5
2015-Aug-04 01:27N 32°00' E 120°48'6644441.1
2015-Aug-04 01:18N 23°01' E 113°31'47477.9
2015-Aug-04 01:12N 22°17' E 113°48'6911040.1
2015-Aug-04 00:32N 31°56' E 120°52'6634562.0
2015-Aug-04 00:24N 23°01' E 113°31'66424650.1
2015-Aug-04 00:22N 31°59' E 120°51'7054086.4
2015-Aug-04 00:12N 22°04' E 113°47'7051084.0
2015-Aug-03 23:33N 32°00' E 120°49'674154.9
2015-Aug-03 23:32N 30°59' E 121°20'71255.5
2015-Aug-03 23:15N 32°02' E 120°43'71100.8
2015-Aug-03 22:33N 30°59' E 121°20'35698589.0
2015-Aug-03 22:33N 25°16' E 119°29'41147684.2
2015-Aug-03 22:32N 32°02' E 120°45'4230.9
2015-Aug-03 22:31N 32°00' E 120°49'6631695.6
2015-Aug-03 22:08N 23°04' E 113°29'6331087.9
2015-Aug-03 21:33N 30°59' E 121°19'672357.7
2015-Aug-03 21:31N 32°00' E 120°49'521941.0
2015-Aug-03 21:29N 31°22' E 121°30'6564024.2
2015-Aug-03 21:20N 23°04' E 113°29'0 2.6
2015-Aug-03 21:14N 23°04' E 113°29'663969.6
2015-Aug-03 20:33N 32°00' E 120°49'0 0.0
2015-Aug-03 19:33N 32°00' E 120°49'121371.5
2015-Aug-03 19:32N 31°49' E 120°54'1650.8
2015-Aug-03 19:13N 32°02' E 120°43'6844865.8
2015-Aug-03 19:05N 22°23' E 113°54'6491243.0
2015-Aug-03 18:33N 30°57' E 121°17'5710725.9
2015-Aug-03 18:33N 31°51' E 120°54'432193.9
2015-Aug-03 18:32N 31°22' E 121°30'524007.8
2015-Aug-03 18:31N 32°00' E 120°49'6634699.5
2015-Aug-03 18:23N 23°04' E 113°29'0 1.7
2015-Aug-03 18:14N 23°04' E 113°29'656955.9
2015-Aug-03 17:33N 31°22' E 121°30'462989.3
2015-Aug-03 17:32N 31°54' E 120°53'660103309.2
2015-Aug-03 17:32N 23°04' E 113°29'663298417.6
2015-Aug-03 17:31N 32°00' E 120°49'6521249.8
2015-Aug-03 17:31N 30°58' E 121°10'6693870.4
2015-Aug-03 17:21N 22°10' E 113°31'707894.6
2015-Aug-03 16:33N 31°59' E 120°50'512687.6
2015-Aug-03 16:32N 31°22' E 121°30'65652494.7
2015-Aug-03 16:32N 23°04' E 113°29'66374601.4
2015-Aug-03 16:31N 32°00' E 120°49'705727.8
2015-Aug-03 15:33N 22°07' E 113°41'70243578.1
2015-Aug-03 15:32N 32°00' E 120°43'5334.3
2015-Aug-03 15:31N 32°00' E 120°49'521961.0
2015-Aug-03 15:29N 31°22' E 121°30'692739.5
2015-Aug-03 14:33N 22°06' E 113°48'703158082.8
2015-Aug-03 14:33N 32°00' E 120°49'11223.6
2015-Aug-03 14:30N 32°01' E 120°36'6127359.5
2015-Aug-03 14:30N 31°22' E 121°30'65610314.3
2015-Aug-03 14:26N 23°04' E 113°29'0 0.9
2015-Aug-03 14:11N 23°04' E 113°29'656920.6
2015-Aug-03 13:28N 31°22' E 121°30'65621669.5
2015-Aug-03 13:26N 23°04' E 113°29'66310114.8
2015-Aug-03 13:22N 32°00' E 120°49'66316021.9
2015-Aug-03 13:20N 23°04' E 113°29'656832.6
2015-Aug-03 12:32N 31°22' E 121°30'52964.9
2015-Aug-03 12:29N 32°00' E 120°49'66313044.8
2015-Aug-03 12:26N 23°04' E 113°29'663723.1
2015-Aug-03 11:31N 32°00' E 120°49'522069.1
2015-Aug-03 11:29N 31°22' E 121°30'5251.1
2015-Aug-03 10:28N 32°00' E 120°49'52852.0
2015-Aug-03 10:24N 31°22' E 121°30'4983373.0
2015-Aug-03 10:15N 39°05' E 117°45'98512148.4
2015-Aug-03 10:11N 23°04' E 113°29'9851589.8
2015-Aug-03 09:33N 39°03' E 117°51'495356607.6
2015-Aug-03 09:33N 31°22' E 121°30'521206.8
2015-Aug-03 09:31N 32°00' E 120°49'6638405.2
2015-Aug-03 09:26N 23°04' E 113°29'65613641.6
2015-Aug-03 09:23N 31°22' E 121°29'495574.3
2015-Aug-03 08:31N 39°03' E 117°50'44870051.8
2015-Aug-03 08:31N 32°00' E 120°49'6637904.2
2015-Aug-03 08:26N 23°04' E 113°29'65635223.5
2015-Aug-03 08:25N 31°22' E 121°29'185.7
2015-Aug-03 08:24N 31°22' E 121°30'52617.8
2015-Aug-03 08:19N 32°00' E 120°49'1526530.7
2015-Aug-03 08:19N 32°02' E 120°32'6573747.0
2015-Aug-03 08:08N 23°01' E 113°31'6571114.6
2015-Aug-03 07:33N 31°22' E 121°29'260.2
2015-Aug-03 07:31N 31°22' E 121°30'6572366995.5
2015-Aug-03 07:31N 23°01' E 113°31'657679.6
2015-Aug-03 06:33N 31°22' E 121°30'155479.7
2015-Aug-03 06:33N 31°15' E 121°46'6982398.6
2015-Aug-03 06:33N 32°01' E 120°47'667104413.4
2015-Aug-03 06:33N 22°56' E 113°33'66261081.3
2015-Aug-03 06:32N 31°48' E 120°56'16158.0
2015-Aug-03 06:26N 32°01' E 120°46'3195.9
2015-Aug-03 06:25N 32°00' E 120°49'511274.8
2015-Aug-03 06:23N 31°22' E 121°29'6564495.3
2015-Aug-03 06:14N 23°04' E 113°29'664974.3
2015-Aug-03 05:33N 31°18' E 121°48'153615.1
2015-Aug-03 05:33N 31°22' E 121°30'66413578.6
2015-Aug-03 05:30N 22°50' E 113°36'6724827.9
2015-Aug-03 05:22N 32°00' E 120°49'4395.4
2015-Aug-03 05:21N 31°58' E 120°52'81125.7
2015-Aug-03 05:21N 32°01' E 120°43'6605985.1
2015-Aug-03 05:14N 23°04' E 113°29'810.8
2015-Aug-03 04:32N 23°02' E 113°21'67315945.2
2015-Aug-03 04:29N 31°23' E 121°47'653778.1
2015-Aug-03 04:28N 32°01' E 120°45'413579.9
2015-Aug-03 04:28N 32°00' E 120°49'5342.8
2015-Aug-03 04:27N 31°56' E 120°53'66236648.3
2015-Aug-03 04:26N 23°04' E 113°29'65618310.4
2015-Aug-03 04:24N 31°22' E 121°30'0 0.0
2015-Aug-03 03:33N 31°22' E 121°30'527536.5
2015-Aug-03 03:33N 32°00' E 120°49'663198987.9
2015-Aug-03 03:33N 23°05' E 113°28'1 7.6
2015-Aug-03 03:23N 23°04' E 113°29'6615022.3
2015-Aug-03 03:15N 31°55' E 120°54'45255.6
2015-Aug-03 03:04N 31°22' E 121°30'496948.6
2015-Aug-03 02:33N 39°04' E 117°48'45549649.3
2015-Aug-03 02:33N 31°55' E 120°54'12864.1
2015-Aug-03 02:32N 32°02' E 120°43'5425.4
2015-Aug-03 02:31N 32°00' E 120°49'5223534.0
2015-Aug-03 02:31N 31°22' E 121°30'66046607.2
2015-Aug-03 02:30N 22°56' E 113°33'6213668.7
2015-Aug-03 02:20N 29°50' E 122°09'150192.9
2015-Aug-03 01:33N 32°02' E 120°44'41415.8
2015-Aug-03 01:33N 32°00' E 120°48'531911.3
2015-Aug-03 01:31N 31°22' E 121°30'469649.4
2015-Aug-03 01:31N 31°55' E 120°54'4445.2
2015-Aug-03 00:33N 31°25' E 121°32'443220.8
2015-Aug-03 00:32N 31°55' E 120°54'81067.1
2015-Aug-03 00:32N 32°02' E 120°50'2144.9
2015-Aug-03 00:31N 32°01' E 120°48'5315992.8
2015-Aug-03 00:31N 31°22' E 121°30'35693.4
2015-Aug-03 00:28N 31°47' E 121°03'3740.6
2015-Aug-02 23:33N 31°21' E 121°33'66688745.0
2015-Aug-02 23:33N 22°55' E 113°27'66585500.6
2015-Aug-02 23:32N 31°22' E 121°30'522615.1
2015-Aug-02 23:31N 32°00' E 120°49'51013.5
2015-Aug-02 23:31N 32°01' E 120°43'5658.9
2015-Aug-02 22:34N 31°22' E 121°30'663477460.1
2015-Aug-02 22:33N 22°54' E 113°31'659158212.7
2015-Aug-02 22:33N 31°15' E 121°32'581574.9
2015-Aug-02 22:31N 32°00' E 120°49'5223.3
2015-Aug-02 22:30N 32°01' E 120°43'61446564.9
2015-Aug-02 21:34N 33°21' W 117°38'61391381275.6
2015-Aug-02 21:33N 32°00' E 120°49'664265527.0
2015-Aug-02 21:33N 23°02' E 113°31'6577504.7
2015-Aug-02 21:28N 31°22' E 121°30'65622495.0
2015-Aug-02 21:26N 23°04' E 113°29'64843168.5
2015-Aug-02 21:25N 31°11' E 121°28'53676.0
2015-Aug-02 21:21N 31°55' E 120°54'4656.7
2015-Aug-02 20:32N 31°22' E 121°30'65678736.6
2015-Aug-02 20:32N 23°04' E 113°29'66348719.6
2015-Aug-02 20:31N 32°00' E 120°49'1858.2
2015-Aug-02 20:12N 31°47' E 121°03'3452.9
2015-Aug-02 19:33N 31°22' E 121°30'6561181038.1
2015-Aug-02 19:33N 23°04' E 113°29'66040253.7
2015-Aug-02 19:32N 31°43' E 121°08'66614012.5
2015-Aug-02 19:30N 23°03' E 113°20'66924568.1
2015-Aug-02 19:28N 32°00' E 120°49'3336.3
2015-Aug-02 18:33N 31°37' E 121°17'661108141.0
2015-Aug-02 18:33N 23°05' E 113°26'3517.8
2015-Aug-02 18:33N 23°04' E 113°29'65620018.5
2015-Aug-02 18:31N 31°22' E 121°30'52636.7
2015-Aug-02 18:26N 32°00' E 120°49'663754.3
2015-Aug-02 17:33N 23°04' E 113°29'660182670.1
2015-Aug-02 17:33N 31°31' E 121°25'107382.5
2015-Aug-02 17:33N 31°22' E 121°30'65912296.3
2015-Aug-02 17:30N 22°59' E 113°31'6675227.5
2015-Aug-02 17:22N 32°00' E 120°49'663820.1
2015-Aug-02 16:33N 23°04' E 113°29'111919.3
2015-Aug-02 16:33N 22°53' E 113°30'668160271.3
2015-Aug-02 16:33N 31°24' E 121°34'4261.2
2015-Aug-02 16:32N 31°22' E 121°30'6122102991.1
2015-Aug-02 16:28N 33°19' W 117°45'683730727.7
2015-Aug-02 16:15N 23°04' E 113°29'656931.0
2015-Aug-02 15:33N 31°22' E 121°30'697209161.8
2015-Aug-02 15:33N 22°10' E 113°32'702157913.9
2015-Aug-02 15:32N 31°18' E 121°44'66118175.1
2015-Aug-02 15:30N 23°04' E 113°29'6634617.8
2015-Aug-02 15:21N 32°00' E 120°49'7391.2
2015-Aug-02 14:33N 31°10' E 121°52'2278081.8
2015-Aug-02 14:33N 31°22' E 121°30'5220919.1
2015-Aug-02 14:33N 32°00' E 120°49'66361212.8
2015-Aug-02 14:32N 23°04' E 113°29'0 1.7
2015-Aug-02 14:27N 23°04' E 113°29'0 0.3
2015-Aug-02 13:33N 23°04' E 113°30'66355500.7
2015-Aug-02 13:33N 32°00' E 120°49'52484.0
2015-Aug-02 13:26N 31°22' E 121°30'6562769.0
2015-Aug-02 13:12N 23°04' E 113°29'95159001.6
2015-Aug-02 13:11N 36°53' E 122°26'9501515.3
2015-Aug-02 12:33N 23°04' E 113°30'65623613.7
2015-Aug-02 12:32N 31°22' E 121°30'521238.6
2015-Aug-02 12:29N 32°00' E 120°49'66318084.0
2015-Aug-02 12:27N 23°04' E 113°29'95123767.7
2015-Aug-02 12:25N 36°53' E 122°26'9511100.0
2015-Aug-02 11:33N 23°04' E 113°30'65676173.2
2015-Aug-02 11:32N 31°22' E 121°30'5011912.4
2015-Aug-02 11:32N 31°56' E 120°48'51360.2
2015-Aug-02 11:32N 32°00' E 120°49'3031621.1
2015-Aug-02 11:21N 36°53' E 122°26'9501201.7
2015-Aug-02 10:33N 23°04' E 113°30'65819406.1
2015-Aug-02 10:31N 31°60' E 120°40'306220434.9
2015-Aug-02 10:31N 36°53' E 122°26'335133915.4
2015-Aug-02 10:31N 31°22' E 121°30'521082.1
2015-Aug-02 10:28N 32°00' E 120°49'66343401.7
2015-Aug-02 10:27N 23°04' E 113°29'664740.3
2015-Aug-02 09:33N 30°56' E 122°13'66450828.8
2015-Aug-02 09:32N 23°04' E 113°30'656295169.0
2015-Aug-02 09:32N 31°22' E 121°30'5247068.1
2015-Aug-02 09:32N 32°00' E 120°49'652420.1
2015-Aug-02 09:31N 31°05' E 121°28'513263958.5
2015-Aug-02 09:31N 39°05' E 117°45'9859096.5
2015-Aug-02 09:24N 23°04' E 113°29'49159.8
2015-Aug-02 09:06N 22°18' E 113°46'6841268.8
2015-Aug-02 08:33N 31°22' E 121°30'656214668.4
2015-Aug-02 08:33N 23°04' E 113°30'985236506.4
2015-Aug-02 08:33N 39°04' E 117°50'993255299.5
2015-Aug-02 08:33N 22°56' E 113°34'64844860.3
2015-Aug-02 08:32N 31°07' E 121°28'43725.2
2015-Aug-02 08:28N 30°50' E 122°13'65936520.4
2015-Aug-02 08:27N 23°04' E 113°29'9859072.8
2015-Aug-02 08:21N 39°05' E 117°46'1037933462.4
2015-Aug-02 08:21N 22°08' E 113°46'70227465.0
2015-Aug-02 08:19N 32°00' E 120°49'69323985.8
2015-Aug-02 08:17N 22°17' E 113°49'1318.3
2015-Aug-02 07:34N 22°06' E 113°41'70697797.5
2015-Aug-02 07:33N 32°00' E 120°49'415141.5
2015-Aug-02 07:33N 32°01' E 120°44'5511047.8
2015-Aug-02 07:33N 31°22' E 121°30'686353003.8
2015-Aug-02 07:33N 22°13' E 113°48'546103.4
2015-Aug-02 07:32N 23°04' E 113°29'662396955.6
2015-Aug-02 07:32N 31°55' E 120°54'454204296.3
2015-Aug-02 07:32N 39°04' E 117°51'50619793.4
2015-Aug-02 07:30N 31°10' E 121°28'50679183.1
2015-Aug-02 07:30N 39°04' E 117°50'10421107.5
2015-Aug-02 06:34N 22°03' E 113°46'73462.1
2015-Aug-02 06:33N 22°10' E 113°48'577923.8
2015-Aug-02 06:33N 23°04' E 113°29'650116948.6
2015-Aug-02 06:33N 31°13' E 121°30'650292348.4
2015-Aug-02 06:33N 23°04' E 113°29'98516649.3
2015-Aug-02 06:29N 39°03' E 117°52'4532484.4
2015-Aug-02 06:18N 31°55' E 120°54'457614.7
2015-Aug-02 05:33N 39°05' E 117°44'4991794708.4
2015-Aug-02 05:33N 31°22' E 121°30'65694491.2
2015-Aug-02 05:33N 23°04' E 113°29'5720600.0
2015-Aug-02 05:33N 22°10' E 113°48'103525876.7
2015-Aug-02 05:30N 39°04' E 117°50'9858546.4
2015-Aug-02 05:24N 23°04' E 113°29'663103784.7
2015-Aug-02 05:23N 32°00' E 120°49'567747.7
2015-Aug-02 05:23N 31°08' E 121°14'4929686.6
2015-Aug-02 05:23N 31°55' E 120°54'12369.8
2015-Aug-02 05:21N 32°02' E 120°43'641087.7
2015-Aug-02 05:17N 31°28' E 121°47'5371.5
2015-Aug-02 04:33N 31°55' E 120°54'6622381738.5
2015-Aug-02 04:33N 23°04' E 113°29'63543149.2
2015-Aug-02 04:32N 31°09' E 121°10'559371.0
2015-Aug-02 04:32N 32°00' E 120°49'522078.6
2015-Aug-02 04:30N 31°22' E 121°30'69520029.3
2015-Aug-02 04:28N 22°03' E 113°47'7326.2
2015-Aug-02 04:27N 22°10' E 113°48'48460.0
2015-Aug-02 04:21N 22°56' E 113°33'67047287.4
2015-Aug-02 04:20N 31°21' E 121°48'50464808.6
2015-Aug-02 04:19N 39°05' E 117°46'476.1
2015-Aug-02 04:16N 39°04' E 117°51'4442401.7
2015-Aug-02 04:05N 32°02' E 120°43'6621255.0
2015-Aug-02 03:33N 23°04' E 113°29'662125354.7
2015-Aug-02 03:33N 31°55' E 120°54'579285.8
2015-Aug-02 03:33N 31°18' E 121°45'504129485.3
2015-Aug-02 03:32N 39°04' E 117°50'496198312.8
2015-Aug-02 03:32N 31°22' E 121°30'215277.7
2015-Aug-02 03:32N 31°11' E 121°09'522877.0
2015-Aug-02 03:31N 32°00' E 120°49'6662396634.1
2015-Aug-02 03:31N 22°60' E 113°31'594814.3
2015-Aug-02 03:30N 22°03' E 113°47'321437.7
2015-Aug-02 03:29N 21°57' E 113°14'7201672.1
2015-Aug-02 03:03N 31°23' E 121°30'4488.2
2015-Aug-02 02:33N 31°55' E 120°54'6622381738.5
2015-Aug-02 02:33N 23°04' E 113°29'639766455.0
2015-Aug-02 02:33N 31°14' E 121°09'671160964.2
2015-Aug-02 02:33N 22°12' E 113°48'688117880.2
2015-Aug-02 02:32N 31°22' E 121°30'504294.6
2015-Aug-02 02:32N 31°59' E 120°51'2170.2
2015-Aug-02 02:31N 32°00' E 120°49'7212351.8
2015-Aug-02 02:31N 31°11' E 121°51'771780.5
2015-Aug-02 02:28N 32°02' E 120°43'6629167.2
2015-Aug-02 02:24N 23°02' E 113°32'68589.4
2015-Aug-02 02:17N 21°57' E 113°14'691768.0
2015-Aug-02 02:14N 23°04' E 113°29'0 0.1
2015-Aug-02 01:33N 23°04' E 113°29'98690991.8
2015-Aug-02 01:33N 39°04' E 117°51'495445311.4
2015-Aug-02 01:33N 31°16' E 121°09'19396.2
2015-Aug-02 01:30N 31°22' E 121°30'65694494.6
2015-Aug-02 01:29N 23°04' E 113°29'5059712.4
2015-Aug-02 01:29N 22°18' E 113°48'384320.2
2015-Aug-02 01:29N 21°57' E 113°14'72511752.8
2015-Aug-02 01:25N 32°00' E 120°44'55436.6
2015-Aug-02 01:25N 32°00' E 120°49'7207.9
2015-Aug-02 01:23N 31°55' E 120°54'0 0.0
2015-Aug-02 00:34N 31°55' E 120°54'4513523.4
2015-Aug-02 00:33N 31°22' E 121°30'22391.8
2015-Aug-02 00:30N 31°17' E 121°06'461324.1
2015-Aug-02 00:28N 32°00' E 120°48'7034191.6
2015-Aug-02 00:18N 22°06' E 113°46'6181.2
2015-Aug-01 23:33N 23°04' E 113°29'65733785.3
2015-Aug-01 23:32N 31°23' E 121°30'65851493.2
2015-Aug-01 23:31N 23°02' E 113°31'664478348.8
2015-Aug-01 23:31N 32°00' E 120°49'178747.8
2015-Aug-01 23:31N 32°02' E 120°29'22570.8
2015-Aug-01 23:29N 31°55' E 120°54'4448.1
2015-Aug-01 22:33N 31°23' E 121°30'65763918.6
2015-Aug-01 22:33N 23°04' E 113°29'010.3
2015-Aug-01 22:30N 23°04' E 113°29'325.1
2015-Aug-01 22:23N 23°02' E 113°31'6649263.8
2015-Aug-01 22:19N 32°00' E 120°49'6642587.9
2015-Aug-01 22:03N 23°02' E 113°32'3 6.5
2015-Aug-01 21:33N 23°04' E 113°29'3895.8
2015-Aug-01 21:33N 23°02' E 113°32'33364.1
2015-Aug-01 21:33N 23°04' E 113°29'66319251.7
2015-Aug-01 21:31N 32°00' E 120°49'561380.2
2015-Aug-01 21:29N 31°19' E 121°34'65724374.1
2015-Aug-01 21:27N 23°02' E 113°31'6625717.9
2015-Aug-01 21:20N 31°55' E 120°54'36140.4
2015-Aug-01 21:05N 31°19' E 120°54'4177.4
2015-Aug-01 20:33N 32°00' E 120°49'6632387315.8
2015-Aug-01 20:33N 23°04' E 113°29'65068865.9
2015-Aug-01 20:32N 31°14' E 121°29'6516892.1
2015-Aug-01 20:27N 23°02' E 113°31'320.7
2015-Aug-01 20:18N 23°04' E 113°29'662889.5
2015-Aug-01 19:34N 31°55' E 120°54'66279401.9
2015-Aug-01 19:33N 23°04' E 113°29'66382316.1
2015-Aug-01 19:33N 32°00' E 120°49'631091.9
2015-Aug-01 19:29N 30°58' E 121°05'221975.2
2015-Aug-01 19:28N 31°09' E 121°28'646704.0
2015-Aug-01 18:33N 23°04' E 113°29'64337918.4
2015-Aug-01 18:32N 31°04' E 121°28'6516749.5
2015-Aug-01 18:32N 32°00' E 120°49'7200.2
2015-Aug-01 18:30N 31°55' E 120°54'591381.4
2015-Aug-01 18:27N 30°57' E 121°11'6272650.6
2015-Aug-01 18:13N 23°02' E 113°32'630951.4
2015-Aug-01 17:33N 30°58' E 121°16'630252062.8
2015-Aug-01 17:33N 23°04' E 113°29'0107.0
2015-Aug-01 17:33N 23°04' E 113°29'6424909.0
2015-Aug-01 17:25N 31°04' E 121°28'6423059.1
2015-Aug-01 17:13N 23°02' E 113°32'662595852.3
2015-Aug-01 17:13N 31°55' E 120°54'7205.9
2015-Aug-01 17:11N 32°00' E 120°49'711.0
2015-Aug-01 16:33N 31°55' E 120°54'5917624.7
2015-Aug-01 16:33N 31°04' E 121°28'642256934.0
2015-Aug-01 16:33N 23°04' E 113°29'66372340.2
2015-Aug-01 16:32N 32°00' E 120°49'675361.5
2015-Aug-01 16:31N 30°59' E 121°20'63430012.6
2015-Aug-01 16:30N 23°04' E 113°29'329.2
2015-Aug-01 16:24N 23°02' E 113°32'661780.6
2015-Aug-01 15:33N 31°05' E 121°58'661118984.3
2015-Aug-01 15:33N 23°04' E 113°29'034.9
2015-Aug-01 15:32N 23°04' E 113°29'6638809.4
2015-Aug-01 15:28N 32°00' E 120°49'66318.3
2015-Aug-01 15:15N 31°04' E 121°28'2130.1
2015-Aug-01 14:33N 31°09' E 121°53'660594093.5
2015-Aug-01 14:33N 23°04' E 113°29'347.2
2015-Aug-01 14:29N 23°02' E 113°32'6422050.3
2015-Aug-01 14:10N 31°04' E 121°28'1930.5
2015-Aug-01 13:33N 31°13' E 121°48'66016740.8
2015-Aug-01 13:31N 23°04' E 113°29'6635590.9
2015-Aug-01 13:24N 32°00' E 120°49'667863.6
2015-Aug-01 13:23N 31°04' E 121°28'6427248.0
2015-Aug-01 13:18N 23°04' E 113°29'321.5
2015-Aug-01 13:10N 23°02' E 113°32'3 5.2
2015-Aug-01 12:33N 23°04' E 113°29'0100.9
2015-Aug-01 12:33N 23°04' E 113°29'661339841.7
2015-Aug-01 12:33N 31°21' E 121°39'191856.5
2015-Aug-01 12:32N 31°04' E 121°28'66914.7
2015-Aug-01 12:28N 32°00' E 120°49'6641978.8
2015-Aug-01 12:08N 23°02' E 113°31'6591097.9
2015-Aug-01 11:32N 31°27' E 121°28'659197617.4
2015-Aug-01 11:32N 23°04' E 113°29'016.7
2015-Aug-01 11:30N 23°04' E 113°29'311.3
2015-Aug-01 11:15N 23°02' E 113°32'66214267.2
2015-Aug-01 11:13N 31°55' E 120°54'6621012.9
2015-Aug-01 10:33N 23°04' E 113°29'3462.4
2015-Aug-01 10:33N 23°02' E 113°32'659593094.7
2015-Aug-01 10:33N 31°34' E 121°18'66130129.4
2015-Aug-01 10:32N 23°04' E 113°25'66592124.8
2015-Aug-01 10:31N 32°00' E 120°49'66337890.6
2015-Aug-01 10:30N 23°04' E 113°29'6612381294.3
2015-Aug-01 10:30N 31°55' E 120°54'661696.5
2015-Aug-01 09:33N 23°04' E 113°29'066.8
2015-Aug-01 09:33N 23°04' E 113°29'66249628.1
2015-Aug-01 09:32N 32°02' E 120°43'2915144.2
2015-Aug-01 09:32N 31°42' E 121°08'252331.2
2015-Aug-01 09:31N 32°00' E 120°49'66929.0
2015-Aug-01 09:27N 31°04' E 121°28'59448.9
2015-Aug-01 09:19N 31°55' E 120°54'661863.7
2015-Aug-01 08:33N 23°04' E 113°29'025.2
2015-Aug-01 08:32N 23°04' E 113°29'985272774.3
2015-Aug-01 08:32N 39°04' E 117°47'987507369.1
2015-Aug-01 08:32N 23°02' E 113°32'65720754.3
2015-Aug-01 08:30N 31°47' E 120°58'945.2
2015-Aug-01 08:18N 31°55' E 120°54'4576427.7
2015-Aug-01 08:14N 39°05' E 117°44'4 6.0
2015-Aug-01 07:33N 39°04' E 117°49'985186710.8
2015-Aug-01 07:33N 23°04' E 113°29'662476304.6
2015-Aug-01 07:33N 31°55' E 120°54'273.0
2015-Aug-01 07:32N 31°54' E 120°53'66023996.9
2015-Aug-01 07:30N 23°04' E 113°29'2595153.7
2015-Aug-01 07:27N 24°24' E 117°58'4412685.8
2015-Aug-01 07:17N 31°04' E 121°28'6437238.2
2015-Aug-01 07:12N 23°01' E 113°32'461260.7
2015-Aug-01 07:10N 22°17' E 113°44'6956228.1
2015-Aug-01 07:03N 32°00' E 120°49'6631341.1
2015-Aug-01 06:33N 23°04' E 113°29'26345141.5
2015-Aug-01 06:33N 24°25' E 118°03'27160923.0
2015-Aug-01 06:33N 22°15' E 113°44'673345895.4
2015-Aug-01 06:33N 31°04' E 121°28'20708.4
2015-Aug-01 06:31N 31°10' E 121°51'66127674.3
2015-Aug-01 06:29N 23°01' E 113°32'55889.5
2015-Aug-01 06:26N 22°18' E 114°10'681817037.0
2015-Aug-01 06:26N 32°01' E 120°46'3247.3
2015-Aug-01 06:25N 32°00' E 120°49'66310029.7
2015-Aug-01 06:21N 23°04' E 113°29'98617747.3
2015-Aug-01 06:18N 39°04' E 117°51'3680.8
2015-Aug-01 06:17N 39°04' E 117°47'4554246.3
2015-Aug-01 06:11N 31°55' E 120°54'6701065.0
2015-Aug-01 05:33N 22°54' E 113°28'103993.8
2015-Aug-01 05:33N 23°04' E 113°29'661237977.6
2015-Aug-01 05:33N 31°15' E 121°46'191363.7
2015-Aug-01 05:32N 31°04' E 121°28'439175684.5
2015-Aug-01 05:32N 24°22' E 118°08'88230238.1
2015-Aug-01 05:30N 39°04' E 117°48'310.0
2015-Aug-01 05:15N 39°05' E 117°45'10379035.8
2015-Aug-01 05:08N 22°09' E 113°46'66821661.8
2015-Aug-01 05:06N 30°59' E 121°20'6341153.8
2015-Aug-01 04:33N 23°04' E 113°29'634126729.7
2015-Aug-01 04:33N 30°59' E 121°20'327570.8
2015-Aug-01 04:33N 31°20' E 121°48'194008.5
2015-Aug-01 04:32N 31°21' E 121°26'49534976.2
2015-Aug-01 04:31N 39°04' E 117°50'44818123.6
2015-Aug-01 04:30N 32°00' E 120°49'4485696.8
2015-Aug-01 04:25N 39°04' E 117°51'99020028.0
2015-Aug-01 04:22N 22°59' E 113°31'99010157.5
2015-Aug-01 04:16N 39°05' E 117°44'10425983.2
2015-Aug-01 04:06N 22°03' E 113°47'591693.5
2015-Aug-01 04:04N 23°01' E 113°32'4 8.8
2015-Aug-01 03:33N 23°04' E 113°29'1393.3
2015-Aug-01 03:33N 23°04' E 113°30'63112681.4
2015-Aug-01 03:33N 22°03' E 113°47'69459526.9
2015-Aug-01 03:33N 31°22' E 121°29'49461362.5
2015-Aug-01 03:32N 39°03' E 117°51'131.4
2015-Aug-01 03:29N 39°04' E 117°50'98930683.8
2015-Aug-01 03:27N 23°01' E 113°32'6359176.7
2015-Aug-01 03:23N 30°59' E 121°20'60253.0
2015-Aug-01 03:09N 31°55' E 120°54'7453.6
2015-Aug-01 03:08N 32°00' E 120°49'711.6
2015-Aug-01 02:33N 31°55' E 120°54'663198889.4
2015-Aug-01 02:33N 23°01' E 113°32'4356.5
2015-Aug-01 02:32N 23°04' E 113°29'634190095.9
2015-Aug-01 02:32N 30°59' E 121°20'6760225.8
2015-Aug-01 02:32N 32°00' E 120°49'448269022.5
2015-Aug-01 02:32N 39°04' E 117°49'4942898.1
2015-Aug-01 02:22N 31°24' E 121°31'658816.4
2015-Aug-01 01:33N 23°04' E 113°29'0401.1
2015-Aug-01 01:33N 23°04' E 113°29'661793799.6
2015-Aug-01 01:33N 31°55' E 120°54'6054429.0
2015-Aug-01 01:33N 30°58' E 121°18'702197.0
2015-Aug-01 01:31N 32°01' E 120°43'53897.2
2015-Aug-01 01:31N 32°00' E 120°49'66324868.1
2015-Aug-01 01:29N 23°04' E 113°29'473.5
2015-Aug-01 01:26N 23°01' E 113°32'9886307.9
2015-Aug-01 01:17N 39°05' E 117°45'457633.3
2015-Aug-01 00:34N 31°55' E 120°54'594746.0
2015-Aug-01 00:33N 30°57' E 121°11'62790283.5
2015-Aug-01 00:32N 23°04' E 113°29'66382271.9
2015-Aug-01 00:32N 32°01' E 120°47'664132824.0
2015-Aug-01 00:32N 23°01' E 113°32'66114697.7
2015-Aug-01 00:29N 32°01' E 120°43'44524655.2
2015-Aug-01 00:28N 39°03' E 117°51'98827153.9
2015-Aug-01 00:26N 23°02' E 113°22'632724.2
2015-Jul-31 23:33N 31°02' E 121°05'507303991.4
2015-Jul-31 23:33N 39°03' E 117°52'985886492.0
2015-Jul-31 23:33N 23°04' E 113°29'663238640.9
2015-Jul-31 23:33N 31°59' E 120°50'664132759.8
2015-Jul-31 23:33N 23°05' E 113°26'24175.9
2015-Jul-31 23:33N 23°04' E 113°29'1170.9
2015-Jul-31 23:32N 23°04' E 113°29'662119084.2
2015-Jul-31 23:32N 31°55' E 120°54'6634880.1
2015-Jul-31 23:24N 23°01' E 113°32'4 4.5
2015-Jul-31 22:33N 23°04' E 113°29'051.8
2015-Jul-31 22:33N 23°04' E 113°29'62225428.4
2015-Jul-31 22:31N 31°01' E 120°56'5439196.4
2015-Jul-31 22:31N 31°56' E 120°54'66323634.4
2015-Jul-31 22:29N 23°01' E 113°32'410.6
2015-Jul-31 22:08N 23°04' E 113°29'1 0.9
2015-Jul-31 21:32N 23°04' E 113°29'426.8
2015-Jul-31 21:23N 23°01' E 113°32'4139.7
2015-Jul-31 21:21N 23°04' E 113°29'655131081.2
2015-Jul-31 21:21N 32°02' E 120°32'6210700.8
2015-Jul-31 21:20N 31°01' E 120°48'616783.5
2015-Jul-31 20:33N 23°04' E 113°29'0 8.5
2015-Jul-31 20:30N 23°04' E 113°29'4121.3
2015-Jul-31 20:28N 23°01' E 113°32'66336724.2
2015-Jul-31 20:27N 31°56' E 120°54'6624086.4
2015-Jul-31 20:17N 23°04' E 113°29'1 0.8
2015-Jul-31 19:33N 23°04' E 113°29'089.1
2015-Jul-31 19:33N 23°04' E 113°29'662113431.9
2015-Jul-31 19:33N 31°56' E 120°54'6621638.5
2015-Jul-31 19:08N 23°04' E 113°29'1 1.0
2015-Jul-31 18:33N 23°04' E 113°29'130.2
2015-Jul-31 18:32N 23°04' E 113°29'662595555.9
2015-Jul-31 18:32N 31°56' E 120°54'81591.5
2015-Jul-31 18:32N 32°01' E 120°46'6671782.7
2015-Jul-31 18:10N 22°56' E 113°34'91157.5
2015-Jul-31 18:09N 23°04' E 113°29'662793812.4
2015-Jul-31 18:09N 31°55' E 120°54'6661125.5
2015-Jul-31 17:33N 22°56' E 113°34'1034924.4
2015-Jul-31 17:33N 23°04' E 113°29'662119170.1
2015-Jul-31 17:33N 32°01' E 120°46'9116.2
2015-Jul-31 17:29N 31°55' E 120°54'6624850.7
2015-Jul-31 17:20N 23°04' E 113°29'1 0.7
2015-Jul-31 16:33N 23°04' E 113°29'663397777.0
2015-Jul-31 16:33N 31°59' E 120°51'4527.1
2015-Jul-31 16:33N 31°55' E 120°54'662238167.7
2015-Jul-31 16:32N 23°04' E 113°29'0 3.3
2015-Jul-31 16:30N 23°04' E 113°29'4113.7
2015-Jul-31 16:28N 23°00' E 113°32'6641943.8
2015-Jul-31 16:07N 31°56' E 120°54'6621174.1
2015-Jul-31 15:33N 23°04' E 113°29'076.9
2015-Jul-31 15:33N 23°04' E 113°29'080.3
2015-Jul-31 15:33N 23°04' E 113°29'014.6
2015-Jul-31 15:32N 23°04' E 113°29'417.1
2015-Jul-31 15:19N 23°01' E 113°32'6634900.2
2015-Jul-31 15:11N 31°55' E 120°54'6621059.9
2015-Jul-31 14:33N 23°04' E 113°29'4821.5
2015-Jul-31 14:33N 23°03' E 113°25'41886.6
2015-Jul-31 14:33N 23°04' E 113°29'011.3
2015-Jul-31 14:32N 23°04' E 113°29'66366300.1
2015-Jul-31 14:32N 31°59' E 120°51'451.6
2015-Jul-31 14:27N 31°55' E 120°54'6634940.6
2015-Jul-31 14:18N 23°01' E 113°32'4 5.7
2015-Jul-31 13:33N 23°04' E 113°29'129.9
2015-Jul-31 13:32N 23°04' E 113°29'66250671.7
2015-Jul-31 13:32N 31°55' E 120°54'4142.6
2015-Jul-31 13:30N 31°59' E 120°51'6674883.4
2015-Jul-31 13:21N 22°56' E 113°34'1012.0
2015-Jul-31 12:33N 23°04' E 113°29'064.6
2015-Jul-31 12:33N 23°04' E 113°29'010.9
2015-Jul-31 12:32N 23°04' E 113°29'6626234.8
2015-Jul-31 12:26N 31°55' E 120°54'4203.5
2015-Jul-31 12:25N 31°59' E 120°51'66429165.7
2015-Jul-31 12:23N 23°01' E 113°32'4 5.1
2015-Jul-31 11:33N 23°04' E 113°29'0323.0
2015-Jul-31 11:33N 23°04' E 113°29'66282119.3
2015-Jul-31 11:33N 31°55' E 120°54'70576865.7
2015-Jul-31 11:32N 22°11' E 113°32'70617178.4
2015-Jul-31 11:30N 31°59' E 120°51'6634323.9
2015-Jul-31 11:20N 23°04' E 113°29'460.1
2015-Jul-31 11:17N 23°01' E 113°32'9534557.6
2015-Jul-31 11:04N 36°54' E 122°26'306591.4
2015-Jul-31 10:33N 31°59' E 120°51'43211.9
2015-Jul-31 10:33N 31°55' E 120°54'11657.3
2015-Jul-31 10:32N 32°01' E 120°43'70231996.5
2015-Jul-31 10:31N 22°09' E 113°38'99756979.2
2015-Jul-31 10:30N 36°54' E 122°26'951428149.8
2015-Jul-31 10:30N 23°04' E 113°29'477.8
2015-Jul-31 10:26N 23°00' E 113°31'6471.1
2015-Jul-31 10:25N 22°55' E 113°34'970.1
2015-Jul-31 10:17N 23°04' E 113°29'663897.5
2015-Jul-31 09:33N 31°59' E 120°51'45339.0
2015-Jul-31 09:33N 31°55' E 120°54'662216507.8
2015-Jul-31 09:33N 23°04' E 113°29'95117933.0
2015-Jul-31 09:30N 36°54' E 122°26'9613983.8
2015-Jul-31 09:15N 22°54' E 113°30'10172.3
2015-Jul-31 09:12N 23°04' E 113°30'6584619.2
2015-Jul-31 09:03N 31°50' E 120°55'7001401.7
2015-Jul-31 08:33N 22°08' E 113°39'5714758.3
2015-Jul-31 08:33N 23°04' E 113°29'64241249.7
2015-Jul-31 08:32N 31°03' E 121°29'605261.7
2015-Jul-31 08:31N 31°54' E 120°53'4236.9
2015-Jul-31 08:30N 31°59' E 120°51'30644003.8
2015-Jul-31 08:30N 36°54' E 122°26'30928480.4
2015-Jul-31 08:29N 31°55' E 120°54'66319401.4
2015-Jul-31 08:27N 23°01' E 113°32'66217641.8
2015-Jul-31 08:25N 32°01' E 120°43'660768.9
2015-Jul-31 07:33N 23°04' E 113°29'63669393.2
2015-Jul-31 07:33N 30°59' E 121°24'67569413.7
2015-Jul-31 07:32N 22°05' E 113°43'999156287.1
2015-Jul-31 07:32N 36°54' E 122°25'36228315.7
2015-Jul-31 07:31N 30°58' E 121°10'661841.5
2015-Jul-31 07:29N 32°00' E 120°46'8725.6
2015-Jul-31 07:28N 31°55' E 120°54'11687.8
2015-Jul-31 07:27N 32°01' E 120°43'66074246.6
2015-Jul-31 07:27N 23°04' E 113°30'435.9
2015-Jul-31 07:20N 23°01' E 113°32'6646053.9
2015-Jul-31 07:14N 31°59' E 120°51'663989.0
2015-Jul-31 06:33N 23°04' E 113°29'6629021.2
2015-Jul-31 06:29N 31°55' E 120°54'4985.7
2015-Jul-31 06:29N 31°59' E 120°51'41344.2
2015-Jul-31 06:29N 31°56' E 120°54'45539915.0
2015-Jul-31 06:28N 39°04' E 117°47'4462020.5
2015-Jul-31 06:15N 31°60' E 120°35'6575450.5
2015-Jul-31 06:07N 23°01' E 113°32'4 7.6
2015-Jul-31 05:33N 23°04' E 113°29'66241780.7
2015-Jul-31 05:33N 31°55' E 120°54'91254.4
2015-Jul-31 05:32N 32°02' E 120°47'311268.4
2015-Jul-31 05:32N 32°01' E 120°43'7386.0
2015-Jul-31 05:31N 31°59' E 120°51'498.1
2015-Jul-31 05:29N 31°56' E 120°54'6622805.0
2015-Jul-31 05:15N 23°04' E 113°30'662953.3
2015-Jul-31 04:33N 31°57' E 120°52'662595737.1
2015-Jul-31 04:33N 23°04' E 113°29'663795476.6
2015-Jul-31 04:33N 31°59' E 120°51'66417455.6
2015-Jul-31 04:30N 23°01' E 113°32'66385231.7
2015-Jul-31 04:30N 31°55' E 120°54'6669551.2
2015-Jul-31 04:26N 23°07' E 113°17'12321.5
2015-Jul-31 04:24N 23°04' E 113°30'66032546.5
2015-Jul-31 04:22N 32°01' E 120°43'4493237.6
2015-Jul-31 04:14N 39°05' E 117°44'5 7.3
2015-Jul-31 03:33N 39°03' E 117°50'45490742.1
2015-Jul-31 03:33N 31°55' E 120°54'662183198.3
2015-Jul-31 03:33N 23°04' E 113°29'4586.4
2015-Jul-31 03:32N 23°01' E 113°31'661339748.7
2015-Jul-31 03:32N 31°52' E 120°54'13516.8
2015-Jul-31 03:31N 32°01' E 120°43'7158.6
2015-Jul-31 03:28N 31°59' E 120°51'706846654.7
2015-Jul-31 03:28N 22°03' E 113°47'632553.7
2015-Jul-31 03:27N 23°04' E 113°30'63214.4
2015-Jul-31 03:09N 22°03' E 113°48'64108.5
2015-Jul-31 02:33N 23°04' E 113°29'66566460.5
2015-Jul-31 02:33N 31°19' E 121°48'5394941.3
2015-Jul-31 02:33N 31°48' E 120°56'698502747.4
2015-Jul-31 02:33N 22°03' E 113°48'70581896.7
2015-Jul-31 02:32N 31°59' E 120°51'42720.7
2015-Jul-31 02:32N 31°56' E 120°54'1248.7
2015-Jul-31 02:32N 31°55' E 120°54'6617214.6
2015-Jul-31 02:27N 23°04' E 113°30'98546672.8
2015-Jul-31 02:25N 39°04' E 117°49'44723640.6
2015-Jul-31 02:24N 32°01' E 120°43'660782.5
2015-Jul-31 01:33N 23°04' E 113°29'661119010.2
2015-Jul-31 01:33N 31°15' E 121°47'612516.0
2015-Jul-31 01:32N 31°56' E 120°54'454181412.9
2015-Jul-31 01:32N 39°04' E 117°50'45417772.7
2015-Jul-31 01:30N 31°55' E 120°54'592796.1
2015-Jul-31 01:29N 31°04' E 121°28'6345707.9
2015-Jul-31 01:29N 31°59' E 120°51'7203.4
2015-Jul-31 01:27N 32°01' E 120°43'6656996.1
2015-Jul-31 01:21N 23°07' E 113°16'1215.3
2015-Jul-31 00:33N 23°04' E 113°29'0 1.3
2015-Jul-31 00:31N 23°04' E 113°29'0 0.0
2015-Jul-30 23:33N 23°04' E 113°29'65619043.4
2015-Jul-30 23:31N 31°47' E 120°56'533713.9
2015-Jul-30 23:30N 30°57' E 121°17'6327128.2
2015-Jul-30 23:25N 23°02' E 113°31'66410390.4
2015-Jul-30 23:21N 31°58' E 120°51'663835.3
2015-Jul-30 22:33N 23°04' E 113°29'663216881.5
2015-Jul-30 22:33N 31°58' E 120°51'3103.2
2015-Jul-30 22:31N 31°56' E 120°54'66226469.4
2015-Jul-30 22:30N 23°04' E 113°29'65621084.0
2015-Jul-30 22:28N 31°47' E 120°56'6566746.5
2015-Jul-30 22:22N 23°04' E 113°29'392.2
2015-Jul-30 22:20N 23°02' E 113°31'3 3.8
2015-Jul-30 21:33N 23°04' E 113°29'0 1.7
2015-Jul-30 21:31N 23°04' E 113°29'66319238.7
2015-Jul-30 21:29N 31°58' E 120°51'66317803.9
2015-Jul-30 21:27N 23°04' E 113°29'0 0.2
2015-Jul-30 20:33N 23°04' E 113°29'0 1.3
2015-Jul-30 20:31N 23°04' E 113°29'65631488.0
2015-Jul-30 20:30N 31°47' E 120°56'12641.7
2015-Jul-30 20:28N 31°58' E 120°51'66415518.1
2015-Jul-30 20:26N 23°02' E 113°31'3 3.4
2015-Jul-30 19:33N 23°04' E 113°29'3531.0
2015-Jul-30 19:33N 23°02' E 113°31'664217250.3
2015-Jul-30 19:33N 31°58' E 120°51'31455.1
2015-Jul-30 19:33N 31°56' E 120°54'122451.6
2015-Jul-30 19:33N 31°47' E 121°02'65923496.8
2015-Jul-30 19:31N 23°04' E 113°29'660683.4
2015-Jul-30 18:33N 31°43' E 121°08'660103257.3
2015-Jul-30 18:33N 23°04' E 113°29'66341853.7
2015-Jul-30 18:32N 31°58' E 120°51'66353012.6
2015-Jul-30 18:31N 23°04' E 113°29'6621752.8
2015-Jul-30 18:08N 31°56' E 120°54'6621134.9
2015-Jul-30 17:33N 23°04' E 113°29'0 1.4
2015-Jul-30 17:31N 23°04' E 113°29'66026104.3
2015-Jul-30 17:29N 31°37' E 121°16'2910585.5
2015-Jul-30 17:29N 31°58' E 120°51'6842071.5
2015-Jul-30 17:09N 22°17' E 114°05'5896.0
2015-Jul-30 16:33N 23°04' E 113°29'663125562.4
2015-Jul-30 16:33N 31°58' E 120°51'3710355.2
2015-Jul-30 16:33N 31°32' E 121°23'341270.0
2015-Jul-30 16:31N 31°56' E 120°54'6625718.4
2015-Jul-30 16:24N 23°02' E 113°31'388.5
2015-Jul-30 16:22N 23°04' E 113°29'0 0.6
2015-Jul-30 16:06N 23°04' E 113°29'6591216.4
2015-Jul-30 15:33N 31°26' E 121°30'678106126.0
2015-Jul-30 15:33N 22°23' E 113°54'476515.9
2015-Jul-30 15:32N 23°04' E 113°29'66348687.8
2015-Jul-30 15:31N 31°58' E 120°51'6633214.1
2015-Jul-30 15:19N 23°02' E 113°31'3 4.4
2015-Jul-30 14:33N 23°04' E 113°29'662396977.8
2015-Jul-30 14:33N 31°21' E 121°41'67425527.1
2015-Jul-30 14:31N 22°54' E 113°22'1277.1
2015-Jul-30 14:22N 23°04' E 113°29'6633727.5
2015-Jul-30 14:11N 31°58' E 120°51'6631049.1
2015-Jul-30 13:33N 23°04' E 113°29'66114875.2
2015-Jul-30 13:31N 31°14' E 121°48'66944621.2
2015-Jul-30 13:30N 22°55' E 113°28'103894.9
2015-Jul-30 13:30N 23°04' E 113°29'329.6
2015-Jul-30 13:23N 23°02' E 113°31'348.2
2015-Jul-30 13:19N 23°04' E 113°29'66351860.2
2015-Jul-30 13:18N 31°58' E 120°51'6587.5
2015-Jul-30 12:34N 31°14' E 121°48'661183085.8
2015-Jul-30 12:33N 23°04' E 113°29'9826.8
2015-Jul-30 12:33N 22°56' E 113°30'9291.7
2015-Jul-30 12:31N 23°04' E 113°29'66319083.5
2015-Jul-30 12:29N 31°58' E 120°51'66318073.4
2015-Jul-30 12:27N 23°04' E 113°29'66223128.2
2015-Jul-30 12:25N 31°56' E 120°54'66221294.4
2015-Jul-30 12:23N 23°02' E 113°31'3 4.1
2015-Jul-30 11:33N 23°04' E 113°29'66127988.7
2015-Jul-30 11:32N 31°13' E 121°49'661119032.1
2015-Jul-30 11:32N 23°02' E 113°31'126.2
2015-Jul-30 11:29N 23°03' E 113°31'320.8
2015-Jul-30 11:22N 23°04' E 113°29'66355477.8
2015-Jul-30 11:21N 31°58' E 120°51'8170.1
2015-Jul-30 11:18N 32°01' E 120°43'6211.8
2015-Jul-30 11:17N 32°01' E 120°36'12286.2
2015-Jul-30 11:14N 31°59' E 120°50'662971.1
2015-Jul-30 10:33N 23°04' E 113°29'661396618.2
2015-Jul-30 10:33N 31°09' E 121°54'66117119.2
2015-Jul-30 10:31N 23°04' E 113°29'3430.2
2015-Jul-30 10:30N 23°02' E 113°31'615.2
2015-Jul-30 10:08N 22°56' E 113°33'915.6
2015-Jul-30 09:33N 23°04' E 113°29'66018718.9
2015-Jul-30 09:31N 31°07' E 121°55'66150611.7
2015-Jul-30 09:30N 23°02' E 113°31'3 3.5
2015-Jul-30 08:33N 23°04' E 113°29'66021418.0
2015-Jul-30 08:31N 31°07' E 121°55'66158021.1
2015-Jul-30 08:30N 23°02' E 113°31'6632081.6
2015-Jul-30 08:11N 32°01' E 120°46'2206.9
2015-Jul-30 08:11N 32°01' E 120°43'81089.2
2015-Jul-30 08:10N 31°58' E 120°51'663159035.4
2015-Jul-30 08:10N 23°04' E 113°29'0 0.1
2015-Jul-30 07:33N 23°04' E 113°29'66359663.2
2015-Jul-30 07:32N 32°00' E 120°49'3532.6
2015-Jul-30 07:32N 31°58' E 120°51'8618.9
2015-Jul-30 07:31N 32°01' E 120°43'8236696.9
2015-Jul-30 07:31N 31°07' E 121°55'42628.9
2015-Jul-30 07:27N 31°01' E 121°06'636897.5
2015-Jul-30 07:26N 32°01' E 120°45'6628598.9
2015-Jul-30 07:22N 23°04' E 113°29'661140078.2
2015-Jul-30 07:22N 31°55' E 120°53'449.2
2015-Jul-30 07:16N 31°54' E 120°49'10371.9
2015-Jul-30 07:15N 31°59' E 120°38'6594386.2
2015-Jul-30 07:06N 22°59' E 113°33'6651229.4
2015-Jul-30 06:33N 31°58' E 120°51'41178.6
2015-Jul-30 06:33N 31°58' E 120°47'627011.2
2015-Jul-30 06:33N 30°58' E 121°09'6279601.7
2015-Jul-30 06:29N 23°04' E 113°29'678.2
2015-Jul-30 06:24N 22°59' E 113°33'66223842.8
2015-Jul-30 06:22N 31°07' E 121°55'660216117.5
2015-Jul-30 06:22N 23°04' E 113°29'317.4
2015-Jul-30 06:10N 23°02' E 113°31'6291011.5
2015-Jul-30 05:33N 30°58' E 121°13'62915942.3
2015-Jul-30 05:31N 23°04' E 113°29'66056584.5
2015-Jul-30 05:30N 31°11' E 121°50'6183.0
2015-Jul-30 05:28N 31°07' E 121°55'3335.8
2015-Jul-30 04:33N 30°58' E 121°18'63281278.7
2015-Jul-30 04:33N 23°04' E 113°29'6611189578.6
2015-Jul-30 04:33N 31°06' E 121°57'1518076.7
2015-Jul-30 04:33N 31°17' E 121°45'695357238.6
2015-Jul-30 04:33N 22°14' E 113°39'103348911.7
2015-Jul-30 04:31N 39°05' E 117°46'98535470.4
2015-Jul-30 04:30N 23°04' E 113°29'6653080.1
2015-Jul-30 04:17N 32°02' E 120°50'4222.7
2015-Jul-30 04:16N 32°01' E 120°45'92127.8
2015-Jul-30 04:15N 31°56' E 120°54'10590.2
2015-Jul-30 04:14N 32°01' E 120°43'20577.7
2015-Jul-30 04:12N 31°47' E 120°60'42612.8
2015-Jul-30 04:08N 31°14' E 121°30'3152.9
2015-Jul-30 03:33N 31°02' E 122°03'697193124.8
2015-Jul-30 03:33N 22°09' E 113°41'7021264225.1
2015-Jul-30 03:33N 31°56' E 120°54'7811.1
2015-Jul-30 03:33N 32°02' E 120°50'41458.2
2015-Jul-30 03:32N 32°01' E 120°45'2225.0
2015-Jul-30 03:32N 32°01' E 120°43'7050542.0
2015-Jul-30 03:32N 30°59' E 121°23'31110362.8
2015-Jul-30 03:32N 31°22' E 121°48'6742060.1
2015-Jul-30 03:12N 22°53' E 113°30'6731041.4
2015-Jul-30 02:33N 32°02' E 120°50'67235.1
2015-Jul-30 02:33N 32°00' E 120°43'6356709.9
2015-Jul-30 02:33N 31°28' E 121°47'5319040.5
2015-Jul-30 02:33N 31°56' E 120°54'622655.4
2015-Jul-30 02:32N 31°01' E 121°27'7114119.9
2015-Jul-30 02:31N 32°01' E 120°45'7083747.6
2015-Jul-30 02:20N 22°01' E 113°43'7043733.4
2015-Jul-30 02:09N 31°40' E 121°12'66031257.2
2015-Jul-30 02:08N 23°03' E 113°31'6651173.0
2015-Jul-30 01:34N 32°02' E 120°50'710639098.3
2015-Jul-30 01:33N 22°02' E 113°44'5970277.3
2015-Jul-30 01:33N 22°59' E 113°31'66364499.8
2015-Jul-30 01:33N 31°39' E 121°15'393761.2
2015-Jul-30 01:32N 31°02' E 121°29'192389.1
2015-Jul-30 01:32N 31°21' E 121°31'574121.5
2015-Jul-30 01:31N 32°00' E 120°42'295.8
2015-Jul-30 01:29N 32°01' E 120°45'66431886.9
2015-Jul-30 01:28N 22°59' E 113°33'334.4
2015-Jul-30 01:23N 23°02' E 113°31'340.4
2015-Jul-30 01:18N 23°04' E 113°29'1114.9
2015-Jul-30 00:33N 22°53' E 113°31'6651197341.1
2015-Jul-30 00:33N 31°23' E 121°30'511239.6
2015-Jul-30 00:31N 32°02' E 120°52'333277.7
2015-Jul-30 00:30N 31°38' E 121°17'66124548.9
2015-Jul-30 00:29N 23°02' E 113°31'6619672.1
2015-Jul-30 00:25N 32°01' E 120°43'2118.8
2015-Jul-30 00:24N 32°02' E 120°45'66223589.5
2015-Jul-30 00:22N 23°04' E 113°29'0 2.4
2015-Jul-30 00:18N 23°04' E 113°29'6208.9
2015-Jul-30 00:16N 22°59' E 113°33'6 8.7
2015-Jul-29 23:33N 23°04' E 113°29'10613.3
2015-Jul-29 23:32N 22°55' E 113°26'10688.2
2015-Jul-29 23:31N 23°04' E 113°29'6615205.6
2015-Jul-29 23:23N 31°38' E 121°17'661755.2
2015-Jul-29 22:31N 23°04' E 113°29'0 9.6
2015-Jul-29 22:30N 23°04' E 113°29'66179301.5
2015-Jul-29 22:29N 31°38' E 121°17'6628481.1
2015-Jul-29 22:25N 23°02' E 113°31'3 3.3
2015-Jul-29 21:33N 23°04' E 113°29'3447.3
2015-Jul-29 21:32N 23°02' E 113°31'3113.1
2015-Jul-29 21:31N 23°04' E 113°29'6614655.5
2015-Jul-29 21:22N 31°38' E 121°17'0 0.0
2015-Jul-29 20:28N 31°38' E 121°17'66213937.0
2015-Jul-29 20:25N 23°02' E 113°31'711271.8
2015-Jul-29 20:22N 21°52' E 113°16'7314596.0
2015-Jul-29 20:22N 23°04' E 113°29'0 2.4
2015-Jul-29 20:18N 23°04' E 113°29'3 3.7
2015-Jul-29 19:32N 23°02' E 113°31'66218474.8
2015-Jul-29 19:29N 31°38' E 121°17'6615274.9
2015-Jul-29 19:22N 23°04' E 113°29'6333216.6
2015-Jul-29 19:10N 30°59' E 121°20'63431675.6
2015-Jul-29 19:09N 23°04' E 113°29'6331074.5
2015-Jul-29 18:33N 30°59' E 121°20'39326.5
2015-Jul-29 18:26N 31°38' E 121°17'6612266.0
2015-Jul-29 18:09N 23°04' E 113°29'6371080.1
2015-Jul-29 17:33N 30°60' E 121°24'63760314.7
2015-Jul-29 17:33N 23°04' E 113°29'317.4
2015-Jul-29 17:23N 23°02' E 113°31'6623479.6
2015-Jul-29 17:11N 31°38' E 121°17'66126146.0
2015-Jul-29 17:10N 23°04' E 113°29'6411056.6
2015-Jul-29 16:33N 31°01' E 121°29'64114691.1
2015-Jul-29 16:31N 23°04' E 113°29'0 9.2
2015-Jul-29 16:30N 23°04' E 113°29'3174.6
2015-Jul-29 16:29N 23°02' E 113°31'663672.9
2015-Jul-29 15:30N 31°56' E 120°54'66345899.0
2015-Jul-29 15:29N 23°02' E 113°31'326.3
2015-Jul-29 15:22N 23°04' E 113°29'0 0.2
2015-Jul-29 14:33N 23°04' E 113°29'348.0
2015-Jul-29 14:29N 23°02' E 113°31'329.3
2015-Jul-29 14:22N 23°04' E 113°29'6502810.5
2015-Jul-29 14:08N 31°13' E 121°30'6561093.5
2015-Jul-29 13:32N 23°03' E 113°19'65819572.9
2015-Jul-29 13:30N 31°15' E 121°30'651260523.2
2015-Jul-29 13:30N 23°04' E 113°29'6612937.6
2015-Jul-29 13:16N 31°38' E 121°17'662216527.6
2015-Jul-29 13:16N 23°02' E 113°31'6614878.5
2015-Jul-29 13:08N 31°35' E 121°21'1 2.5
2015-Jul-29 12:33N 31°35' E 121°23'66536263.9
2015-Jul-29 12:32N 23°04' E 113°25'4155.3
2015-Jul-29 12:31N 23°04' E 113°29'0 9.0
2015-Jul-29 12:30N 23°04' E 113°29'65546262.3
2015-Jul-29 12:29N 31°18' E 121°34'661158594.7
2015-Jul-29 12:29N 23°02' E 113°23'85890.9
2015-Jul-29 12:29N 23°02' E 113°31'6627489.0
2015-Jul-29 12:23N 31°38' E 121°17'87378.2
2015-Jul-29 12:10N 30°27' E 122°16'6461048.1
2015-Jul-29 11:33N 23°04' E 113°30'66224064.2
2015-Jul-29 11:31N 31°36' E 121°22'775056.3
2015-Jul-29 11:30N 30°32' E 122°14'606587.8
2015-Jul-29 11:29N 31°21' E 121°32'21245.9
2015-Jul-29 11:24N 31°38' E 121°17'66111276.5
2015-Jul-29 11:21N 23°04' E 113°29'0 5.4
2015-Jul-29 11:19N 23°04' E 113°29'1 0.8
2015-Jul-29 10:33N 23°04' E 113°30'65330916.0
2015-Jul-29 10:32N 30°39' E 122°14'714354.9
2015-Jul-29 10:31N 31°36' E 121°22'662198598.3
2015-Jul-29 10:31N 23°04' E 113°29'010.4
2015-Jul-29 10:30N 23°04' E 113°29'340.3
2015-Jul-29 10:25N 23°02' E 113°31'66250673.4
2015-Jul-29 10:24N 31°38' E 121°17'7 7.7
2015-Jul-29 09:33N 31°36' E 121°25'664119497.6
2015-Jul-29 09:33N 23°04' E 113°30'65894782.8
2015-Jul-29 09:33N 31°24' E 121°32'65822791.3
2015-Jul-29 09:31N 23°04' E 113°29'6914.8
2015-Jul-29 09:30N 22°59' E 113°33'66023758.1
2015-Jul-29 09:29N 30°48' E 122°13'65934864.9
2015-Jul-29 09:28N 23°02' E 113°31'9874835.5
2015-Jul-29 09:15N 39°04' E 117°50'4773181.5
2015-Jul-29 09:06N 31°38' E 121°17'62113.1
2015-Jul-29 08:34N 30°56' E 122°11'623093.4
2015-Jul-29 08:32N 31°38' E 121°17'661108110.4
2015-Jul-29 08:32N 23°04' E 113°30'3176.3
2015-Jul-29 08:31N 23°02' E 113°31'65967817.8
2015-Jul-29 08:30N 31°27' E 121°27'6594604.7
2015-Jul-29 08:22N 23°04' E 113°29'1 0.8
2015-Jul-29 07:33N 23°04' E 113°30'662476790.3
2015-Jul-29 07:33N 31°03' E 122°03'6631192501.0
2015-Jul-29 07:33N 23°04' E 113°29'6581184706.9
2015-Jul-29 07:33N 31°30' E 121°23'65920444.8
2015-Jul-29 07:31N 23°02' E 113°31'6628987.4
2015-Jul-29 07:27N 31°38' E 121°17'6618406.7
2015-Jul-29 07:22N 23°04' E 113°29'64139789.2
2015-Jul-29 07:21N 31°02' E 121°29'6434487.0
2015-Jul-29 07:12N 22°59' E 113°33'9907015.2
2015-Jul-29 07:04N 39°05' E 117°46'10021802904.8
2015-Jul-29 07:04N 22°30' E 120°06'3691328137.0
2015-Jul-29 07:04N 22°55' E 113°27'373732.4
2015-Jul-29 06:33N 22°32' E 120°11'52567477.8
2015-Jul-29 06:33N 31°09' E 121°52'215894.2
2015-Jul-29 06:32N 31°02' E 121°29'3323425.1
2015-Jul-29 06:32N 31°33' E 121°19'53274.9
2015-Jul-29 06:32N 31°38' E 121°17'3131.2
2015-Jul-29 05:33N 31°17' E 121°44'2071424.8
2015-Jul-29 05:33N 31°02' E 121°29'362465.3
2015-Jul-29 05:32N 31°37' E 121°16'5469725.9
2015-Jul-29 05:29N 22°33' E 120°19'54725229.6
2015-Jul-29 05:28N 31°38' E 121°18'2122.8
2015-Jul-29 04:33N 31°23' E 121°35'5416082.3
2015-Jul-29 04:33N 32°00' E 120°49'6834954.3
2015-Jul-29 04:33N 31°01' E 121°29'40759.8
2015-Jul-29 04:30N 31°39' E 121°13'428.6
2015-Jul-29 04:22N 31°38' E 121°17'3947.7
2015-Jul-29 03:33N 30°59' E 121°23'291899.3
2015-Jul-29 03:32N 31°28' E 121°26'12266.8
2015-Jul-29 03:29N 31°38' E 121°18'6883868.0
2015-Jul-29 03:19N 22°20' E 113°46'47169809.7
2015-Jul-29 03:19N 23°04' E 113°29'7111610.1
2015-Jul-29 03:18N 21°55' E 113°13'7256748.1
2015-Jul-29 03:12N 31°53' E 120°54'6625662.3
2015-Jul-29 03:05N 22°59' E 113°33'6611265.8
2015-Jul-29 02:34N 31°33' E 121°19'687274831.6
2015-Jul-29 02:33N 22°16' E 113°48'3946899.2
2015-Jul-29 02:33N 21°55' E 113°13'1056380237.2
2015-Jul-29 02:33N 39°04' E 117°49'98590942.8
2015-Jul-29 02:33N 23°04' E 113°29'010.8
2015-Jul-29 02:31N 23°04' E 113°29'632126440.4
2015-Jul-29 02:31N 30°58' E 121°18'632325123.7
2015-Jul-29 02:31N 23°04' E 113°29'0 8.9
2015-Jul-29 02:29N 23°04' E 113°29'9857848.1
2015-Jul-29 02:22N 39°04' E 117°50'4625636.7
2015-Jul-29 02:17N 31°48' E 120°56'1913944.6
2015-Jul-29 02:17N 32°03' E 120°42'39465.4
2015-Jul-29 02:12N 31°38' E 121°18'293412.2
2015-Jul-29 02:11N 31°23' E 121°47'6671062.9
2015-Jul-29 01:34N 23°04' E 113°29'6292264753.3
2015-Jul-29 01:33N 30°58' E 121°14'693249479.3
2015-Jul-29 01:33N 21°55' E 113°13'7251304609.6
2015-Jul-29 01:33N 31°40' E 121°12'111564.9
2015-Jul-29 01:33N 31°46' E 121°00'4813362.8
2015-Jul-29 01:33N 31°18' E 121°47'715799.1
2015-Jul-29 01:32N 32°03' E 120°42'66159516.1
2015-Jul-29 01:31N 23°04' E 113°29'022.9
2015-Jul-29 01:31N 23°04' E 113°29'66543501.4
2015-Jul-29 01:30N 31°36' E 121°27'82025.9
2015-Jul-29 01:30N 31°38' E 121°18'66195174.8
2015-Jul-29 01:29N 23°04' E 113°29'9852673.2
2015-Jul-29 01:07N 39°04' E 117°50'465821.8
2015-Jul-29 00:33N 31°46' E 121°01'659790290.9
2015-Jul-29 00:33N 23°04' E 113°29'627107495.3
2015-Jul-29 00:33N 30°60' E 121°08'3716727.0
2015-Jul-29 00:33N 31°14' E 121°48'727124565.3
2015-Jul-29 00:32N 21°53' E 113°11'7352400.9
2015-Jul-29 00:32N 23°04' E 113°29'0 9.7
2015-Jul-29 00:31N 23°04' E 113°29'66134985.0
2015-Jul-29 00:30N 31°38' E 121°18'172409.4
2015-Jul-29 00:29N 31°46' E 121°00'65738175.6
2015-Jul-29 00:28N 23°04' E 113°29'66215469.6
2015-Jul-29 00:26N 31°56' E 120°53'43145.4
2015-Jul-29 00:08N 31°58' E 120°03'4374.6
2015-Jul-28 23:34N 31°54' E 120°53'252558.6
2015-Jul-28 23:33N 32°01' E 120°24'65190106.4
2015-Jul-28 23:33N 23°04' E 113°29'65751450.6
2015-Jul-28 23:32N 31°46' E 121°00'441325.8
2015-Jul-28 23:30N 31°01' E 120°60'39467.8
2015-Jul-28 23:25N 31°38' E 121°18'271113.2
2015-Jul-28 23:23N 31°56' E 120°54'401805.4
2015-Jul-28 23:22N 31°58' E 120°06'639383564.2
2015-Jul-28 23:22N 23°04' E 113°29'0 3.7
2015-Jul-28 23:19N 23°04' E 113°29'66121255.6
2015-Jul-28 23:17N 32°03' E 120°42'6613279.1
2015-Jul-28 23:05N 23°04' E 113°29'6541236.0
2015-Jul-28 22:34N 32°02' E 120°28'135747.1
2015-Jul-28 22:33N 32°01' E 120°43'66119658.9
2015-Jul-28 22:31N 23°04' E 113°29'657197227.9
2015-Jul-28 22:31N 31°46' E 121°00'235925.6
2015-Jul-28 22:31N 32°03' E 120°42'12136.2
2015-Jul-28 22:26N 31°56' E 120°54'27833.9
2015-Jul-28 22:24N 31°38' E 121°18'68127854.2
2015-Jul-28 22:22N 22°11' E 114°14'6710501.4
2015-Jul-28 22:22N 23°04' E 113°29'010.1
2015-Jul-28 22:20N 23°04' E 113°29'641115391.5
2015-Jul-28 22:20N 31°57' E 120°11'641828.5
2015-Jul-28 21:34N 23°04' E 113°29'64364265.9
2015-Jul-28 21:33N 31°57' E 120°15'64322909.1
2015-Jul-28 21:31N 23°04' E 113°29'656214669.6
2015-Jul-28 21:31N 32°01' E 120°33'284160.8
2015-Jul-28 21:31N 31°46' E 121°00'231152.2
2015-Jul-28 21:29N 32°03' E 120°42'393073.9
2015-Jul-28 21:29N 31°38' E 121°18'26440.4
2015-Jul-28 21:25N 31°54' E 120°54'6616327.6
2015-Jul-28 21:19N 23°04' E 113°29'0 1.4
2015-Jul-28 21:08N 23°04' E 113°29'0 0.5
2015-Jul-28 20:33N 23°04' E 113°29'64817397.2
2015-Jul-28 20:31N 31°59' E 120°20'54389.8
2015-Jul-28 20:23N 31°38' E 121°18'66145752.0
2015-Jul-28 20:22N 23°04' E 113°29'0 9.3
2015-Jul-28 20:20N 23°04' E 113°29'6589041.5
2015-Jul-28 20:16N 32°00' E 120°39'1938.3
2015-Jul-28 20:16N 31°60' E 120°39'231566.7
2015-Jul-28 20:15N 31°46' E 121°00'125189.9
2015-Jul-28 20:15N 31°56' E 120°54'12177.0
2015-Jul-28 20:11N 32°03' E 120°42'6611065.1
2015-Jul-28 19:33N 23°04' E 113°29'660182813.6
2015-Jul-28 19:33N 32°01' E 120°43'71408.7
2015-Jul-28 19:33N 32°02' E 120°35'67580.5
2015-Jul-28 19:33N 32°03' E 120°42'66123570.7
2015-Jul-28 19:31N 23°04' E 113°29'66115652.7
2015-Jul-28 19:29N 31°38' E 121°18'271420.2
2015-Jul-28 19:28N 31°56' E 120°54'6626924.8
2015-Jul-28 19:22N 23°04' E 113°29'0 9.1
2015-Jul-28 19:20N 23°04' E 113°29'6574448.9
2015-Jul-28 19:11N 31°46' E 121°00'6571040.7
2015-Jul-28 18:33N 23°04' E 113°29'66366296.3
2015-Jul-28 18:33N 32°01' E 120°48'7555.0
2015-Jul-28 18:32N 31°56' E 120°54'115171.6
2015-Jul-28 18:32N 31°46' E 121°00'65712789.1
2015-Jul-28 18:29N 23°04' E 113°30'661148651.6
2015-Jul-28 18:29N 31°38' E 121°18'501327.5
2015-Jul-28 18:26N 32°04' E 120°28'6558485.3
2015-Jul-28 18:22N 23°04' E 113°29'65543687.7
2015-Jul-28 18:21N 32°02' E 120°31'65523359.2
2015-Jul-28 18:19N 23°04' E 113°29'6615863.2
2015-Jul-28 18:12N 32°03' E 120°42'6611018.5
2015-Jul-28 17:34N 23°04' E 113°29'661264590.8
2015-Jul-28 17:33N 31°56' E 120°52'11265.4
2015-Jul-28 17:31N 32°03' E 120°42'392020.4
2015-Jul-28 17:30N 31°38' E 121°18'271549.8
2015-Jul-28 17:29N 31°56' E 120°54'66214791.8
2015-Jul-28 17:26N 23°04' E 113°30'65038377.7
2015-Jul-28 17:25N 32°01' E 120°23'121372.4
2015-Jul-28 17:24N 32°00' E 120°37'65715065.6
2015-Jul-28 17:22N 23°04' E 113°29'0 3.8
2015-Jul-28 17:19N 23°04' E 113°29'54905.6
2015-Jul-28 17:16N 22°10' E 113°31'5577.1
2015-Jul-28 16:33N 23°04' E 113°29'660113160.3
2015-Jul-28 16:33N 32°01' E 120°43'70347727.0
2015-Jul-28 16:32N 22°11' E 113°34'702168372.6
2015-Jul-28 16:32N 31°38' E 121°18'66146651.4
2015-Jul-28 16:31N 23°04' E 113°29'658182121.9
2015-Jul-28 16:31N 31°50' E 120°55'6125.5
2015-Jul-28 16:28N 31°56' E 120°54'121417.3
2015-Jul-28 16:27N 32°03' E 120°42'228.9
2015-Jul-28 16:23N 32°01' E 120°43'6619867.3
2015-Jul-28 16:19N 23°04' E 113°29'6574181.3
2015-Jul-28 16:10N 31°46' E 121°00'6571084.1
2015-Jul-28 15:34N 23°04' E 113°29'5717042.4
2015-Jul-28 15:33N 22°08' E 113°39'571776.6
2015-Jul-28 15:31N 23°04' E 113°29'6615933.1
2015-Jul-28 15:25N 31°38' E 121°17'30270.0
2015-Jul-28 15:18N 31°58' E 120°51'12126.5
2015-Jul-28 15:12N 31°47' E 120°56'187268.8
2015-Jul-28 15:12N 32°01' E 120°43'235621.9
2015-Jul-28 15:12N 31°46' E 121°04'7001088.4
2015-Jul-28 14:33N 22°06' E 113°45'6024019.4
2015-Jul-28 14:33N 23°04' E 113°29'0 1.9
2015-Jul-28 14:31N 23°04' E 113°29'66027638.4
2015-Jul-28 14:29N 31°54' E 120°53'1110209.3
2015-Jul-28 14:29N 32°01' E 120°43'141790.2
2015-Jul-28 14:29N 31°50' E 120°54'16349.6
2015-Jul-28 14:26N 31°42' E 121°09'66813512.8
2015-Jul-28 14:23N 22°54' E 113°28'6696147.0
2015-Jul-28 14:17N 31°38' E 121°17'66114414.9
2015-Jul-28 14:14N 23°04' E 113°30'1 3.1
2015-Jul-28 14:04N 23°04' E 113°29'6601278.1
2015-Jul-28 13:33N 31°38' E 121°15'66098991.6
2015-Jul-28 13:33N 23°04' E 113°29'0 2.3
2015-Jul-28 13:31N 23°04' E 113°29'1 7.9
2015-Jul-28 13:26N 23°04' E 113°30'1047.0
2015-Jul-28 13:14N 23°03' E 113°19'957.9
2015-Jul-28 13:04N 23°04' E 113°29'0 0.4
2015-Jul-28 12:33N 23°04' E 113°29'71239.1
2015-Jul-28 12:33N 23°02' E 113°22'665170874.8
2015-Jul-28 12:33N 31°33' E 121°21'65928244.8
2015-Jul-28 12:31N 23°04' E 113°29'0 1.0
2015-Jul-28 12:22N 23°04' E 113°29'73852.5
2015-Jul-28 12:17N 21°53' E 113°11'6975728.6
2015-Jul-28 12:09N 30°58' E 121°17'6331045.6
2015-Jul-28 11:33N 23°04' E 113°26'3198.7
2015-Jul-28 11:32N 23°04' E 113°29'0 3.5
2015-Jul-28 11:28N 23°04' E 113°29'66026683.6
2015-Jul-28 11:27N 31°28' E 121°28'65920290.8
2015-Jul-28 11:25N 23°04' E 113°30'1 6.9
2015-Jul-28 11:19N 23°04' E 113°29'66112586.6
2015-Jul-28 11:16N 31°38' E 121°18'6634053.5
2015-Jul-28 11:06N 22°59' E 113°33'6338.8
2015-Jul-28 11:05N 23°04' E 113°29'6611271.4
2015-Jul-28 10:34N 32°00' E 120°45'663216871.5
2015-Jul-28 10:33N 23°01' E 113°31'62138.0
2015-Jul-28 10:33N 23°04' E 113°25'66135497.1
2015-Jul-28 10:32N 31°24' E 121°31'65814103.8
2015-Jul-28 10:29N 23°03' E 113°30'123.3
2015-Jul-28 10:27N 23°04' E 113°30'65710156.1
2015-Jul-28 10:24N 31°45' E 121°01'65722329.1
2015-Jul-28 10:22N 23°04' E 113°29'6616482.2
2015-Jul-28 10:16N 31°38' E 121°18'661931.5
2015-Jul-28 09:33N 23°04' E 113°29'0 0.2
2015-Jul-28 09:31N 23°04' E 113°29'101728.5
2015-Jul-28 09:30N 22°54' E 113°28'8164.0
2015-Jul-28 09:28N 23°01' E 113°31'65639378.2
2015-Jul-28 09:27N 31°17' E 121°34'65518564.0
2015-Jul-28 09:25N 23°04' E 113°30'6613997.4
2015-Jul-28 09:15N 31°38' E 121°18'6906857.6
2015-Jul-28 09:09N 22°18' E 113°45'481957.0
2015-Jul-28 09:07N 23°04' E 113°29'0 0.2
2015-Jul-28 08:33N 23°04' E 113°29'66152867.4
2015-Jul-28 08:33N 31°38' E 121°18'6618558.4
2015-Jul-28 08:28N 23°04' E 113°29'0 0.9
2015-Jul-28 08:19N 23°04' E 113°29'110.7
2015-Jul-28 08:15N 23°04' E 113°30'9851405.4
2015-Jul-28 07:33N 39°05' E 117°45'1032742829.9
2015-Jul-28 07:33N 22°13' E 113°48'5414881.5
2015-Jul-28 07:33N 23°04' E 113°29'66127988.8
2015-Jul-28 07:32N 31°38' E 121°18'66162611.1
2015-Jul-28 07:31N 23°04' E 113°29'040.2
2015-Jul-28 07:31N 23°04' E 113°29'111.7
2015-Jul-28 07:27N 23°04' E 113°30'6438413.5
2015-Jul-28 07:23N 31°05' E 121°28'36133344.8
2015-Jul-28 07:22N 37°02' E 122°33'9631186.4
2015-Jul-28 06:34N 23°01' E 113°31'0249.4
2015-Jul-28 06:33N 23°01' E 113°31'5464676.5
2015-Jul-28 06:33N 22°10' E 113°48'670268169.4
2015-Jul-28 06:33N 31°00' E 121°27'514205610.9
2015-Jul-28 06:33N 39°03' E 117°52'41209.7
2015-Jul-28 06:33N 39°05' E 117°47'98527932.2
2015-Jul-28 06:31N 23°04' E 113°29'661339849.7
2015-Jul-28 06:31N 31°38' E 121°18'3318103.1
2015-Jul-28 06:28N 37°02' E 122°33'962314694.8
2015-Jul-28 06:28N 23°04' E 113°29'65715458.9
2015-Jul-28 06:25N 32°00' E 120°37'557.5
2015-Jul-28 06:20N 32°01' E 120°43'662847.6
2015-Jul-28 05:33N 23°01' E 113°31'9881185050.7
2015-Jul-28 05:33N 39°04' E 117°46'103593146.8
2015-Jul-28 05:33N 22°10' E 113°48'69513744.2
2015-Jul-28 05:30N 31°38' E 121°18'66831640.7
2015-Jul-28 05:28N 22°54' E 113°31'9245.5
2015-Jul-28 05:26N 23°03' E 113°30'63915971.2
2015-Jul-28 05:24N 31°00' E 121°27'63818098.9
2015-Jul-28 05:22N 23°04' E 113°29'0 4.0
2015-Jul-28 05:19N 23°04' E 113°29'0 0.4
2015-Jul-28 05:07N 23°04' E 113°29'6601179.2
2015-Jul-28 04:33N 32°01' E 120°43'697147567.4
2015-Jul-28 04:33N 22°10' E 113°48'1035745175.0
2015-Jul-28 04:33N 39°04' E 117°47'98526076.8
2015-Jul-28 04:31N 23°04' E 113°29'661339878.8
2015-Jul-28 04:31N 31°38' E 121°18'382275.4
2015-Jul-28 04:30N 31°00' E 121°27'64016331.0
2015-Jul-28 04:27N 23°01' E 113°31'6644388.7
2015-Jul-28 04:18N 32°00' E 120°49'6638523.3
2015-Jul-28 04:14N 23°04' E 113°29'9616136.9
2015-Jul-28 04:04N 37°02' E 122°33'9631866.4
2015-Jul-28 03:33N 23°01' E 113°31'379.8
2015-Jul-28 03:31N 23°04' E 113°29'10589.9
2015-Jul-28 03:30N 22°54' E 113°28'669401583.0
2015-Jul-28 03:30N 31°38' E 121°18'381569.5
2015-Jul-28 03:28N 31°00' E 121°27'670603373.6
2015-Jul-28 03:28N 22°10' E 113°48'571337.5
2015-Jul-28 03:26N 23°04' E 113°29'6612498.4
2015-Jul-28 03:10N 31°55' E 120°53'6621084.0
2015-Jul-28 02:33N 23°01' E 113°31'66211742.2
2015-Jul-28 02:30N 31°38' E 121°18'385688.5
2015-Jul-28 02:29N 31°00' E 121°27'5171993.4
2015-Jul-28 02:14N 39°05' E 117°46'517765.1
2015-Jul-28 01:33N 31°00' E 121°27'355239.1
2015-Jul-28 01:33N 31°35' E 121°19'48239452.7
2015-Jul-28 01:32N 39°05' E 117°46'98929436.4
2015-Jul-28 01:30N 22°60' E 113°31'46570.9
2015-Jul-28 01:25N 22°17' E 113°49'68926090.7
2015-Jul-28 01:24N 31°38' E 121°18'66136042.8
2015-Jul-28 01:23N 23°04' E 113°29'0 4.5
2015-Jul-28 01:22N 23°04' E 113°29'3230.5
2015-Jul-28 01:21N 23°01' E 113°31'662831.8
2015-Jul-28 00:33N 31°37' E 121°18'66291680.3
2015-Jul-28 00:33N 23°00' E 113°32'98986796.3
2015-Jul-28 00:32N 39°04' E 117°51'98546668.1
2015-Jul-28 00:31N 23°04' E 113°29'66134478.5
2015-Jul-28 00:30N 31°38' E 121°18'383900.5
2015-Jul-28 00:29N 31°00' E 121°27'63918245.9
2015-Jul-28 00:27N 23°02' E 113°32'9625963.6
2015-Jul-28 00:17N 37°03' E 122°33'96215523.3
2015-Jul-28 00:14N 23°04' E 113°29'660973.3
2015-Jul-27 23:33N 31°37' E 121°18'371417.3
2015-Jul-27 23:31N 31°00' E 121°27'63974149.1
2015-Jul-27 23:31N 23°04' E 113°29'344.4
2015-Jul-27 23:26N 23°02' E 113°32'66114691.1
2015-Jul-27 23:24N 31°38' E 121°18'66364515.1
2015-Jul-27 23:23N 22°59' E 113°33'50598.1
2015-Jul-27 23:18N 22°09' E 113°30'55730.2
2015-Jul-27 23:14N 23°04' E 113°29'5479.6
2015-Jul-27 22:33N 22°11' E 113°34'70138247.9
2015-Jul-27 22:32N 31°37' E 121°18'142.3
2015-Jul-27 22:31N 31°38' E 121°18'18201.9
2015-Jul-27 22:25N 31°23' E 121°30'56318600.2
2015-Jul-27 22:24N 23°02' E 116°40'1766155.8
2015-Jul-27 22:22N 23°04' E 113°29'675.1
2015-Jul-27 22:17N 22°59' E 113°33'663915.5
2015-Jul-27 21:33N 31°37' E 121°18'66119822.9
2015-Jul-27 21:31N 23°02' E 113°32'3608.3
2015-Jul-27 21:31N 23°04' E 113°29'083.7
2015-Jul-27 21:31N 23°04' E 113°29'661339854.7
2015-Jul-27 21:31N 31°38' E 121°18'656734.1
2015-Jul-27 21:30N 31°58' E 120°04'9121760.8
2015-Jul-27 21:30N 31°00' E 121°27'64032938.1
2015-Jul-27 21:29N 22°59' E 113°33'6123.4
2015-Jul-27 21:26N 23°04' E 113°29'12685.0
2015-Jul-27 21:25N 22°54' E 113°35'6181949.5
2015-Jul-27 21:06N 31°00' E 120°45'4686.7
2015-Jul-27 20:34N 31°37' E 121°18'560252099.6
2015-Jul-27 20:33N 23°10' E 116°49'531637636.2
2015-Jul-27 20:33N 31°00' E 121°27'38852.9
2015-Jul-27 20:31N 31°38' E 121°18'621454.2
2015-Jul-27 20:28N 31°57' E 120°08'6406936.2
2015-Jul-27 20:23N 23°04' E 113°29'63217.0
2015-Jul-27 20:22N 22°59' E 113°33'6572.7
2015-Jul-27 20:22N 23°04' E 113°29'61628440.6
2015-Jul-27 20:21N 31°01' E 120°48'6168339.3
2015-Jul-27 20:16N 23°04' E 113°29'189265.8
2015-Jul-27 19:33N 23°14' E 116°54'555249638.5
2015-Jul-27 19:33N 31°37' E 121°18'3719032.0
2015-Jul-27 19:33N 31°00' E 121°27'63815636.6
2015-Jul-27 19:31N 23°04' E 113°29'6150.8
2015-Jul-27 19:28N 22°59' E 113°33'64417436.9
2015-Jul-27 19:26N 31°57' E 120°12'64172159.2
2015-Jul-27 19:26N 23°04' E 113°29'66147575.8
2015-Jul-27 19:25N 31°38' E 121°18'66174373.5
2015-Jul-27 19:24N 23°02' E 113°32'661780.2
2015-Jul-27 18:33N 31°37' E 121°18'372718.9
2015-Jul-27 18:33N 31°00' E 121°27'63825537.5
2015-Jul-27 18:31N 23°04' E 113°29'083.0
2015-Jul-27 18:31N 23°04' E 113°29'3174.6
2015-Jul-27 18:30N 23°02' E 113°32'64128494.7
2015-Jul-27 18:28N 31°02' E 121°29'64113900.3
2015-Jul-27 18:26N 23°04' E 113°29'64426637.2
2015-Jul-27 18:24N 31°57' E 120°16'64620415.7
2015-Jul-27 18:22N 22°59' E 113°33'6634173.4
2015-Jul-27 18:13N 31°38' E 121°18'1 1.4
2015-Jul-27 17:33N 31°37' E 121°18'373249.4
2015-Jul-27 17:32N 31°00' E 121°27'21976.4
2015-Jul-27 17:32N 30°60' E 121°24'63631384.0
2015-Jul-27 17:31N 23°04' E 113°29'073.7
2015-Jul-27 17:31N 23°04' E 113°29'661793033.8
2015-Jul-27 17:31N 31°38' E 121°18'66124537.0
2015-Jul-27 17:29N 23°02' E 113°32'355.1
2015-Jul-27 17:26N 23°04' E 113°29'6266171.5
2015-Jul-27 17:19N 31°02' E 121°03'579042714.8
2015-Jul-27 17:11N 37°47' W 122°16'6489292011.3
2015-Jul-27 17:10N 22°59' E 113°33'6519975.8
2015-Jul-27 17:06N 31°60' E 120°21'5496.4
2015-Jul-27 16:33N 31°37' E 121°18'371464.7
2015-Jul-27 16:31N 31°00' E 121°27'638191529.6
2015-Jul-27 16:31N 23°04' E 113°29'661103436.0
2015-Jul-27 16:31N 31°38' E 121°18'5755243755.5
2015-Jul-27 16:29N 37°47' W 122°16'6489292011.3
2015-Jul-27 16:28N 22°59' E 113°33'6158.8
2015-Jul-27 16:26N 23°04' E 113°29'63113768.2
2015-Jul-27 16:23N 30°58' E 121°17'631108212.8
2015-Jul-27 16:22N 23°02' E 113°32'3283.2
2015-Jul-27 16:22N 23°04' E 113°29'591388.5
2015-Jul-27 16:19N 22°10' E 113°53'6574649.5
2015-Jul-27 16:11N 31°01' E 121°07'509793.6
2015-Jul-27 15:32N 22°33' E 120°17'6161124602.9
2015-Jul-27 15:29N 37°47' W 122°16'6488324421.8
2015-Jul-27 15:28N 23°04' E 113°29'61013.6
2015-Jul-27 15:28N 22°59' E 113°33'66316684.1
2015-Jul-27 15:25N 31°37' E 121°18'1140.9
2015-Jul-27 15:25N 31°38' E 121°17'38773.2
2015-Jul-27 15:22N 31°00' E 121°27'35742834.4
2015-Jul-27 15:21N 36°54' E 122°25'977319645.8
2015-Jul-27 15:21N 22°24' E 113°54'67712691.7
2015-Jul-27 15:18N 31°11' E 121°50'391007.6
2015-Jul-27 15:16N 31°00' E 121°07'6276234.3
2015-Jul-27 15:10N 23°04' E 113°29'6601091.2
2015-Jul-27 14:33N 31°37' E 121°18'324999.2
2015-Jul-27 14:33N 31°16' E 121°46'66195187.9
2015-Jul-27 14:33N 23°02' E 113°32'3108.6
2015-Jul-27 14:31N 23°04' E 113°29'6113.2
2015-Jul-27 14:28N 22°59' E 113°33'954180777.6
2015-Jul-27 14:27N 36°54' E 122°25'3571720.3
2015-Jul-27 14:15N 31°00' E 121°27'381112.6
2015-Jul-27 14:13N 31°38' E 121°17'6631013.2
2015-Jul-27 13:33N 22°59' E 113°33'954202045.5
2015-Jul-27 13:33N 36°54' E 122°25'335150867.3
2015-Jul-27 13:33N 31°20' E 121°48'3054491.0
2015-Jul-27 13:33N 31°37' E 121°18'5755505360.2
2015-Jul-27 13:32N 37°47' W 122°16'57881894286.1
2015-Jul-27 13:32N 31°01' E 121°07'62727524.3
2015-Jul-27 13:31N 23°04' E 113°29'661793046.6
2015-Jul-27 13:31N 31°38' E 121°17'385264.3
2015-Jul-27 13:30N 31°00' E 121°27'6388121.8
2015-Jul-27 13:26N 23°04' E 113°29'0 1.1
2015-Jul-27 13:03N 23°04' E 113°29'611.9
2015-Jul-27 12:33N 22°59' E 113°33'66340440.2
2015-Jul-27 12:32N 31°37' E 121°18'519311150.7
2015-Jul-27 12:32N 23°38' E 117°34'22748093.0
2015-Jul-27 12:32N 23°04' E 113°29'014.2
2015-Jul-27 12:31N 23°04' E 113°29'1594.4
2015-Jul-27 12:21N 22°51' E 113°35'6465119.5
2015-Jul-27 12:14N 31°00' E 121°27'638164175.5
2015-Jul-27 12:14N 23°04' E 113°29'66113751.4
2015-Jul-27 12:11N 31°38' E 121°17'6631064.3
2015-Jul-27 11:33N 22°59' E 113°33'663140338.6
2015-Jul-27 11:33N 31°37' E 121°18'515463072.5
2015-Jul-27 11:33N 23°41' E 117°38'22941284.2
2015-Jul-27 11:33N 22°56' E 113°33'3281.0
2015-Jul-27 11:32N 22°56' E 113°30'6677504.0
2015-Jul-27 11:27N 31°38' E 121°18'66121441.0
2015-Jul-27 11:25N 23°02' E 113°32'386.0
2015-Jul-27 11:23N 23°04' E 113°29'0 4.0
2015-Jul-27 11:22N 23°04' E 113°29'12161.9
2015-Jul-27 11:17N 22°53' E 113°31'6463370.2
2015-Jul-27 11:06N 31°00' E 121°27'1731.1
2015-Jul-27 10:33N 31°01' E 121°07'629754866.9
2015-Jul-27 10:33N 22°59' E 113°33'6632385863.4
2015-Jul-27 10:33N 31°37' E 121°18'51083447.8
2015-Jul-27 10:33N 23°44' E 117°42'5117351.8
2015-Jul-27 10:29N 31°38' E 121°18'3817062.1
2015-Jul-27 10:29N 31°00' E 121°27'6386349.6
2015-Jul-27 10:23N 23°04' E 113°29'65951584.7
2015-Jul-27 10:22N 31°41' E 121°10'65910890.1
2015-Jul-27 10:18N 23°02' E 113°32'322.8
2015-Jul-27 10:10N 23°04' E 113°29'240395.8
2015-Jul-27 09:33N 23°47' E 117°46'23877791.6
2015-Jul-27 09:33N 22°59' E 113°33'62229.2
2015-Jul-27 09:33N 23°05' E 113°34'65743810.1
2015-Jul-27 09:32N 31°37' E 121°18'65556163.0
2015-Jul-27 09:31N 23°06' E 113°36'622279722.5
2015-Jul-27 09:31N 31°01' E 121°07'62766385.7
2015-Jul-27 09:31N 23°04' E 113°29'244.1
2015-Jul-27 09:28N 23°05' E 113°27'662396957.0
2015-Jul-27 09:28N 31°38' E 121°18'6612808.5
2015-Jul-27 09:14N 23°04' E 113°29'6594802.6
2015-Jul-27 09:05N 31°37' E 121°15'3 4.9
2015-Jul-27 08:33N 31°35' E 121°17'2268.2
2015-Jul-27 08:33N 31°37' E 121°18'501225333.4
2015-Jul-27 08:33N 23°51' E 117°50'470141102.9
2015-Jul-27 08:32N 31°00' E 121°26'635571427.9
2015-Jul-27 08:32N 23°05' E 113°34'624320675.6
2015-Jul-27 08:32N 31°01' E 121°07'62724803.3
2015-Jul-27 08:31N 23°04' E 113°29'380.6
2015-Jul-27 08:29N 23°03' E 113°32'4176.6
2015-Jul-27 08:27N 22°59' E 113°33'4412172.3
2015-Jul-27 08:27N 22°17' E 113°47'6902264.9
2015-Jul-27 08:09N 31°38' E 121°18'4068.0
2015-Jul-27 07:34N 30°58' E 121°09'3946994.5
2015-Jul-27 07:33N 31°37' E 121°18'663119293.2
2015-Jul-27 07:33N 22°59' E 113°33'71165.6
2015-Jul-27 07:33N 23°05' E 113°27'621494.7
2015-Jul-27 07:33N 23°05' E 113°34'63565306.5
2015-Jul-27 07:32N 31°00' E 121°26'38417.3
2015-Jul-27 07:27N 31°38' E 121°18'6679607.4
2015-Jul-27 07:23N 23°03' E 113°19'968.9
2015-Jul-27 07:15N 23°04' E 113°29'0 0.9
2015-Jul-27 07:10N 23°04' E 113°29'6 9.7
2015-Jul-27 06:34N 23°02' E 113°23'644105332.5
2015-Jul-27 06:33N 31°00' E 121°26'644193289.0
2015-Jul-27 06:33N 23°02' E 113°22'667159967.1
2015-Jul-27 06:33N 31°38' E 121°18'1568.3
2015-Jul-27 06:33N 31°37' E 121°18'65725714.5
2015-Jul-27 06:31N 23°05' E 113°34'5908.6
2015-Jul-27 06:31N 23°04' E 113°29'368.5
2015-Jul-27 06:28N 23°02' E 113°32'327.3
2015-Jul-27 06:21N 22°59' E 113°33'99011491.4
2015-Jul-27 06:16N 39°04' E 117°48'563832578.0
2015-Jul-27 06:05N 37°47' W 122°16'649012206.5
2015-Jul-27 05:34N 23°05' E 113°27'63182.5
2015-Jul-27 05:33N 23°05' E 113°34'635761898.6
2015-Jul-27 05:33N 31°00' E 121°26'45596254.0
2015-Jul-27 05:33N 24°04' E 118°01'48687432.4
2015-Jul-27 05:33N 31°38' E 121°18'4020595.9
2015-Jul-27 05:33N 30°58' E 121°17'63020447.1
2015-Jul-27 05:31N 23°04' E 113°29'661139871.4
2015-Jul-27 05:30N 31°37' E 121°18'66010248.4
2015-Jul-27 05:27N 23°04' E 113°29'9856757.4
2015-Jul-27 05:18N 39°04' E 117°48'479646.3
2015-Jul-27 04:33N 31°37' E 121°18'701360278.5
2015-Jul-27 04:33N 22°04' E 113°46'672302315.4
2015-Jul-27 04:33N 30°59' E 121°21'636176028.0
2015-Jul-27 04:33N 22°59' E 113°33'33842.8
2015-Jul-27 04:33N 23°02' E 113°32'639766273.0
2015-Jul-27 04:33N 31°00' E 121°26'3817060.7
2015-Jul-27 04:33N 31°38' E 121°18'66120685.4
2015-Jul-27 04:31N 23°04' E 113°29'4256.2
2015-Jul-27 04:30N 23°05' E 113°34'648426286.0
2015-Jul-27 04:15N 37°47' W 122°16'65129325.6
2015-Jul-27 03:33N 22°07' E 113°47'698125678.7
2015-Jul-27 03:33N 31°38' E 121°18'11723.7
2015-Jul-27 03:33N 31°37' E 121°18'65742245.5
2015-Jul-27 03:32N 23°05' E 113°34'5286.8
2015-Jul-27 03:31N 23°04' E 113°29'638163959.4
2015-Jul-27 03:31N 31°00' E 121°26'64374715.3
2015-Jul-27 03:30N 22°56' E 113°30'26917012.5
2015-Jul-27 03:29N 24°12' E 118°12'6202169144.2
2015-Jul-27 03:27N 37°47' W 122°16'57726926341.9
2015-Jul-27 03:27N 31°00' E 121°26'638191507.6
2015-Jul-27 03:27N 23°04' E 113°29'315.8
2015-Jul-27 03:14N 23°02' E 113°32'64889425.5
2015-Jul-27 02:33N 37°47' W 122°16'65093347575.2
2015-Jul-27 02:33N 22°06' E 113°51'697626909.3
2015-Jul-27 02:33N 31°38' E 121°18'3812411.7
2015-Jul-27 02:33N 31°00' E 121°26'372775.8
2015-Jul-27 02:32N 31°37' E 121°18'46984458.9
2015-Jul-27 02:31N 24°15' E 118°18'441113341.3
2015-Jul-27 02:31N 31°02' E 121°29'63876526.5
2015-Jul-27 02:31N 23°05' E 113°34'12527.3
2015-Jul-27 02:29N 22°55' E 113°28'10104.6
2015-Jul-27 02:24N 23°04' E 113°29'349.2
2015-Jul-27 02:20N 23°02' E 113°32'481001.6
2015-Jul-27 02:17N 22°16' E 113°48'51308.8
2015-Jul-27 02:07N 23°04' E 113°29'583312.2
2015-Jul-27 02:06N 22°08' E 113°46'6971269.1
2015-Jul-27 01:33N 31°37' E 121°18'378878.3
2015-Jul-27 01:33N 31°00' E 121°26'63928380.5
2015-Jul-27 01:31N 23°02' E 113°32'3493.6
2015-Jul-27 01:31N 23°04' E 113°29'5402.9
2015-Jul-27 01:30N 23°05' E 113°34'5336.6
2015-Jul-27 01:29N 23°04' E 113°29'66115447.3
2015-Jul-27 01:27N 31°38' E 121°18'311727.9
2015-Jul-27 01:26N 31°08' E 121°28'67025129.4
2015-Jul-27 01:24N 22°17' E 113°49'650359269.7
2015-Jul-27 01:17N 37°47' W 122°16'618436617.5
2015-Jul-27 01:07N 24°21' E 118°26'462820.3
2015-Jul-27 00:34N 31°37' E 121°18'657295733.5
2015-Jul-27 00:33N 23°05' E 113°34'656214777.0
2015-Jul-27 00:33N 31°39' E 121°14'66274454.7
2015-Jul-27 00:33N 22°59' E 113°33'640576328.3
2015-Jul-27 00:33N 31°00' E 121°26'63823694.4
2015-Jul-27 00:31N 23°04' E 113°29'6489921.5
2015-Jul-27 00:27N 31°11' E 121°28'64858283.5
2015-Jul-27 00:26N 23°04' E 113°29'0 0.7
2015-Jul-27 00:22N 23°04' E 113°29'648952968.2
2015-Jul-27 00:14N 37°47' W 122°16'617751237.3
2015-Jul-27 00:07N 24°25' E 118°31'429763.2
2015-Jul-26 23:33N 31°04' E 121°28'639766645.8
2015-Jul-26 23:33N 23°05' E 113°34'63521165.2
2015-Jul-26 23:32N 31°00' E 121°26'63863843.8
2015-Jul-26 23:31N 23°04' E 113°29'040.8
2015-Jul-26 23:31N 23°04' E 113°29'542123.5
2015-Jul-26 23:29N 22°11' E 113°32'691829223.3
2015-Jul-26 23:29N 31°15' E 121°29'6517437.8
2015-Jul-26 23:24N 23°02' E 113°32'648859735.2
2015-Jul-26 23:17N 37°47' W 122°16'648931998.4
2015-Jul-26 23:05N 23°04' E 113°29'6381203.9
2015-Jul-26 22:33N 31°00' E 121°26'63828001.3
2015-Jul-26 22:32N 23°03' E 113°32'64459451.8
2015-Jul-26 22:31N 31°08' E 121°28'64589263.6
2015-Jul-26 22:31N 23°04' E 113°29'6489248498.9
2015-Jul-26 22:29N 37°47' W 122°16'648962792.6
2015-Jul-26 22:23N 23°04' E 113°29'0 2.2
2015-Jul-26 22:22N 23°04' E 113°29'312.5
2015-Jul-26 22:06N 23°02' E 113°32'6391168.7
2015-Jul-26 21:33N 31°00' E 121°26'643115702.3
2015-Jul-26 21:33N 22°55' E 113°33'66125871.9
2015-Jul-26 21:32N 31°20' E 121°33'65751391.5
2015-Jul-26 21:31N 23°04' E 113°29'648989842.2
2015-Jul-26 21:26N 37°47' W 122°16'648920033.3
2015-Jul-26 21:07N 23°04' E 113°29'6381126.1
2015-Jul-26 20:33N 31°00' E 121°26'237379.8
2015-Jul-26 20:33N 31°23' E 121°30'65781537.5
2015-Jul-26 20:32N 23°04' E 113°29'0 2.2
2015-Jul-26 20:31N 23°04' E 113°29'6489274811.5
2015-Jul-26 20:29N 37°47' W 122°16'6488353885.5
2015-Jul-26 20:28N 23°02' E 113°32'639680.0
2015-Jul-26 19:32N 31°00' E 121°26'40233623.5
2015-Jul-26 19:31N 24°43' E 118°51'31136107.0
2015-Jul-26 19:31N 23°04' E 113°29'6489299472.4
2015-Jul-26 19:29N 37°47' W 122°16'6488231251.9
2015-Jul-26 19:28N 23°02' E 113°32'342.6
2015-Jul-26 19:23N 23°04' E 113°29'315374.5
2015-Jul-26 18:33N 24°46' E 118°55'61421300738.2
2015-Jul-26 18:32N 37°47' W 122°16'5772903436.5
2015-Jul-26 18:32N 31°00' E 121°26'63920553.2
2015-Jul-26 18:30N 23°01' E 113°32'430.0
2015-Jul-26 18:22N 23°04' E 113°29'0 2.6
2015-Jul-26 18:20N 23°04' E 113°29'320408.6
2015-Jul-26 17:33N 24°50' E 118°59'3341202315.6
2015-Jul-26 17:33N 22°11' E 113°39'67556481.5
2015-Jul-26 17:33N 31°00' E 121°26'5772112319.1
2015-Jul-26 17:29N 37°47' W 122°16'648966739.8
2015-Jul-26 17:24N 23°01' E 113°32'4669.3
2015-Jul-26 17:23N 23°04' E 113°29'0 1.0
2015-Jul-26 17:10N 23°04' E 113°29'6381039.5
2015-Jul-26 16:33N 31°00' E 121°26'67271167.8
2015-Jul-26 16:33N 22°06' E 113°51'6210648.7
2015-Jul-26 16:32N 23°04' E 113°29'648942087.8
2015-Jul-26 16:23N 37°47' W 122°16'648911679458.7
2015-Jul-26 16:23N 23°01' E 113°32'4257.1
2015-Jul-26 16:22N 23°04' E 113°29'0 3.3
2015-Jul-26 16:19N 23°04' E 113°29'638846.2
2015-Jul-26 15:33N 31°00' E 121°26'676187301.0
2015-Jul-26 15:33N 22°07' E 113°42'6517300761.9
2015-Jul-26 15:32N 37°47' W 122°16'6489667393.2
2015-Jul-26 15:31N 23°04' E 113°29'521165.9
2015-Jul-26 15:29N 22°14' E 113°43'4811492.4
2015-Jul-26 15:28N 23°01' E 113°32'449.0
2015-Jul-26 15:23N 23°04' E 113°29'0 9.8
2015-Jul-26 15:22N 23°04' E 113°29'638779.1
2015-Jul-26 14:33N 31°00' E 121°26'67771707.2
2015-Jul-26 14:32N 22°11' E 113°35'51134.0
2015-Jul-26 14:32N 22°09' E 113°39'572715.1
2015-Jul-26 14:31N 23°04' E 113°29'6168.5
2015-Jul-26 14:29N 22°59' E 113°33'216.9
2015-Jul-26 14:22N 23°01' E 113°32'4171.0
2015-Jul-26 14:20N 23°04' E 113°29'10216.8
2015-Jul-26 14:17N 22°55' E 113°27'1078.6
2015-Jul-26 14:10N 23°04' E 113°29'107035.5
2015-Jul-26 14:10N 22°55' E 113°27'812.4
2015-Jul-26 13:33N 23°01' E 113°32'7746.5
2015-Jul-26 13:33N 22°54' E 113°29'64655387.3
2015-Jul-26 13:32N 31°00' E 121°26'6383250.5
2015-Jul-26 13:20N 23°04' E 113°29'638815.2
2015-Jul-26 12:33N 31°00' E 121°26'64120227.6
2015-Jul-26 12:31N 22°60' E 113°31'5646.4
2015-Jul-26 12:31N 23°04' E 113°29'351366.1
2015-Jul-26 11:33N 25°15' E 119°26'3941418336.7
2015-Jul-26 11:33N 31°37' E 121°18'376073.3
2015-Jul-26 11:33N 31°00' E 121°26'64043440.0
2015-Jul-26 11:32N 23°01' E 113°32'4388.4
2015-Jul-26 11:31N 23°04' E 113°29'0 0.4
2015-Jul-26 11:23N 23°04' E 113°29'628.9
2015-Jul-26 11:10N 22°59' E 113°33'6132.1
2015-Jul-26 11:08N 23°04' E 113°30'9851729.5
2015-Jul-26 10:33N 39°04' E 117°48'479574972.0
2015-Jul-26 10:33N 31°37' E 121°18'39077910.4
2015-Jul-26 10:33N 25°18' E 119°33'35831442.5
2015-Jul-26 10:32N 23°04' E 113°29'65531853.6
2015-Jul-26 10:31N 31°22' E 121°28'216372.8
2015-Jul-26 10:31N 31°00' E 121°26'638255365.2
2015-Jul-26 10:31N 23°04' E 113°29'54445.5
2015-Jul-26 10:23N 22°11' E 113°32'481982.6
2015-Jul-26 10:22N 22°59' E 113°33'213.7
2015-Jul-26 10:13N 23°01' E 113°32'477.6
2015-Jul-26 10:10N 23°04' E 113°29'37868077.9
2015-Jul-26 10:10N 22°35' E 120°18'3948402.3
2015-Jul-26 10:07N 21°52' E 113°15'7271298.7
2015-Jul-26 09:33N 31°37' E 121°18'3744454.9
2015-Jul-26 09:33N 31°00' E 121°26'70260172.0
2015-Jul-26 09:33N 21°55' E 113°13'7110219.4
2015-Jul-26 09:32N 23°04' E 113°29'375674869.8
2015-Jul-26 09:32N 22°38' E 120°15'37216962.9
2015-Jul-26 09:31N 23°01' E 113°32'41932.2
2015-Jul-26 09:31N 23°04' E 113°29'655589329.1
2015-Jul-26 09:31N 31°22' E 121°28'49739774.6
2015-Jul-26 09:30N 39°05' E 117°46'4667227.6
2015-Jul-26 09:26N 31°47' E 121°03'46475950.6
2015-Jul-26 09:26N 39°04' E 117°50'9858802.1
2015-Jul-26 09:19N 23°04' E 113°29'3674597.8
2015-Jul-26 09:14N 25°23' E 119°41'3665143.1
2015-Jul-26 09:10N 22°59' E 113°33'649.7
2015-Jul-26 09:03N 23°04' E 113°30'6381295.8
2015-Jul-26 08:33N 31°00' E 121°26'212373.6
2015-Jul-26 08:33N 31°21' E 121°27'65417984.6
2015-Jul-26 08:31N 23°04' E 113°29'3762238.7
2015-Jul-26 08:21N 22°37' E 120°16'37652100.7
2015-Jul-26 08:20N 23°04' E 113°29'9859024.7
2015-Jul-26 08:14N 39°05' E 117°45'98837444.5
2015-Jul-26 08:12N 23°01' E 113°32'41687.4
2015-Jul-26 08:12N 23°04' E 113°30'71110.1
2015-Jul-26 07:33N 21°55' E 113°13'70272205.4
2015-Jul-26 07:33N 31°00' E 121°26'63869637.6
2015-Jul-26 07:32N 23°04' E 113°29'65414724.1
2015-Jul-26 07:30N 31°21' E 121°27'65415393.8
2015-Jul-26 07:27N 23°04' E 113°30'465.7
2015-Jul-26 07:24N 23°01' E 113°32'454376.3
2015-Jul-26 07:23N 22°18' E 113°46'431932.6
2015-Jul-26 07:22N 22°59' E 113°33'631.0
2015-Jul-26 07:10N 23°04' E 113°29'6381049.9
2015-Jul-26 06:33N 31°00' E 121°26'212711.9
2015-Jul-26 06:33N 31°21' E 121°27'719369602.1
2015-Jul-26 06:33N 21°55' E 113°13'712341.2
2015-Jul-26 06:31N 23°04' E 113°29'4142.1
2015-Jul-26 06:29N 23°01' E 113°32'216.4
2015-Jul-26 06:22N 22°59' E 113°33'6314.3
2015-Jul-26 06:20N 23°04' E 113°29'048.7
2015-Jul-26 06:20N 23°04' E 113°29'51891.9
2015-Jul-26 06:17N 22°17' E 113°49'4055.4
2015-Jul-26 05:33N 21°55' E 113°13'723520640.0
2015-Jul-26 05:33N 32°01' E 120°35'37743795.3
2015-Jul-26 05:33N 25°47' E 119°40'327147092.4
2015-Jul-26 05:33N 31°00' E 121°26'638135180.9
2015-Jul-26 05:32N 23°04' E 113°29'98529803.5
2015-Jul-26 05:30N 39°05' E 117°46'99021463.9
2015-Jul-26 05:28N 22°59' E 113°33'657147724.0
2015-Jul-26 05:27N 31°21' E 121°27'498119437.2
2015-Jul-26 05:27N 39°05' E 117°45'98812935.2
2015-Jul-26 05:22N 23°01' E 113°32'4344.0
2015-Jul-26 05:22N 23°04' E 113°29'9856031.6
2015-Jul-26 05:12N 39°04' E 117°48'9901544.3
2015-Jul-26 04:33N 22°59' E 113°33'657590896.0
2015-Jul-26 04:33N 31°21' E 121°27'685493151.5
2015-Jul-26 04:33N 22°13' E 113°48'6681202352.4
2015-Jul-26 04:33N 31°00' E 121°26'515123613.0
2015-Jul-26 04:33N 39°04' E 117°50'1056165352.5
2015-Jul-26 04:33N 21°55' E 113°13'712200.3
2015-Jul-26 04:31N 23°04' E 113°29'98573906.8
2015-Jul-26 04:30N 39°04' E 117°51'98829403.1
2015-Jul-26 04:28N 23°01' E 113°32'7453.4
2015-Jul-26 04:27N 22°55' E 113°27'10215.0
2015-Jul-26 04:24N 23°04' E 113°29'0 2.0
2015-Jul-26 04:18N 23°04' E 113°29'64076752.5
2015-Jul-26 04:17N 31°57' E 120°08'640878.7
2015-Jul-26 03:34N 23°05' E 113°27'82534.0
2015-Jul-26 03:33N 22°59' E 113°33'640164666.4
2015-Jul-26 03:33N 31°00' E 121°26'515463757.7
2015-Jul-26 03:33N 39°04' E 117°49'443106222.4
2015-Jul-26 03:33N 31°57' E 120°11'70898019.6
2015-Jul-26 03:32N 21°55' E 113°13'719431208.1
2015-Jul-26 03:32N 31°21' E 121°27'65515613.2
2015-Jul-26 03:30N 23°02' E 113°31'661216183.0
2015-Jul-26 03:30N 31°47' E 121°03'4648527.9
2015-Jul-26 03:26N 39°04' E 117°51'98528841.9
2015-Jul-26 03:24N 23°04' E 113°29'9866682.9
2015-Jul-26 03:15N 39°04' E 117°51'515735.2
2015-Jul-26 02:33N 31°00' E 121°26'5151853691.9
2015-Jul-26 02:33N 39°04' E 117°50'1058190481.1
2015-Jul-26 02:33N 21°53' E 113°11'712284872.0
2015-Jul-26 02:33N 31°57' E 120°15'644773264.9
2015-Jul-26 02:33N 23°01' E 113°32'656181543.3
2015-Jul-26 02:33N 31°21' E 121°27'12640.2
2015-Jul-26 02:31N 31°10' E 121°28'64620410.6
2015-Jul-26 02:30N 23°02' E 113°31'63715178.7
2015-Jul-26 02:27N 31°20' E 120°57'636109044.2
2015-Jul-26 02:27N 23°04' E 113°29'0 0.6
2015-Jul-26 02:22N 23°04' E 113°29'6606264.4
2015-Jul-26 02:16N 31°42' E 121°09'6626286.6
2015-Jul-26 02:09N 22°59' E 113°33'6571101.4
2015-Jul-26 01:33N 31°21' E 121°27'2118983.0
2015-Jul-26 01:33N 31°00' E 121°26'51780923.0
2015-Jul-26 01:33N 39°05' E 117°46'1058136068.2
2015-Jul-26 01:33N 21°53' E 113°11'72784474.4
2015-Jul-26 01:32N 31°40' E 121°13'660103272.3
2015-Jul-26 01:32N 23°03' E 113°31'646211329.4
2015-Jul-26 01:31N 31°10' E 121°28'7654936.8
2015-Jul-26 01:31N 31°59' E 120°19'64721956.9
2015-Jul-26 01:30N 23°04' E 113°29'6150.4
2015-Jul-26 01:27N 22°59' E 113°33'61250.0
2015-Jul-26 01:27N 23°04' E 113°29'015.6
2015-Jul-26 01:26N 23°04' E 113°29'6367952.5
2015-Jul-26 01:21N 31°17' E 121°01'6372922.5
2015-Jul-26 01:08N 23°02' E 113°31'65827556.6
2015-Jul-26 01:06N 32°01' E 120°37'4377.6
2015-Jul-26 00:34N 31°36' E 121°18'727137738.4
2015-Jul-26 00:33N 21°53' E 113°11'6927482.7
2015-Jul-26 00:33N 22°59' E 113°33'64160695.8
2015-Jul-26 00:32N 31°17' E 121°05'253860.8
2015-Jul-26 00:32N 31°00' E 121°26'218439.3
2015-Jul-26 00:32N 31°21' E 121°27'11463.7
2015-Jul-26 00:30N 31°10' E 121°28'64652890.2
2015-Jul-26 00:30N 23°04' E 113°29'041.6
2015-Jul-26 00:30N 23°04' E 113°29'0 4.0
2015-Jul-26 00:26N 23°04' E 113°29'3522.4
2015-Jul-26 00:25N 23°02' E 113°31'65967833.0
2015-Jul-26 00:25N 32°00' E 120°40'65855124.5
2015-Jul-26 00:24N 23°05' E 113°27'9856273.3
2015-Jul-26 00:15N 39°04' E 117°50'485706.2
2015-Jul-25 23:34N 31°31' E 121°23'3127952.5
2015-Jul-25 23:33N 31°00' E 121°26'7019477.3
2015-Jul-25 23:33N 32°01' E 120°44'7291312377.0
2015-Jul-25 23:33N 21°53' E 113°11'71659937.5
2015-Jul-25 23:32N 31°13' E 121°30'65123901.1
2015-Jul-25 23:31N 23°02' E 113°31'65851481.4
2015-Jul-25 23:30N 31°23' E 121°30'65784446.6
2015-Jul-25 23:30N 23°04' E 113°29'67019623.2
2015-Jul-25 23:28N 31°28' E 121°47'67180507.5
2015-Jul-25 23:27N 23°05' E 113°27'3124.0
2015-Jul-25 23:26N 23°04' E 113°29'638729.4
2015-Jul-25 22:33N 31°00' E 121°26'704845290.9
2015-Jul-25 22:33N 21°53' E 113°11'704361985.4
2015-Jul-25 22:33N 31°12' E 121°09'1911459.9
2015-Jul-25 22:33N 31°15' E 121°31'652469498.3
2015-Jul-25 22:33N 23°03' E 113°30'65927602.0
2015-Jul-25 22:31N 31°26' E 121°29'1154.5
2015-Jul-25 22:31N 31°26' E 121°29'66043978.3
2015-Jul-25 22:30N 23°02' E 113°31'6687653.2
2015-Jul-25 22:25N 31°22' E 121°48'6673851.8
2015-Jul-25 22:15N 23°04' E 113°29'73106.5
2015-Jul-25 21:34N 21°53' E 113°11'72272184.5
2015-Jul-25 21:33N 31°18' E 121°34'191645.1
2015-Jul-25 21:32N 31°00' E 121°26'241751.8
2015-Jul-25 21:31N 31°23' E 121°37'66872868.1
2015-Jul-25 21:31N 22°53' E 113°31'11521.0
2015-Jul-25 21:30N 23°04' E 113°29'0 1.1
2015-Jul-25 21:27N 23°04' E 113°29'6583872.9
2015-Jul-25 21:16N 31°29' E 121°24'2940.1
2015-Jul-25 20:33N 31°00' E 121°26'704169055.8
2015-Jul-25 20:33N 21°53' E 113°11'723153046.7
2015-Jul-25 20:33N 31°21' E 121°31'1119090.0
2015-Jul-25 20:33N 31°18' E 121°43'6718946.4
2015-Jul-25 20:28N 22°55' E 113°25'6688526.9
2015-Jul-25 20:24N 31°32' E 121°21'6586564.6
2015-Jul-25 20:18N 23°04' E 113°29'3252.2
2015-Jul-25 20:17N 23°02' E 113°31'6625343.1
2015-Jul-25 20:09N 31°55' E 120°53'63105.5
2015-Jul-25 19:33N 31°13' E 121°49'726237690.8
2015-Jul-25 19:33N 21°53' E 113°11'724173756.9
2015-Jul-25 19:33N 31°23' E 121°30'2320770.5
2015-Jul-25 19:33N 31°00' E 121°26'59284.1
2015-Jul-25 19:20N 31°52' E 120°54'6592675.2
2015-Jul-25 19:06N 23°04' E 113°29'73135.0
2015-Jul-25 18:33N 21°53' E 113°11'704422648.5
2015-Jul-25 18:33N 31°00' E 121°26'63999996.1
2015-Jul-25 18:33N 23°05' E 113°27'66025293.1
2015-Jul-25 18:31N 31°12' E 121°49'225191.4
2015-Jul-25 18:31N 31°26' E 121°29'382099.4
2015-Jul-25 18:30N 31°50' E 120°55'65812140.0
2015-Jul-25 18:27N 23°04' E 113°29'339.2
2015-Jul-25 18:22N 23°02' E 113°31'347.1
2015-Jul-25 18:18N 23°04' E 113°29'658893.9
2015-Jul-25 17:33N 31°29' E 121°25'2917179.8
2015-Jul-25 17:33N 31°00' E 121°26'2240037.5
2015-Jul-25 17:33N 31°12' E 121°49'72429611.5
2015-Jul-25 17:32N 21°52' E 113°16'732003.2
2015-Jul-25 17:30N 23°04' E 113°29'322.3
2015-Jul-25 17:21N 23°02' E 113°31'353.7
2015-Jul-25 17:18N 23°04' E 113°29'223.9
2015-Jul-25 17:12N 23°05' E 113°27'6591037.7
2015-Jul-25 16:33N 31°32' E 121°20'3211585.7
2015-Jul-25 16:33N 31°00' E 121°26'63960573.9
2015-Jul-25 16:33N 23°02' E 113°31'363.5
2015-Jul-25 16:30N 23°04' E 113°29'0 1.2
2015-Jul-25 16:27N 23°04' E 113°29'212.1
2015-Jul-25 16:15N 23°05' E 113°27'45329.4
2015-Jul-25 16:07N 22°28' E 113°53'6541183.8
2015-Jul-25 15:33N 31°00' E 121°26'2215983.3
2015-Jul-25 15:33N 31°12' E 121°49'372462.7
2015-Jul-25 15:32N 31°36' E 121°16'  

Dump ship's entire track history